<?xml version="1.0" encoding="UTF-8" standalone="no" ?>
<gpx xmlns="http://www.topografix.com/GPX/1/1" xmlns:xsi="http://www.w3.org/2001/XMLSchema-instance" xsi:schemaLocation="http://www.topografix.com/GPX/1/1 http://www.topografix.com/GPX/1/1/gpx.xsd" version="1.1" creator="VisuGPX - https://www.visugpx.com">
  <metadata>
    <name>Autour de St Roman de Malgarde</name>
    <desc><![CDATA[Balade autour de Saint Roman de Malgarde.]]></desc>
  </metadata>
  <trk>
    <name><![CDATA[2018-02-12 13:51:34]]></name>
    <trkseg>
      <trkpt lat="44.27055" lon="4.96446">
        <ele>168.85</ele>
        <time>2018-02-12T08:33:29Z</time>
      </trkpt>
      <trkpt lat="44.27055" lon="4.96446">
        <ele>168.85</ele>
        <time>2018-02-12T08:33:30Z</time>
      </trkpt>
      <trkpt lat="44.27056" lon="4.96445">
        <ele>169.33</ele>
        <time>2018-02-12T08:34:01Z</time>
      </trkpt>
      <trkpt lat="44.27054" lon="4.96443">
        <ele>169.81</ele>
        <time>2018-02-12T08:34:41Z</time>
      </trkpt>
      <trkpt lat="44.27054" lon="4.96444">
        <ele>168.37</ele>
        <time>2018-02-12T08:34:51Z</time>
      </trkpt>
      <trkpt lat="44.27056" lon="4.96443">
        <ele>168.37</ele>
        <time>2018-02-12T08:35:13Z</time>
      </trkpt>
      <trkpt lat="44.27056" lon="4.96441">
        <ele>168.37</ele>
        <time>2018-02-12T08:35:36Z</time>
      </trkpt>
      <trkpt lat="44.2705" lon="4.96434">
        <ele>169.81</ele>
        <time>2018-02-12T08:35:46Z</time>
      </trkpt>
      <trkpt lat="44.27043" lon="4.96431">
        <ele>169.81</ele>
        <time>2018-02-12T08:35:55Z</time>
      </trkpt>
      <trkpt lat="44.27032" lon="4.9642">
        <ele>171.73</ele>
        <time>2018-02-12T08:36:14Z</time>
      </trkpt>
      <trkpt lat="44.27032" lon="4.9642">
        <ele>170.29</ele>
        <time>2018-02-12T08:36:19Z</time>
      </trkpt>
      <trkpt lat="44.27031" lon="4.96419">
        <ele>170.29</ele>
        <time>2018-02-12T08:36:24Z</time>
      </trkpt>
      <trkpt lat="44.27029" lon="4.96418">
        <ele>170.29</ele>
        <time>2018-02-12T08:36:27Z</time>
      </trkpt>
      <trkpt lat="44.27027" lon="4.96419">
        <ele>173.17</ele>
        <time>2018-02-12T08:36:29Z</time>
      </trkpt>
      <trkpt lat="44.27026" lon="4.9642">
        <ele>171.73</ele>
        <time>2018-02-12T08:36:30Z</time>
      </trkpt>
      <trkpt lat="44.27015" lon="4.96427">
        <ele>173.17</ele>
        <time>2018-02-12T08:36:40Z</time>
      </trkpt>
      <trkpt lat="44.27004" lon="4.96432">
        <ele>174.62</ele>
        <time>2018-02-12T08:36:53Z</time>
      </trkpt>
      <trkpt lat="44.26989" lon="4.96439">
        <ele>175.58</ele>
        <time>2018-02-12T08:37:08Z</time>
      </trkpt>
      <trkpt lat="44.26989" lon="4.9644">
        <ele>177.02</ele>
        <time>2018-02-12T08:37:10Z</time>
      </trkpt>
      <trkpt lat="44.26983" lon="4.96443">
        <ele>177.98</ele>
        <time>2018-02-12T08:37:25Z</time>
      </trkpt>
      <trkpt lat="44.26982" lon="4.96444">
        <ele>176.54</ele>
        <time>2018-02-12T08:37:53Z</time>
      </trkpt>
      <trkpt lat="44.26982" lon="4.96441">
        <ele>177.98</ele>
        <time>2018-02-12T08:38:04Z</time>
      </trkpt>
      <trkpt lat="44.26981" lon="4.96441">
        <ele>176.54</ele>
        <time>2018-02-12T08:38:11Z</time>
      </trkpt>
      <trkpt lat="44.26973" lon="4.96439">
        <ele>177.5</ele>
        <time>2018-02-12T08:38:27Z</time>
      </trkpt>
      <trkpt lat="44.26968" lon="4.96439">
        <ele>178.94</ele>
        <time>2018-02-12T08:38:41Z</time>
      </trkpt>
      <trkpt lat="44.26954" lon="4.9644">
        <ele>180.87</ele>
        <time>2018-02-12T08:38:57Z</time>
      </trkpt>
      <trkpt lat="44.26941" lon="4.96443">
        <ele>181.35</ele>
        <time>2018-02-12T08:39:10Z</time>
      </trkpt>
      <trkpt lat="44.26924" lon="4.96445">
        <ele>187.11</ele>
        <time>2018-02-12T08:39:28Z</time>
      </trkpt>
      <trkpt lat="44.26922" lon="4.96444">
        <ele>184.71</ele>
        <time>2018-02-12T08:39:31Z</time>
      </trkpt>
      <trkpt lat="44.26913" lon="4.96449">
        <ele>185.67</ele>
        <time>2018-02-12T08:39:41Z</time>
      </trkpt>
      <trkpt lat="44.26902" lon="4.96436">
        <ele>188.08</ele>
        <time>2018-02-12T08:39:57Z</time>
      </trkpt>
      <trkpt lat="44.26902" lon="4.96434">
        <ele>189.04</ele>
        <time>2018-02-12T08:39:59Z</time>
      </trkpt>
      <trkpt lat="44.26906" lon="4.96416">
        <ele>190.96</ele>
        <time>2018-02-12T08:40:14Z</time>
      </trkpt>
      <trkpt lat="44.26907" lon="4.964">
        <ele>193.84</ele>
        <time>2018-02-12T08:40:27Z</time>
      </trkpt>
      <trkpt lat="44.26902" lon="4.96392">
        <ele>195.77</ele>
        <time>2018-02-12T08:40:42Z</time>
      </trkpt>
      <trkpt lat="44.26901" lon="4.96392">
        <ele>194.32</ele>
        <time>2018-02-12T08:40:45Z</time>
      </trkpt>
      <trkpt lat="44.26894" lon="4.96391">
        <ele>194.32</ele>
        <time>2018-02-12T08:40:57Z</time>
      </trkpt>
      <trkpt lat="44.26888" lon="4.96388">
        <ele>194.32</ele>
        <time>2018-02-12T08:41:07Z</time>
      </trkpt>
      <trkpt lat="44.26882" lon="4.96385">
        <ele>195.28</ele>
        <time>2018-02-12T08:41:13Z</time>
      </trkpt>
      <trkpt lat="44.26873" lon="4.96371">
        <ele>196.25</ele>
        <time>2018-02-12T08:41:28Z</time>
      </trkpt>
      <trkpt lat="44.26871" lon="4.96356">
        <ele>197.69</ele>
        <time>2018-02-12T08:41:44Z</time>
      </trkpt>
      <trkpt lat="44.26872" lon="4.9635">
        <ele>197.21</ele>
        <time>2018-02-12T08:41:49Z</time>
      </trkpt>
      <trkpt lat="44.26875" lon="4.96335">
        <ele>195.77</ele>
        <time>2018-02-12T08:42:01Z</time>
      </trkpt>
      <trkpt lat="44.26872" lon="4.96316">
        <ele>194.32</ele>
        <time>2018-02-12T08:42:15Z</time>
      </trkpt>
      <trkpt lat="44.26871" lon="4.96302">
        <ele>193.84</ele>
        <time>2018-02-12T08:42:32Z</time>
      </trkpt>
      <trkpt lat="44.26867" lon="4.96293">
        <ele>194.8</ele>
        <time>2018-02-12T08:42:54Z</time>
      </trkpt>
      <trkpt lat="44.26866" lon="4.9629">
        <ele>193.36</ele>
        <time>2018-02-12T08:42:57Z</time>
      </trkpt>
      <trkpt lat="44.26862" lon="4.96282">
        <ele>193.36</ele>
        <time>2018-02-12T08:43:06Z</time>
      </trkpt>
      <trkpt lat="44.2686" lon="4.96277">
        <ele>194.8</ele>
        <time>2018-02-12T08:43:10Z</time>
      </trkpt>
      <trkpt lat="44.2686" lon="4.96274">
        <ele>192.88</ele>
        <time>2018-02-12T08:43:12Z</time>
      </trkpt>
      <trkpt lat="44.26856" lon="4.9624">
        <ele>190.48</ele>
        <time>2018-02-12T08:43:33Z</time>
      </trkpt>
      <trkpt lat="44.26856" lon="4.96227">
        <ele>190.48</ele>
        <time>2018-02-12T08:43:41Z</time>
      </trkpt>
      <trkpt lat="44.26856" lon="4.96225">
        <ele>190.48</ele>
        <time>2018-02-12T08:43:42Z</time>
      </trkpt>
      <trkpt lat="44.26855" lon="4.9622">
        <ele>188.56</ele>
        <time>2018-02-12T08:43:45Z</time>
      </trkpt>
      <trkpt lat="44.26853" lon="4.96198">
        <ele>188.08</ele>
        <time>2018-02-12T08:44:00Z</time>
      </trkpt>
      <trkpt lat="44.26852" lon="4.9617">
        <ele>185.67</ele>
        <time>2018-02-12T08:44:18Z</time>
      </trkpt>
      <trkpt lat="44.2685" lon="4.96153">
        <ele>185.19</ele>
        <time>2018-02-12T08:44:29Z</time>
      </trkpt>
      <trkpt lat="44.26847" lon="4.96129">
        <ele>183.75</ele>
        <time>2018-02-12T08:44:47Z</time>
      </trkpt>
      <trkpt lat="44.26844" lon="4.96109">
        <ele>181.35</ele>
        <time>2018-02-12T08:45:00Z</time>
      </trkpt>
      <trkpt lat="44.26841" lon="4.96083">
        <ele>179.42</ele>
        <time>2018-02-12T08:45:17Z</time>
      </trkpt>
      <trkpt lat="44.26837" lon="4.96056">
        <ele>177.02</ele>
        <time>2018-02-12T08:45:37Z</time>
      </trkpt>
      <trkpt lat="44.26831" lon="4.96032">
        <ele>174.14</ele>
        <time>2018-02-12T08:45:54Z</time>
      </trkpt>
      <trkpt lat="44.26823" lon="4.96014">
        <ele>170.77</ele>
        <time>2018-02-12T08:46:07Z</time>
      </trkpt>
      <trkpt lat="44.26823" lon="4.96013">
        <ele>174.14</ele>
        <time>2018-02-12T08:46:08Z</time>
      </trkpt>
      <trkpt lat="44.26822" lon="4.96012">
        <ele>172.69</ele>
        <time>2018-02-12T08:46:09Z</time>
      </trkpt>
      <trkpt lat="44.2682" lon="4.96004">
        <ele>173.66</ele>
        <time>2018-02-12T08:46:15Z</time>
      </trkpt>
      <trkpt lat="44.26812" lon="4.95984">
        <ele>173.66</ele>
        <time>2018-02-12T08:46:30Z</time>
      </trkpt>
      <trkpt lat="44.26807" lon="4.95973">
        <ele>172.21</ele>
        <time>2018-02-12T08:46:38Z</time>
      </trkpt>
      <trkpt lat="44.26794" lon="4.95942">
        <ele>169.81</ele>
        <time>2018-02-12T08:47:01Z</time>
      </trkpt>
      <trkpt lat="44.26787" lon="4.95918">
        <ele>167.89</ele>
        <time>2018-02-12T08:47:20Z</time>
      </trkpt>
      <trkpt lat="44.26781" lon="4.95897">
        <ele>166.93</ele>
        <time>2018-02-12T08:47:34Z</time>
      </trkpt>
      <trkpt lat="44.26777" lon="4.95892">
        <ele>166.93</ele>
        <time>2018-02-12T08:47:39Z</time>
      </trkpt>
      <trkpt lat="44.26757" lon="4.95881">
        <ele>168.37</ele>
        <time>2018-02-12T08:47:58Z</time>
      </trkpt>
      <trkpt lat="44.26737" lon="4.9588">
        <ele>169.81</ele>
        <time>2018-02-12T08:48:16Z</time>
      </trkpt>
      <trkpt lat="44.26734" lon="4.95879">
        <ele>170.77</ele>
        <time>2018-02-12T08:48:19Z</time>
      </trkpt>
      <trkpt lat="44.26731" lon="4.95878">
        <ele>171.25</ele>
        <time>2018-02-12T08:48:22Z</time>
      </trkpt>
      <trkpt lat="44.26724" lon="4.95878">
        <ele>171.73</ele>
        <time>2018-02-12T08:48:29Z</time>
      </trkpt>
      <trkpt lat="44.26705" lon="4.95874">
        <ele>173.17</ele>
        <time>2018-02-12T08:48:45Z</time>
      </trkpt>
      <trkpt lat="44.26693" lon="4.95869">
        <ele>175.1</ele>
        <time>2018-02-12T08:48:56Z</time>
      </trkpt>
      <trkpt lat="44.26673" lon="4.95855">
        <ele>176.54</ele>
        <time>2018-02-12T08:49:16Z</time>
      </trkpt>
      <trkpt lat="44.26653" lon="4.95849">
        <ele>178.94</ele>
        <time>2018-02-12T08:49:34Z</time>
      </trkpt>
      <trkpt lat="44.26635" lon="4.95851">
        <ele>180.38</ele>
        <time>2018-02-12T08:49:52Z</time>
      </trkpt>
      <trkpt lat="44.26614" lon="4.95852">
        <ele>183.27</ele>
        <time>2018-02-12T08:50:12Z</time>
      </trkpt>
      <trkpt lat="44.26612" lon="4.95853">
        <ele>183.27</ele>
        <time>2018-02-12T08:50:14Z</time>
      </trkpt>
      <trkpt lat="44.26591" lon="4.95855">
        <ele>185.67</ele>
        <time>2018-02-12T08:50:35Z</time>
      </trkpt>
      <trkpt lat="44.26573" lon="4.95855">
        <ele>188.08</ele>
        <time>2018-02-12T08:50:53Z</time>
      </trkpt>
      <trkpt lat="44.26559" lon="4.95853">
        <ele>190.96</ele>
        <time>2018-02-12T08:51:07Z</time>
      </trkpt>
      <trkpt lat="44.26551" lon="4.9585">
        <ele>191.92</ele>
        <time>2018-02-12T08:51:22Z</time>
      </trkpt>
      <trkpt lat="44.26541" lon="4.95849">
        <ele>192.4</ele>
        <time>2018-02-12T08:51:35Z</time>
      </trkpt>
      <trkpt lat="44.26532" lon="4.95849">
        <ele>193.84</ele>
        <time>2018-02-12T08:51:51Z</time>
      </trkpt>
      <trkpt lat="44.26533" lon="4.95849">
        <ele>194.8</ele>
        <time>2018-02-12T08:52:09Z</time>
      </trkpt>
      <trkpt lat="44.26531" lon="4.95851">
        <ele>194.32</ele>
        <time>2018-02-12T08:52:22Z</time>
      </trkpt>
      <trkpt lat="44.26531" lon="4.95851">
        <ele>193.84</ele>
        <time>2018-02-12T08:52:39Z</time>
      </trkpt>
      <trkpt lat="44.26528" lon="4.95854">
        <ele>194.32</ele>
        <time>2018-02-12T08:53:33Z</time>
      </trkpt>
      <trkpt lat="44.26528" lon="4.95852">
        <ele>195.28</ele>
        <time>2018-02-12T08:53:58Z</time>
      </trkpt>
      <trkpt lat="44.26528" lon="4.95853">
        <ele>193.84</ele>
        <time>2018-02-12T08:54:07Z</time>
      </trkpt>
      <trkpt lat="44.26524" lon="4.95848">
        <ele>193.84</ele>
        <time>2018-02-12T08:54:24Z</time>
      </trkpt>
      <trkpt lat="44.26517" lon="4.95848">
        <ele>197.21</ele>
        <time>2018-02-12T08:54:32Z</time>
      </trkpt>
      <trkpt lat="44.26507" lon="4.9585">
        <ele>197.69</ele>
        <time>2018-02-12T08:54:44Z</time>
      </trkpt>
      <trkpt lat="44.26502" lon="4.95849">
        <ele>198.17</ele>
        <time>2018-02-12T08:54:49Z</time>
      </trkpt>
      <trkpt lat="44.26486" lon="4.95848">
        <ele>199.61</ele>
        <time>2018-02-12T08:55:05Z</time>
      </trkpt>
      <trkpt lat="44.2647" lon="4.95846">
        <ele>202.01</ele>
        <time>2018-02-12T08:55:20Z</time>
      </trkpt>
      <trkpt lat="44.26463" lon="4.95846">
        <ele>203.94</ele>
        <time>2018-02-12T08:55:28Z</time>
      </trkpt>
      <trkpt lat="44.26451" lon="4.95848">
        <ele>205.38</ele>
        <time>2018-02-12T08:55:41Z</time>
      </trkpt>
      <trkpt lat="44.26448" lon="4.95849">
        <ele>205.86</ele>
        <time>2018-02-12T08:55:52Z</time>
      </trkpt>
      <trkpt lat="44.2644" lon="4.95851">
        <ele>206.34</ele>
        <time>2018-02-12T08:56:03Z</time>
      </trkpt>
      <trkpt lat="44.26437" lon="4.95851">
        <ele>206.34</ele>
        <time>2018-02-12T08:56:06Z</time>
      </trkpt>
      <trkpt lat="44.26434" lon="4.9585">
        <ele>207.78</ele>
        <time>2018-02-12T08:56:08Z</time>
      </trkpt>
      <trkpt lat="44.26421" lon="4.95851">
        <ele>207.3</ele>
        <time>2018-02-12T08:56:19Z</time>
      </trkpt>
      <trkpt lat="44.26404" lon="4.95853">
        <ele>209.7</ele>
        <time>2018-02-12T08:56:37Z</time>
      </trkpt>
      <trkpt lat="44.26386" lon="4.95858">
        <ele>212.59</ele>
        <time>2018-02-12T08:56:56Z</time>
      </trkpt>
      <trkpt lat="44.26373" lon="4.9586">
        <ele>214.99</ele>
        <time>2018-02-12T08:57:12Z</time>
      </trkpt>
      <trkpt lat="44.26355" lon="4.95856">
        <ele>216.91</ele>
        <time>2018-02-12T08:57:30Z</time>
      </trkpt>
      <trkpt lat="44.26347" lon="4.95852">
        <ele>217.4</ele>
        <time>2018-02-12T08:57:38Z</time>
      </trkpt>
      <trkpt lat="44.26332" lon="4.95835">
        <ele>219.32</ele>
        <time>2018-02-12T08:57:56Z</time>
      </trkpt>
      <trkpt lat="44.2632" lon="4.95818">
        <ele>220.28</ele>
        <time>2018-02-12T08:58:11Z</time>
      </trkpt>
      <trkpt lat="44.2632" lon="4.95815">
        <ele>223.64</ele>
        <time>2018-02-12T08:58:13Z</time>
      </trkpt>
      <trkpt lat="44.2632" lon="4.95814">
        <ele>219.8</ele>
        <time>2018-02-12T08:58:14Z</time>
      </trkpt>
      <trkpt lat="44.26317" lon="4.95811">
        <ele>218.84</ele>
        <time>2018-02-12T08:58:18Z</time>
      </trkpt>
      <trkpt lat="44.26312" lon="4.95798">
        <ele>220.76</ele>
        <time>2018-02-12T08:58:27Z</time>
      </trkpt>
      <trkpt lat="44.263" lon="4.95767">
        <ele>220.28</ele>
        <time>2018-02-12T08:58:47Z</time>
      </trkpt>
      <trkpt lat="44.2629" lon="4.95741">
        <ele>221.72</ele>
        <time>2018-02-12T08:59:05Z</time>
      </trkpt>
      <trkpt lat="44.26277" lon="4.95713">
        <ele>222.68</ele>
        <time>2018-02-12T08:59:26Z</time>
      </trkpt>
      <trkpt lat="44.26275" lon="4.95709">
        <ele>221.72</ele>
        <time>2018-02-12T08:59:29Z</time>
      </trkpt>
      <trkpt lat="44.26266" lon="4.95691">
        <ele>223.16</ele>
        <time>2018-02-12T08:59:44Z</time>
      </trkpt>
      <trkpt lat="44.26264" lon="4.95687">
        <ele>224.61</ele>
        <time>2018-02-12T08:59:47Z</time>
      </trkpt>
      <trkpt lat="44.26261" lon="4.95682">
        <ele>225.57</ele>
        <time>2018-02-12T08:59:52Z</time>
      </trkpt>
      <trkpt lat="44.26258" lon="4.95678">
        <ele>225.57</ele>
        <time>2018-02-12T08:59:56Z</time>
      </trkpt>
      <trkpt lat="44.26258" lon="4.95677">
        <ele>225.57</ele>
        <time>2018-02-12T08:59:57Z</time>
      </trkpt>
      <trkpt lat="44.26254" lon="4.95671">
        <ele>226.53</ele>
        <time>2018-02-12T09:00:03Z</time>
      </trkpt>
      <trkpt lat="44.26244" lon="4.95659">
        <ele>225.57</ele>
        <time>2018-02-12T09:00:17Z</time>
      </trkpt>
      <trkpt lat="44.26243" lon="4.95659">
        <ele>227.97</ele>
        <time>2018-02-12T09:00:18Z</time>
      </trkpt>
      <trkpt lat="44.26235" lon="4.95655">
        <ele>226.53</ele>
        <time>2018-02-12T09:00:25Z</time>
      </trkpt>
      <trkpt lat="44.26216" lon="4.95648">
        <ele>226.53</ele>
        <time>2018-02-12T09:00:44Z</time>
      </trkpt>
      <trkpt lat="44.26196" lon="4.95641">
        <ele>225.09</ele>
        <time>2018-02-12T09:01:02Z</time>
      </trkpt>
      <trkpt lat="44.26178" lon="4.95637">
        <ele>225.09</ele>
        <time>2018-02-12T09:01:18Z</time>
      </trkpt>
      <trkpt lat="44.26163" lon="4.95629">
        <ele>226.53</ele>
        <time>2018-02-12T09:01:30Z</time>
      </trkpt>
      <trkpt lat="44.26149" lon="4.95619">
        <ele>229.89</ele>
        <time>2018-02-12T09:01:48Z</time>
      </trkpt>
      <trkpt lat="44.26149" lon="4.95619">
        <ele>229.89</ele>
        <time>2018-02-12T09:01:49Z</time>
      </trkpt>
      <trkpt lat="44.2615" lon="4.95621">
        <ele>227.97</ele>
        <time>2018-02-12T09:01:52Z</time>
      </trkpt>
      <trkpt lat="44.26151" lon="4.95622">
        <ele>227.97</ele>
        <time>2018-02-12T09:02:15Z</time>
      </trkpt>
      <trkpt lat="44.26151" lon="4.95622">
        <ele>227.01</ele>
        <time>2018-02-12T09:02:18Z</time>
      </trkpt>
      <trkpt lat="44.26145" lon="4.95619">
        <ele>227.97</ele>
        <time>2018-02-12T09:02:28Z</time>
      </trkpt>
      <trkpt lat="44.26137" lon="4.95616">
        <ele>230.37</ele>
        <time>2018-02-12T09:02:36Z</time>
      </trkpt>
      <trkpt lat="44.26124" lon="4.95612">
        <ele>231.81</ele>
        <time>2018-02-12T09:02:53Z</time>
      </trkpt>
      <trkpt lat="44.2612" lon="4.9561">
        <ele>231.33</ele>
        <time>2018-02-12T09:02:59Z</time>
      </trkpt>
      <trkpt lat="44.26117" lon="4.95607">
        <ele>231.33</ele>
        <time>2018-02-12T09:03:02Z</time>
      </trkpt>
      <trkpt lat="44.26115" lon="4.95607">
        <ele>234.22</ele>
        <time>2018-02-12T09:03:03Z</time>
      </trkpt>
      <trkpt lat="44.26103" lon="4.95598">
        <ele>231.81</ele>
        <time>2018-02-12T09:03:16Z</time>
      </trkpt>
      <trkpt lat="44.261" lon="4.95596">
        <ele>234.7</ele>
        <time>2018-02-12T09:03:18Z</time>
      </trkpt>
      <trkpt lat="44.26099" lon="4.95596">
        <ele>233.26</ele>
        <time>2018-02-12T09:03:19Z</time>
      </trkpt>
      <trkpt lat="44.26086" lon="4.95589">
        <ele>234.7</ele>
        <time>2018-02-12T09:03:33Z</time>
      </trkpt>
      <trkpt lat="44.26083" lon="4.95588">
        <ele>235.18</ele>
        <time>2018-02-12T09:03:35Z</time>
      </trkpt>
      <trkpt lat="44.26074" lon="4.95587">
        <ele>235.18</ele>
        <time>2018-02-12T09:03:48Z</time>
      </trkpt>
      <trkpt lat="44.26059" lon="4.95583">
        <ele>235.18</ele>
        <time>2018-02-12T09:03:59Z</time>
      </trkpt>
      <trkpt lat="44.26044" lon="4.95581">
        <ele>235.18</ele>
        <time>2018-02-12T09:04:13Z</time>
      </trkpt>
      <trkpt lat="44.26028" lon="4.9558">
        <ele>235.66</ele>
        <time>2018-02-12T09:04:27Z</time>
      </trkpt>
      <trkpt lat="44.26017" lon="4.95577">
        <ele>234.22</ele>
        <time>2018-02-12T09:04:37Z</time>
      </trkpt>
      <trkpt lat="44.26011" lon="4.95575">
        <ele>235.66</ele>
        <time>2018-02-12T09:04:43Z</time>
      </trkpt>
      <trkpt lat="44.25996" lon="4.95575">
        <ele>236.14</ele>
        <time>2018-02-12T09:04:56Z</time>
      </trkpt>
      <trkpt lat="44.25982" lon="4.95576">
        <ele>237.1</ele>
        <time>2018-02-12T09:05:10Z</time>
      </trkpt>
      <trkpt lat="44.25968" lon="4.95579">
        <ele>237.1</ele>
        <time>2018-02-12T09:05:25Z</time>
      </trkpt>
      <trkpt lat="44.25963" lon="4.95579">
        <ele>238.54</ele>
        <time>2018-02-12T09:05:33Z</time>
      </trkpt>
      <trkpt lat="44.25962" lon="4.95578">
        <ele>238.54</ele>
        <time>2018-02-12T09:05:34Z</time>
      </trkpt>
      <trkpt lat="44.25958" lon="4.95572">
        <ele>237.58</ele>
        <time>2018-02-12T09:05:41Z</time>
      </trkpt>
      <trkpt lat="44.25957" lon="4.95569">
        <ele>239.02</ele>
        <time>2018-02-12T09:05:43Z</time>
      </trkpt>
      <trkpt lat="44.25961" lon="4.95549">
        <ele>239.51</ele>
        <time>2018-02-12T09:05:58Z</time>
      </trkpt>
      <trkpt lat="44.25957" lon="4.95521">
        <ele>240.47</ele>
        <time>2018-02-12T09:06:17Z</time>
      </trkpt>
      <trkpt lat="44.25944" lon="4.95508">
        <ele>242.39</ele>
        <time>2018-02-12T09:06:34Z</time>
      </trkpt>
      <trkpt lat="44.25938" lon="4.95508">
        <ele>242.39</ele>
        <time>2018-02-12T09:06:41Z</time>
      </trkpt>
      <trkpt lat="44.25925" lon="4.95521">
        <ele>242.39</ele>
        <time>2018-02-12T09:06:55Z</time>
      </trkpt>
      <trkpt lat="44.25922" lon="4.95522">
        <ele>243.35</ele>
        <time>2018-02-12T09:07:03Z</time>
      </trkpt>
      <trkpt lat="44.25921" lon="4.95522">
        <ele>241.91</ele>
        <time>2018-02-12T09:07:08Z</time>
      </trkpt>
      <trkpt lat="44.25919" lon="4.95526">
        <ele>241.43</ele>
        <time>2018-02-12T09:07:13Z</time>
      </trkpt>
      <trkpt lat="44.25915" lon="4.9553">
        <ele>241.91</ele>
        <time>2018-02-12T09:07:18Z</time>
      </trkpt>
      <trkpt lat="44.259" lon="4.95544">
        <ele>241.43</ele>
        <time>2018-02-12T09:07:33Z</time>
      </trkpt>
      <trkpt lat="44.25884" lon="4.95559">
        <ele>240.95</ele>
        <time>2018-02-12T09:07:51Z</time>
      </trkpt>
      <trkpt lat="44.25876" lon="4.95573">
        <ele>240.95</ele>
        <time>2018-02-12T09:08:04Z</time>
      </trkpt>
      <trkpt lat="44.25863" lon="4.95594">
        <ele>240.47</ele>
        <time>2018-02-12T09:08:22Z</time>
      </trkpt>
      <trkpt lat="44.25852" lon="4.95606">
        <ele>239.99</ele>
        <time>2018-02-12T09:08:35Z</time>
      </trkpt>
      <trkpt lat="44.25836" lon="4.95616">
        <ele>239.51</ele>
        <time>2018-02-12T09:08:50Z</time>
      </trkpt>
      <trkpt lat="44.2582" lon="4.95624">
        <ele>240.95</ele>
        <time>2018-02-12T09:09:06Z</time>
      </trkpt>
      <trkpt lat="44.258" lon="4.95629">
        <ele>240.47</ele>
        <time>2018-02-12T09:09:23Z</time>
      </trkpt>
      <trkpt lat="44.25783" lon="4.95638">
        <ele>239.02</ele>
        <time>2018-02-12T09:09:41Z</time>
      </trkpt>
      <trkpt lat="44.25781" lon="4.9564">
        <ele>239.02</ele>
        <time>2018-02-12T09:09:44Z</time>
      </trkpt>
      <trkpt lat="44.25781" lon="4.9564">
        <ele>238.54</ele>
        <time>2018-02-12T09:09:57Z</time>
      </trkpt>
      <trkpt lat="44.25782" lon="4.95642">
        <ele>238.54</ele>
        <time>2018-02-12T09:10:19Z</time>
      </trkpt>
      <trkpt lat="44.25781" lon="4.95654">
        <ele>238.54</ele>
        <time>2018-02-12T09:10:30Z</time>
      </trkpt>
      <trkpt lat="44.2578" lon="4.95677">
        <ele>239.51</ele>
        <time>2018-02-12T09:10:48Z</time>
      </trkpt>
      <trkpt lat="44.2578" lon="4.9568">
        <ele>239.51</ele>
        <time>2018-02-12T09:10:50Z</time>
      </trkpt>
      <trkpt lat="44.25782" lon="4.957">
        <ele>240.47</ele>
        <time>2018-02-12T09:11:06Z</time>
      </trkpt>
      <trkpt lat="44.25785" lon="4.95721">
        <ele>239.51</ele>
        <time>2018-02-12T09:11:21Z</time>
      </trkpt>
      <trkpt lat="44.25788" lon="4.95744">
        <ele>240.95</ele>
        <time>2018-02-12T09:11:36Z</time>
      </trkpt>
      <trkpt lat="44.2579" lon="4.95774">
        <ele>242.87</ele>
        <time>2018-02-12T09:11:55Z</time>
      </trkpt>
      <trkpt lat="44.25791" lon="4.95799">
        <ele>241.43</ele>
        <time>2018-02-12T09:12:12Z</time>
      </trkpt>
      <trkpt lat="44.2579" lon="4.95804">
        <ele>245.27</ele>
        <time>2018-02-12T09:12:18Z</time>
      </trkpt>
      <trkpt lat="44.2579" lon="4.95802">
        <ele>242.87</ele>
        <time>2018-02-12T09:12:36Z</time>
      </trkpt>
      <trkpt lat="44.25789" lon="4.95797">
        <ele>243.35</ele>
        <time>2018-02-12T09:12:48Z</time>
      </trkpt>
      <trkpt lat="44.25788" lon="4.95795">
        <ele>243.35</ele>
        <time>2018-02-12T09:13:09Z</time>
      </trkpt>
      <trkpt lat="44.25788" lon="4.95795">
        <ele>241.91</ele>
        <time>2018-02-12T09:13:11Z</time>
      </trkpt>
      <trkpt lat="44.25787" lon="4.95794">
        <ele>243.35</ele>
        <time>2018-02-12T09:13:17Z</time>
      </trkpt>
      <trkpt lat="44.25788" lon="4.95796">
        <ele>243.35</ele>
        <time>2018-02-12T09:13:39Z</time>
      </trkpt>
      <trkpt lat="44.25788" lon="4.95804">
        <ele>244.31</ele>
        <time>2018-02-12T09:13:55Z</time>
      </trkpt>
      <trkpt lat="44.25785" lon="4.95824">
        <ele>240.95</ele>
        <time>2018-02-12T09:14:12Z</time>
      </trkpt>
      <trkpt lat="44.25786" lon="4.95842">
        <ele>239.02</ele>
        <time>2018-02-12T09:14:25Z</time>
      </trkpt>
      <trkpt lat="44.25785" lon="4.95855">
        <ele>239.02</ele>
        <time>2018-02-12T09:14:36Z</time>
      </trkpt>
      <trkpt lat="44.2578" lon="4.95869">
        <ele>240.47</ele>
        <time>2018-02-12T09:14:47Z</time>
      </trkpt>
      <trkpt lat="44.25777" lon="4.95897">
        <ele>240.95</ele>
        <time>2018-02-12T09:15:04Z</time>
      </trkpt>
      <trkpt lat="44.25776" lon="4.95911">
        <ele>240.95</ele>
        <time>2018-02-12T09:15:13Z</time>
      </trkpt>
      <trkpt lat="44.25779" lon="4.95932">
        <ele>243.35</ele>
        <time>2018-02-12T09:15:29Z</time>
      </trkpt>
      <trkpt lat="44.25784" lon="4.95956">
        <ele>244.31</ele>
        <time>2018-02-12T09:15:46Z</time>
      </trkpt>
      <trkpt lat="44.25776" lon="4.9597">
        <ele>244.31</ele>
        <time>2018-02-12T09:15:58Z</time>
      </trkpt>
      <trkpt lat="44.25764" lon="4.95975">
        <ele>245.75</ele>
        <time>2018-02-12T09:16:12Z</time>
      </trkpt>
      <trkpt lat="44.25767" lon="4.95975">
        <ele>245.75</ele>
        <time>2018-02-12T09:16:34Z</time>
      </trkpt>
      <trkpt lat="44.25768" lon="4.95987">
        <ele>241.91</ele>
        <time>2018-02-12T09:16:48Z</time>
      </trkpt>
      <trkpt lat="44.25768" lon="4.95988">
        <ele>251.52</ele>
        <time>2018-02-12T09:16:50Z</time>
      </trkpt>
      <trkpt lat="44.25768" lon="4.95989">
        <ele>246.23</ele>
        <time>2018-02-12T09:16:51Z</time>
      </trkpt>
      <trkpt lat="44.25769" lon="4.95996">
        <ele>247.68</ele>
        <time>2018-02-12T09:16:58Z</time>
      </trkpt>
      <trkpt lat="44.25774" lon="4.96014">
        <ele>251.04</ele>
        <time>2018-02-12T09:17:15Z</time>
      </trkpt>
      <trkpt lat="44.25775" lon="4.96037">
        <ele>254.41</ele>
        <time>2018-02-12T09:17:34Z</time>
      </trkpt>
      <trkpt lat="44.25772" lon="4.96042">
        <ele>254.41</ele>
        <time>2018-02-12T09:17:52Z</time>
      </trkpt>
      <trkpt lat="44.25774" lon="4.9604">
        <ele>255.37</ele>
        <time>2018-02-12T09:18:24Z</time>
      </trkpt>
      <trkpt lat="44.25774" lon="4.9604">
        <ele>254.41</ele>
        <time>2018-02-12T09:18:32Z</time>
      </trkpt>
      <trkpt lat="44.25774" lon="4.96041">
        <ele>254.41</ele>
        <time>2018-02-12T09:18:44Z</time>
      </trkpt>
      <trkpt lat="44.25774" lon="4.96041">
        <ele>253.44</ele>
        <time>2018-02-12T09:18:48Z</time>
      </trkpt>
      <trkpt lat="44.25774" lon="4.9604">
        <ele>254.89</ele>
        <time>2018-02-12T09:18:57Z</time>
      </trkpt>
      <trkpt lat="44.25773" lon="4.9604">
        <ele>253.93</ele>
        <time>2018-02-12T09:19:02Z</time>
      </trkpt>
      <trkpt lat="44.25775" lon="4.96037">
        <ele>254.41</ele>
        <time>2018-02-12T09:20:00Z</time>
      </trkpt>
      <trkpt lat="44.25773" lon="4.9604">
        <ele>254.41</ele>
        <time>2018-02-12T09:20:16Z</time>
      </trkpt>
      <trkpt lat="44.25772" lon="4.96039">
        <ele>255.37</ele>
        <time>2018-02-12T09:20:35Z</time>
      </trkpt>
      <trkpt lat="44.25772" lon="4.96037">
        <ele>254.89</ele>
        <time>2018-02-12T09:20:46Z</time>
      </trkpt>
      <trkpt lat="44.25772" lon="4.96038">
        <ele>254.89</ele>
        <time>2018-02-12T09:20:47Z</time>
      </trkpt>
      <trkpt lat="44.25771" lon="4.96032">
        <ele>255.37</ele>
        <time>2018-02-12T09:21:38Z</time>
      </trkpt>
      <trkpt lat="44.2577" lon="4.96033">
        <ele>255.37</ele>
        <time>2018-02-12T09:21:39Z</time>
      </trkpt>
      <trkpt lat="44.25771" lon="4.96037">
        <ele>253.44</ele>
        <time>2018-02-12T09:21:46Z</time>
      </trkpt>
      <trkpt lat="44.2577" lon="4.96037">
        <ele>254.89</ele>
        <time>2018-02-12T09:21:48Z</time>
      </trkpt>
      <trkpt lat="44.2577" lon="4.96038">
        <ele>253.44</ele>
        <time>2018-02-12T09:21:50Z</time>
      </trkpt>
      <trkpt lat="44.25774" lon="4.96041">
        <ele>252.48</ele>
        <time>2018-02-12T09:22:31Z</time>
      </trkpt>
      <trkpt lat="44.25774" lon="4.96042">
        <ele>252.48</ele>
        <time>2018-02-12T09:22:32Z</time>
      </trkpt>
      <trkpt lat="44.25769" lon="4.96045">
        <ele>251.52</ele>
        <time>2018-02-12T09:22:42Z</time>
      </trkpt>
      <trkpt lat="44.25762" lon="4.96047">
        <ele>252.48</ele>
        <time>2018-02-12T09:22:51Z</time>
      </trkpt>
      <trkpt lat="44.25751" lon="4.96039">
        <ele>253.44</ele>
        <time>2018-02-12T09:23:06Z</time>
      </trkpt>
      <trkpt lat="44.2575" lon="4.96039">
        <ele>253.44</ele>
        <time>2018-02-12T09:23:07Z</time>
      </trkpt>
      <trkpt lat="44.25746" lon="4.9604">
        <ele>256.81</ele>
        <time>2018-02-12T09:23:13Z</time>
      </trkpt>
      <trkpt lat="44.25745" lon="4.96042">
        <ele>257.77</ele>
        <time>2018-02-12T09:23:15Z</time>
      </trkpt>
      <trkpt lat="44.25739" lon="4.96047">
        <ele>259.69</ele>
        <time>2018-02-12T09:23:30Z</time>
      </trkpt>
      <trkpt lat="44.25738" lon="4.96045">
        <ele>256.81</ele>
        <time>2018-02-12T09:23:37Z</time>
      </trkpt>
      <trkpt lat="44.25736" lon="4.96034">
        <ele>256.81</ele>
        <time>2018-02-12T09:23:46Z</time>
      </trkpt>
      <trkpt lat="44.25731" lon="4.96019">
        <ele>256.33</ele>
        <time>2018-02-12T09:23:58Z</time>
      </trkpt>
      <trkpt lat="44.25722" lon="4.96001">
        <ele>256.81</ele>
        <time>2018-02-12T09:24:14Z</time>
      </trkpt>
      <trkpt lat="44.2572" lon="4.95994">
        <ele>253.44</ele>
        <time>2018-02-12T09:24:19Z</time>
      </trkpt>
      <trkpt lat="44.25719" lon="4.95991">
        <ele>249.12</ele>
        <time>2018-02-12T09:24:21Z</time>
      </trkpt>
      <trkpt lat="44.25719" lon="4.9599">
        <ele>249.12</ele>
        <time>2018-02-12T09:24:22Z</time>
      </trkpt>
      <trkpt lat="44.25714" lon="4.95979">
        <ele>250.56</ele>
        <time>2018-02-12T09:24:31Z</time>
      </trkpt>
      <trkpt lat="44.25711" lon="4.9597">
        <ele>252</ele>
        <time>2018-02-12T09:24:38Z</time>
      </trkpt>
      <trkpt lat="44.25709" lon="4.95966">
        <ele>249.12</ele>
        <time>2018-02-12T09:24:41Z</time>
      </trkpt>
      <trkpt lat="44.25708" lon="4.95964">
        <ele>248.16</ele>
        <time>2018-02-12T09:24:43Z</time>
      </trkpt>
      <trkpt lat="44.25706" lon="4.95962">
        <ele>250.56</ele>
        <time>2018-02-12T09:24:46Z</time>
      </trkpt>
      <trkpt lat="44.25705" lon="4.95962">
        <ele>249.6</ele>
        <time>2018-02-12T09:24:50Z</time>
      </trkpt>
      <trkpt lat="44.25705" lon="4.95963">
        <ele>248.64</ele>
        <time>2018-02-12T09:24:59Z</time>
      </trkpt>
      <trkpt lat="44.25703" lon="4.95961">
        <ele>252</ele>
        <time>2018-02-12T09:25:03Z</time>
      </trkpt>
      <trkpt lat="44.25699" lon="4.95958">
        <ele>250.08</ele>
        <time>2018-02-12T09:25:08Z</time>
      </trkpt>
      <trkpt lat="44.25696" lon="4.95955">
        <ele>252</ele>
        <time>2018-02-12T09:25:11Z</time>
      </trkpt>
      <trkpt lat="44.25692" lon="4.95948">
        <ele>249.6</ele>
        <time>2018-02-12T09:25:16Z</time>
      </trkpt>
      <trkpt lat="44.25688" lon="4.95936">
        <ele>248.16</ele>
        <time>2018-02-12T09:25:24Z</time>
      </trkpt>
      <trkpt lat="44.25684" lon="4.95927">
        <ele>245.75</ele>
        <time>2018-02-12T09:25:32Z</time>
      </trkpt>
      <trkpt lat="44.25682" lon="4.95919">
        <ele>244.31</ele>
        <time>2018-02-12T09:25:38Z</time>
      </trkpt>
      <trkpt lat="44.25681" lon="4.95917">
        <ele>245.75</ele>
        <time>2018-02-12T09:25:40Z</time>
      </trkpt>
      <trkpt lat="44.25679" lon="4.95906">
        <ele>246.23</ele>
        <time>2018-02-12T09:25:48Z</time>
      </trkpt>
      <trkpt lat="44.25677" lon="4.95902">
        <ele>241.43</ele>
        <time>2018-02-12T09:25:51Z</time>
      </trkpt>
      <trkpt lat="44.25677" lon="4.95901">
        <ele>241.43</ele>
        <time>2018-02-12T09:25:52Z</time>
      </trkpt>
      <trkpt lat="44.2567" lon="4.95887">
        <ele>244.31</ele>
        <time>2018-02-12T09:26:02Z</time>
      </trkpt>
      <trkpt lat="44.25664" lon="4.9587">
        <ele>247.68</ele>
        <time>2018-02-12T09:26:14Z</time>
      </trkpt>
      <trkpt lat="44.25661" lon="4.95861">
        <ele>244.31</ele>
        <time>2018-02-12T09:26:20Z</time>
      </trkpt>
      <trkpt lat="44.2566" lon="4.95858">
        <ele>243.35</ele>
        <time>2018-02-12T09:26:22Z</time>
      </trkpt>
      <trkpt lat="44.25651" lon="4.9584">
        <ele>244.79</ele>
        <time>2018-02-12T09:26:36Z</time>
      </trkpt>
      <trkpt lat="44.25645" lon="4.95829">
        <ele>246.72</ele>
        <time>2018-02-12T09:26:45Z</time>
      </trkpt>
      <trkpt lat="44.25641" lon="4.95823">
        <ele>243.83</ele>
        <time>2018-02-12T09:26:50Z</time>
      </trkpt>
      <trkpt lat="44.2564" lon="4.95822">
        <ele>243.83</ele>
        <time>2018-02-12T09:26:51Z</time>
      </trkpt>
      <trkpt lat="44.25638" lon="4.95819">
        <ele>246.23</ele>
        <time>2018-02-12T09:26:54Z</time>
      </trkpt>
      <trkpt lat="44.25633" lon="4.9581">
        <ele>243.35</ele>
        <time>2018-02-12T09:27:02Z</time>
      </trkpt>
      <trkpt lat="44.25631" lon="4.95808">
        <ele>242.39</ele>
        <time>2018-02-12T09:27:04Z</time>
      </trkpt>
      <trkpt lat="44.25628" lon="4.95804">
        <ele>245.27</ele>
        <time>2018-02-12T09:27:08Z</time>
      </trkpt>
      <trkpt lat="44.25626" lon="4.958">
        <ele>243.83</ele>
        <time>2018-02-12T09:27:11Z</time>
      </trkpt>
      <trkpt lat="44.25624" lon="4.95794">
        <ele>245.27</ele>
        <time>2018-02-12T09:27:15Z</time>
      </trkpt>
      <trkpt lat="44.25618" lon="4.95779">
        <ele>244.31</ele>
        <time>2018-02-12T09:27:28Z</time>
      </trkpt>
      <trkpt lat="44.25613" lon="4.9576">
        <ele>246.23</ele>
        <time>2018-02-12T09:27:43Z</time>
      </trkpt>
      <trkpt lat="44.25608" lon="4.95748">
        <ele>242.87</ele>
        <time>2018-02-12T09:27:52Z</time>
      </trkpt>
      <trkpt lat="44.25601" lon="4.95732">
        <ele>242.87</ele>
        <time>2018-02-12T09:28:04Z</time>
      </trkpt>
      <trkpt lat="44.2559" lon="4.95712">
        <ele>246.23</ele>
        <time>2018-02-12T09:28:21Z</time>
      </trkpt>
      <trkpt lat="44.25586" lon="4.95706">
        <ele>244.79</ele>
        <time>2018-02-12T09:28:28Z</time>
      </trkpt>
      <trkpt lat="44.25577" lon="4.9569">
        <ele>246.72</ele>
        <time>2018-02-12T09:28:43Z</time>
      </trkpt>
      <trkpt lat="44.25569" lon="4.95673">
        <ele>248.16</ele>
        <time>2018-02-12T09:28:57Z</time>
      </trkpt>
      <trkpt lat="44.25557" lon="4.95657">
        <ele>251.52</ele>
        <time>2018-02-12T09:29:14Z</time>
      </trkpt>
      <trkpt lat="44.2555" lon="4.95637">
        <ele>252.48</ele>
        <time>2018-02-12T09:29:29Z</time>
      </trkpt>
      <trkpt lat="44.25541" lon="4.95614">
        <ele>253.93</ele>
        <time>2018-02-12T09:29:46Z</time>
      </trkpt>
      <trkpt lat="44.25533" lon="4.95598">
        <ele>256.33</ele>
        <time>2018-02-12T09:30:01Z</time>
      </trkpt>
      <trkpt lat="44.25524" lon="4.95585">
        <ele>258.73</ele>
        <time>2018-02-12T09:30:16Z</time>
      </trkpt>
      <trkpt lat="44.25521" lon="4.9556">
        <ele>260.65</ele>
        <time>2018-02-12T09:30:34Z</time>
      </trkpt>
      <trkpt lat="44.25527" lon="4.95539">
        <ele>262.58</ele>
        <time>2018-02-12T09:30:50Z</time>
      </trkpt>
      <trkpt lat="44.25524" lon="4.95522">
        <ele>264.98</ele>
        <time>2018-02-12T09:31:05Z</time>
      </trkpt>
      <trkpt lat="44.25514" lon="4.9551">
        <ele>265.46</ele>
        <time>2018-02-12T09:31:20Z</time>
      </trkpt>
      <trkpt lat="44.25515" lon="4.95505">
        <ele>265.94</ele>
        <time>2018-02-12T09:31:31Z</time>
      </trkpt>
      <trkpt lat="44.2551" lon="4.95502">
        <ele>265.94</ele>
        <time>2018-02-12T09:31:52Z</time>
      </trkpt>
      <trkpt lat="44.25508" lon="4.95484">
        <ele>265.94</ele>
        <time>2018-02-12T09:32:07Z</time>
      </trkpt>
      <trkpt lat="44.25508" lon="4.95477">
        <ele>264.5</ele>
        <time>2018-02-12T09:32:13Z</time>
      </trkpt>
      <trkpt lat="44.25507" lon="4.95468">
        <ele>265.94</ele>
        <time>2018-02-12T09:32:20Z</time>
      </trkpt>
      <trkpt lat="44.25503" lon="4.95462">
        <ele>265.94</ele>
        <time>2018-02-12T09:32:31Z</time>
      </trkpt>
      <trkpt lat="44.255" lon="4.95459">
        <ele>265.46</ele>
        <time>2018-02-12T09:32:44Z</time>
      </trkpt>
      <trkpt lat="44.25495" lon="4.95455">
        <ele>267.38</ele>
        <time>2018-02-12T09:32:52Z</time>
      </trkpt>
      <trkpt lat="44.25486" lon="4.9544">
        <ele>266.9</ele>
        <time>2018-02-12T09:33:07Z</time>
      </trkpt>
      <trkpt lat="44.25485" lon="4.95436">
        <ele>265.46</ele>
        <time>2018-02-12T09:33:10Z</time>
      </trkpt>
      <trkpt lat="44.25484" lon="4.95416">
        <ele>263.54</ele>
        <time>2018-02-12T09:33:25Z</time>
      </trkpt>
      <trkpt lat="44.25482" lon="4.95397">
        <ele>263.06</ele>
        <time>2018-02-12T09:33:39Z</time>
      </trkpt>
      <trkpt lat="44.25482" lon="4.95394">
        <ele>261.62</ele>
        <time>2018-02-12T09:33:42Z</time>
      </trkpt>
      <trkpt lat="44.25481" lon="4.95382">
        <ele>262.1</ele>
        <time>2018-02-12T09:33:51Z</time>
      </trkpt>
      <trkpt lat="44.2548" lon="4.95374">
        <ele>260.65</ele>
        <time>2018-02-12T09:33:57Z</time>
      </trkpt>
      <trkpt lat="44.25476" lon="4.95349">
        <ele>259.21</ele>
        <time>2018-02-12T09:34:15Z</time>
      </trkpt>
      <trkpt lat="44.25472" lon="4.9533">
        <ele>258.73</ele>
        <time>2018-02-12T09:34:30Z</time>
      </trkpt>
      <trkpt lat="44.2547" lon="4.95327">
        <ele>260.17</ele>
        <time>2018-02-12T09:34:33Z</time>
      </trkpt>
      <trkpt lat="44.25467" lon="4.95315">
        <ele>260.17</ele>
        <time>2018-02-12T09:34:42Z</time>
      </trkpt>
      <trkpt lat="44.25461" lon="4.95298">
        <ele>258.25</ele>
        <time>2018-02-12T09:34:56Z</time>
      </trkpt>
      <trkpt lat="44.25452" lon="4.9529">
        <ele>258.25</ele>
        <time>2018-02-12T09:35:11Z</time>
      </trkpt>
      <trkpt lat="44.25449" lon="4.95292">
        <ele>260.65</ele>
        <time>2018-02-12T09:35:15Z</time>
      </trkpt>
      <trkpt lat="44.25437" lon="4.95292">
        <ele>264.02</ele>
        <time>2018-02-12T09:35:33Z</time>
      </trkpt>
      <trkpt lat="44.25423" lon="4.95285">
        <ele>264.5</ele>
        <time>2018-02-12T09:35:49Z</time>
      </trkpt>
      <trkpt lat="44.25418" lon="4.95275">
        <ele>264.98</ele>
        <time>2018-02-12T09:35:58Z</time>
      </trkpt>
      <trkpt lat="44.25412" lon="4.95266">
        <ele>264.02</ele>
        <time>2018-02-12T09:36:08Z</time>
      </trkpt>
      <trkpt lat="44.25409" lon="4.95263">
        <ele>266.9</ele>
        <time>2018-02-12T09:36:12Z</time>
      </trkpt>
      <trkpt lat="44.25407" lon="4.95258">
        <ele>264.5</ele>
        <time>2018-02-12T09:36:15Z</time>
      </trkpt>
      <trkpt lat="44.25405" lon="4.95254">
        <ele>265.46</ele>
        <time>2018-02-12T09:36:18Z</time>
      </trkpt>
      <trkpt lat="44.25394" lon="4.95228">
        <ele>264.02</ele>
        <time>2018-02-12T09:36:38Z</time>
      </trkpt>
      <trkpt lat="44.25384" lon="4.95206">
        <ele>263.54</ele>
        <time>2018-02-12T09:36:55Z</time>
      </trkpt>
      <trkpt lat="44.25374" lon="4.95184">
        <ele>263.54</ele>
        <time>2018-02-12T09:37:13Z</time>
      </trkpt>
      <trkpt lat="44.25363" lon="4.95166">
        <ele>263.54</ele>
        <time>2018-02-12T09:37:31Z</time>
      </trkpt>
      <trkpt lat="44.25361" lon="4.95158">
        <ele>263.54</ele>
        <time>2018-02-12T09:37:38Z</time>
      </trkpt>
      <trkpt lat="44.25352" lon="4.95139">
        <ele>263.54</ele>
        <time>2018-02-12T09:37:56Z</time>
      </trkpt>
      <trkpt lat="44.2535" lon="4.95135">
        <ele>264.98</ele>
        <time>2018-02-12T09:38:00Z</time>
      </trkpt>
      <trkpt lat="44.25338" lon="4.95125">
        <ele>265.94</ele>
        <time>2018-02-12T09:38:16Z</time>
      </trkpt>
      <trkpt lat="44.25324" lon="4.95117">
        <ele>266.9</ele>
        <time>2018-02-12T09:38:33Z</time>
      </trkpt>
      <trkpt lat="44.25322" lon="4.95115">
        <ele>265.46</ele>
        <time>2018-02-12T09:38:36Z</time>
      </trkpt>
      <trkpt lat="44.25308" lon="4.95104">
        <ele>266.9</ele>
        <time>2018-02-12T09:38:53Z</time>
      </trkpt>
      <trkpt lat="44.25296" lon="4.95094">
        <ele>268.35</ele>
        <time>2018-02-12T09:39:09Z</time>
      </trkpt>
      <trkpt lat="44.25285" lon="4.95084">
        <ele>269.79</ele>
        <time>2018-02-12T09:39:25Z</time>
      </trkpt>
      <trkpt lat="44.25278" lon="4.95078">
        <ele>268.35</ele>
        <time>2018-02-12T09:39:33Z</time>
      </trkpt>
      <trkpt lat="44.2527" lon="4.95071">
        <ele>270.27</ele>
        <time>2018-02-12T09:39:43Z</time>
      </trkpt>
      <trkpt lat="44.25263" lon="4.95065">
        <ele>270.75</ele>
        <time>2018-02-12T09:39:52Z</time>
      </trkpt>
      <trkpt lat="44.25261" lon="4.95063">
        <ele>270.27</ele>
        <time>2018-02-12T09:40:10Z</time>
      </trkpt>
      <trkpt lat="44.25261" lon="4.95062">
        <ele>268.83</ele>
        <time>2018-02-12T09:40:30Z</time>
      </trkpt>
      <trkpt lat="44.25258" lon="4.95066">
        <ele>269.79</ele>
        <time>2018-02-12T09:40:37Z</time>
      </trkpt>
      <trkpt lat="44.25254" lon="4.95076">
        <ele>273.15</ele>
        <time>2018-02-12T09:40:53Z</time>
      </trkpt>
      <trkpt lat="44.2525" lon="4.95086">
        <ele>276.52</ele>
        <time>2018-02-12T09:41:08Z</time>
      </trkpt>
      <trkpt lat="44.2525" lon="4.95087">
        <ele>277</ele>
        <time>2018-02-12T09:41:10Z</time>
      </trkpt>
      <trkpt lat="44.25246" lon="4.95091">
        <ele>277.96</ele>
        <time>2018-02-12T09:41:17Z</time>
      </trkpt>
      <trkpt lat="44.25236" lon="4.95099">
        <ele>280.36</ele>
        <time>2018-02-12T09:41:36Z</time>
      </trkpt>
      <trkpt lat="44.2523" lon="4.95105">
        <ele>283.25</ele>
        <time>2018-02-12T09:41:47Z</time>
      </trkpt>
      <trkpt lat="44.25221" lon="4.9511">
        <ele>284.69</ele>
        <time>2018-02-12T09:42:04Z</time>
      </trkpt>
      <trkpt lat="44.25219" lon="4.95105">
        <ele>283.25</ele>
        <time>2018-02-12T09:42:10Z</time>
      </trkpt>
      <trkpt lat="44.25211" lon="4.95094">
        <ele>280.36</ele>
        <time>2018-02-12T09:42:25Z</time>
      </trkpt>
      <trkpt lat="44.25196" lon="4.9509">
        <ele>281.32</ele>
        <time>2018-02-12T09:42:41Z</time>
      </trkpt>
      <trkpt lat="44.25187" lon="4.95083">
        <ele>279.88</ele>
        <time>2018-02-12T09:42:51Z</time>
      </trkpt>
      <trkpt lat="44.25172" lon="4.95066">
        <ele>279.88</ele>
        <time>2018-02-12T09:43:09Z</time>
      </trkpt>
      <trkpt lat="44.25163" lon="4.95047">
        <ele>277.96</ele>
        <time>2018-02-12T09:43:24Z</time>
      </trkpt>
      <trkpt lat="44.25148" lon="4.95035">
        <ele>276.04</ele>
        <time>2018-02-12T09:43:40Z</time>
      </trkpt>
      <trkpt lat="44.25141" lon="4.95031">
        <ele>278.92</ele>
        <time>2018-02-12T09:43:48Z</time>
      </trkpt>
      <trkpt lat="44.25136" lon="4.95026">
        <ele>275.56</ele>
        <time>2018-02-12T09:43:55Z</time>
      </trkpt>
      <trkpt lat="44.25131" lon="4.95019">
        <ele>273.63</ele>
        <time>2018-02-12T09:44:04Z</time>
      </trkpt>
      <trkpt lat="44.2513" lon="4.95018">
        <ele>279.4</ele>
        <time>2018-02-12T09:44:05Z</time>
      </trkpt>
      <trkpt lat="44.25127" lon="4.95015">
        <ele>276.52</ele>
        <time>2018-02-12T09:44:07Z</time>
      </trkpt>
      <trkpt lat="44.25123" lon="4.95006">
        <ele>278.92</ele>
        <time>2018-02-12T09:44:13Z</time>
      </trkpt>
      <trkpt lat="44.2511" lon="4.95">
        <ele>280.84</ele>
        <time>2018-02-12T09:44:30Z</time>
      </trkpt>
      <trkpt lat="44.25103" lon="4.95003">
        <ele>283.73</ele>
        <time>2018-02-12T09:44:45Z</time>
      </trkpt>
      <trkpt lat="44.25095" lon="4.95007">
        <ele>286.61</ele>
        <time>2018-02-12T09:45:02Z</time>
      </trkpt>
      <trkpt lat="44.2509" lon="4.95008">
        <ele>288.05</ele>
        <time>2018-02-12T09:45:15Z</time>
      </trkpt>
      <trkpt lat="44.25085" lon="4.9501">
        <ele>291.42</ele>
        <time>2018-02-12T09:45:24Z</time>
      </trkpt>
      <trkpt lat="44.25085" lon="4.9501">
        <ele>291.42</ele>
        <time>2018-02-12T09:45:25Z</time>
      </trkpt>
      <trkpt lat="44.25079" lon="4.95009">
        <ele>292.38</ele>
        <time>2018-02-12T09:45:40Z</time>
      </trkpt>
      <trkpt lat="44.25077" lon="4.95008">
        <ele>293.82</ele>
        <time>2018-02-12T09:45:43Z</time>
      </trkpt>
      <trkpt lat="44.2507" lon="4.95011">
        <ele>295.74</ele>
        <time>2018-02-12T09:46:00Z</time>
      </trkpt>
      <trkpt lat="44.25069" lon="4.95013">
        <ele>299.11</ele>
        <time>2018-02-12T09:46:03Z</time>
      </trkpt>
      <trkpt lat="44.25069" lon="4.95013">
        <ele>299.11</ele>
        <time>2018-02-12T09:46:04Z</time>
      </trkpt>
      <trkpt lat="44.25069" lon="4.95013">
        <ele>296.22</ele>
        <time>2018-02-12T09:46:05Z</time>
      </trkpt>
      <trkpt lat="44.25069" lon="4.95014">
        <ele>297.67</ele>
        <time>2018-02-12T09:46:06Z</time>
      </trkpt>
      <trkpt lat="44.25069" lon="4.95017">
        <ele>297.18</ele>
        <time>2018-02-12T09:46:17Z</time>
      </trkpt>
      <trkpt lat="44.2507" lon="4.95017">
        <ele>298.15</ele>
        <time>2018-02-12T09:46:22Z</time>
      </trkpt>
      <trkpt lat="44.25068" lon="4.9502">
        <ele>299.11</ele>
        <time>2018-02-12T09:46:38Z</time>
      </trkpt>
      <trkpt lat="44.25067" lon="4.9502">
        <ele>298.15</ele>
        <time>2018-02-12T09:46:40Z</time>
      </trkpt>
      <trkpt lat="44.25066" lon="4.95021">
        <ele>300.07</ele>
        <time>2018-02-12T09:46:42Z</time>
      </trkpt>
      <trkpt lat="44.25066" lon="4.95021">
        <ele>298.63</ele>
        <time>2018-02-12T09:46:45Z</time>
      </trkpt>
      <trkpt lat="44.25065" lon="4.95022">
        <ele>301.99</ele>
        <time>2018-02-12T09:46:47Z</time>
      </trkpt>
      <trkpt lat="44.25064" lon="4.95022">
        <ele>301.51</ele>
        <time>2018-02-12T09:46:48Z</time>
      </trkpt>
      <trkpt lat="44.2506" lon="4.95024">
        <ele>301.03</ele>
        <time>2018-02-12T09:46:57Z</time>
      </trkpt>
      <trkpt lat="44.25057" lon="4.95025">
        <ele>303.43</ele>
        <time>2018-02-12T09:47:08Z</time>
      </trkpt>
      <trkpt lat="44.25056" lon="4.95025">
        <ele>304.88</ele>
        <time>2018-02-12T09:47:11Z</time>
      </trkpt>
      <trkpt lat="44.25054" lon="4.95026">
        <ele>303.43</ele>
        <time>2018-02-12T09:47:15Z</time>
      </trkpt>
      <trkpt lat="44.25053" lon="4.95026">
        <ele>304.88</ele>
        <time>2018-02-12T09:47:17Z</time>
      </trkpt>
      <trkpt lat="44.25049" lon="4.9503">
        <ele>306.8</ele>
        <time>2018-02-12T09:47:30Z</time>
      </trkpt>
      <trkpt lat="44.25044" lon="4.95035">
        <ele>310.16</ele>
        <time>2018-02-12T09:47:44Z</time>
      </trkpt>
      <trkpt lat="44.25043" lon="4.95037">
        <ele>311.12</ele>
        <time>2018-02-12T09:47:48Z</time>
      </trkpt>
      <trkpt lat="44.25039" lon="4.9504">
        <ele>313.53</ele>
        <time>2018-02-12T09:47:58Z</time>
      </trkpt>
      <trkpt lat="44.25035" lon="4.95045">
        <ele>314.01</ele>
        <time>2018-02-12T09:48:12Z</time>
      </trkpt>
      <trkpt lat="44.25033" lon="4.95054">
        <ele>315.93</ele>
        <time>2018-02-12T09:48:30Z</time>
      </trkpt>
      <trkpt lat="44.25026" lon="4.95061">
        <ele>318.81</ele>
        <time>2018-02-12T09:48:44Z</time>
      </trkpt>
      <trkpt lat="44.25019" lon="4.95072">
        <ele>319.78</ele>
        <time>2018-02-12T09:49:00Z</time>
      </trkpt>
      <trkpt lat="44.25018" lon="4.95074">
        <ele>320.74</ele>
        <time>2018-02-12T09:49:02Z</time>
      </trkpt>
      <trkpt lat="44.25019" lon="4.95074">
        <ele>319.3</ele>
        <time>2018-02-12T09:49:10Z</time>
      </trkpt>
      <trkpt lat="44.25021" lon="4.95075">
        <ele>320.74</ele>
        <time>2018-02-12T09:49:19Z</time>
      </trkpt>
      <trkpt lat="44.25022" lon="4.95074">
        <ele>318.81</ele>
        <time>2018-02-12T09:49:31Z</time>
      </trkpt>
      <trkpt lat="44.25023" lon="4.95076">
        <ele>318.33</ele>
        <time>2018-02-12T09:49:55Z</time>
      </trkpt>
      <trkpt lat="44.25024" lon="4.95077">
        <ele>317.85</ele>
        <time>2018-02-12T09:50:31Z</time>
      </trkpt>
      <trkpt lat="44.25024" lon="4.95077">
        <ele>319.3</ele>
        <time>2018-02-12T09:50:41Z</time>
      </trkpt>
      <trkpt lat="44.25024" lon="4.95077">
        <ele>317.85</ele>
        <time>2018-02-12T09:50:45Z</time>
      </trkpt>
      <trkpt lat="44.25024" lon="4.95077">
        <ele>317.37</ele>
        <time>2018-02-12T09:50:55Z</time>
      </trkpt>
      <trkpt lat="44.25024" lon="4.95076">
        <ele>319.78</ele>
        <time>2018-02-12T09:50:59Z</time>
      </trkpt>
      <trkpt lat="44.25024" lon="4.95076">
        <ele>318.33</ele>
        <time>2018-02-12T09:51:01Z</time>
      </trkpt>
      <trkpt lat="44.25024" lon="4.95075">
        <ele>317.37</ele>
        <time>2018-02-12T09:51:18Z</time>
      </trkpt>
      <trkpt lat="44.25024" lon="4.95075">
        <ele>319.3</ele>
        <time>2018-02-12T09:51:20Z</time>
      </trkpt>
      <trkpt lat="44.25023" lon="4.95075">
        <ele>316.89</ele>
        <time>2018-02-12T09:51:23Z</time>
      </trkpt>
      <trkpt lat="44.25023" lon="4.95075">
        <ele>319.3</ele>
        <time>2018-02-12T09:51:37Z</time>
      </trkpt>
      <trkpt lat="44.25023" lon="4.95075">
        <ele>316.89</ele>
        <time>2018-02-12T09:51:41Z</time>
      </trkpt>
      <trkpt lat="44.25023" lon="4.95074">
        <ele>318.33</ele>
        <time>2018-02-12T09:52:00Z</time>
      </trkpt>
      <trkpt lat="44.25023" lon="4.95074">
        <ele>316.89</ele>
        <time>2018-02-12T09:52:02Z</time>
      </trkpt>
      <trkpt lat="44.25022" lon="4.95074">
        <ele>319.3</ele>
        <time>2018-02-12T09:52:15Z</time>
      </trkpt>
      <trkpt lat="44.25023" lon="4.95074">
        <ele>316.89</ele>
        <time>2018-02-12T09:52:18Z</time>
      </trkpt>
      <trkpt lat="44.25023" lon="4.95074">
        <ele>317.85</ele>
        <time>2018-02-12T09:52:20Z</time>
      </trkpt>
      <trkpt lat="44.25023" lon="4.95073">
        <ele>319.3</ele>
        <time>2018-02-12T09:52:29Z</time>
      </trkpt>
      <trkpt lat="44.25023" lon="4.95074">
        <ele>317.85</ele>
        <time>2018-02-12T09:52:31Z</time>
      </trkpt>
      <trkpt lat="44.25022" lon="4.95073">
        <ele>318.81</ele>
        <time>2018-02-12T09:53:00Z</time>
      </trkpt>
      <trkpt lat="44.25023" lon="4.95073">
        <ele>317.37</ele>
        <time>2018-02-12T09:53:10Z</time>
      </trkpt>
      <trkpt lat="44.25024" lon="4.95073">
        <ele>318.33</ele>
        <time>2018-02-12T09:53:19Z</time>
      </trkpt>
      <trkpt lat="44.25023" lon="4.95073">
        <ele>319.3</ele>
        <time>2018-02-12T09:53:45Z</time>
      </trkpt>
      <trkpt lat="44.25022" lon="4.95073">
        <ele>317.85</ele>
        <time>2018-02-12T09:53:47Z</time>
      </trkpt>
      <trkpt lat="44.25022" lon="4.95073">
        <ele>318.33</ele>
        <time>2018-02-12T09:54:04Z</time>
      </trkpt>
      <trkpt lat="44.25022" lon="4.95073">
        <ele>316.41</ele>
        <time>2018-02-12T09:54:10Z</time>
      </trkpt>
      <trkpt lat="44.25022" lon="4.95074">
        <ele>317.85</ele>
        <time>2018-02-12T09:54:12Z</time>
      </trkpt>
      <trkpt lat="44.25024" lon="4.95073">
        <ele>319.78</ele>
        <time>2018-02-12T09:54:45Z</time>
      </trkpt>
      <trkpt lat="44.25024" lon="4.95073">
        <ele>319.78</ele>
        <time>2018-02-12T09:54:46Z</time>
      </trkpt>
      <trkpt lat="44.25024" lon="4.95074">
        <ele>319.78</ele>
        <time>2018-02-12T09:54:50Z</time>
      </trkpt>
      <trkpt lat="44.25023" lon="4.95075">
        <ele>317.85</ele>
        <time>2018-02-12T09:55:00Z</time>
      </trkpt>
      <trkpt lat="44.25023" lon="4.95075">
        <ele>320.26</ele>
        <time>2018-02-12T09:55:07Z</time>
      </trkpt>
      <trkpt lat="44.25022" lon="4.95075">
        <ele>318.81</ele>
        <time>2018-02-12T09:55:41Z</time>
      </trkpt>
      <trkpt lat="44.25023" lon="4.95075">
        <ele>318.81</ele>
        <time>2018-02-12T09:55:53Z</time>
      </trkpt>
      <trkpt lat="44.25022" lon="4.95076">
        <ele>317.85</ele>
        <time>2018-02-12T09:56:19Z</time>
      </trkpt>
      <trkpt lat="44.25022" lon="4.95075">
        <ele>318.81</ele>
        <time>2018-02-12T09:56:24Z</time>
      </trkpt>
      <trkpt lat="44.25023" lon="4.95075">
        <ele>317.37</ele>
        <time>2018-02-12T09:56:27Z</time>
      </trkpt>
      <trkpt lat="44.25023" lon="4.95075">
        <ele>319.3</ele>
        <time>2018-02-12T09:56:29Z</time>
      </trkpt>
      <trkpt lat="44.25023" lon="4.95075">
        <ele>317.85</ele>
        <time>2018-02-12T09:56:31Z</time>
      </trkpt>
      <trkpt lat="44.25022" lon="4.95075">
        <ele>318.33</ele>
        <time>2018-02-12T09:56:36Z</time>
      </trkpt>
      <trkpt lat="44.25022" lon="4.95075">
        <ele>316.89</ele>
        <time>2018-02-12T09:56:38Z</time>
      </trkpt>
      <trkpt lat="44.25022" lon="4.95075">
        <ele>318.33</ele>
        <time>2018-02-12T09:56:43Z</time>
      </trkpt>
      <trkpt lat="44.25022" lon="4.95075">
        <ele>317.37</ele>
        <time>2018-02-12T09:56:45Z</time>
      </trkpt>
      <trkpt lat="44.25022" lon="4.95072">
        <ele>318.81</ele>
        <time>2018-02-12T09:57:04Z</time>
      </trkpt>
      <trkpt lat="44.25022" lon="4.95071">
        <ele>317.37</ele>
        <time>2018-02-12T09:57:19Z</time>
      </trkpt>
      <trkpt lat="44.25022" lon="4.95072">
        <ele>319.3</ele>
        <time>2018-02-12T09:57:26Z</time>
      </trkpt>
      <trkpt lat="44.25021" lon="4.95071">
        <ele>314.97</ele>
        <time>2018-02-12T09:57:27Z</time>
      </trkpt>
      <trkpt lat="44.25021" lon="4.95071">
        <ele>321.22</ele>
        <time>2018-02-12T09:57:28Z</time>
      </trkpt>
      <trkpt lat="44.25021" lon="4.9507">
        <ele>319.78</ele>
        <time>2018-02-12T09:57:33Z</time>
      </trkpt>
      <trkpt lat="44.2502" lon="4.9507">
        <ele>319.3</ele>
        <time>2018-02-12T09:57:47Z</time>
      </trkpt>
      <trkpt lat="44.2502" lon="4.9507">
        <ele>320.74</ele>
        <time>2018-02-12T09:57:49Z</time>
      </trkpt>
      <trkpt lat="44.2502" lon="4.9507">
        <ele>318.81</ele>
        <time>2018-02-12T09:57:51Z</time>
      </trkpt>
      <trkpt lat="44.2502" lon="4.95071">
        <ele>318.81</ele>
        <time>2018-02-12T09:58:10Z</time>
      </trkpt>
      <trkpt lat="44.2502" lon="4.95072">
        <ele>319.78</ele>
        <time>2018-02-12T09:58:25Z</time>
      </trkpt>
      <trkpt lat="44.25019" lon="4.95072">
        <ele>318.33</ele>
        <time>2018-02-12T09:58:29Z</time>
      </trkpt>
      <trkpt lat="44.25019" lon="4.95072">
        <ele>316.89</ele>
        <time>2018-02-12T09:59:01Z</time>
      </trkpt>
      <trkpt lat="44.25019" lon="4.95071">
        <ele>318.33</ele>
        <time>2018-02-12T09:59:05Z</time>
      </trkpt>
      <trkpt lat="44.25019" lon="4.95071">
        <ele>316.89</ele>
        <time>2018-02-12T09:59:07Z</time>
      </trkpt>
      <trkpt lat="44.25019" lon="4.95071">
        <ele>318.81</ele>
        <time>2018-02-12T09:59:10Z</time>
      </trkpt>
      <trkpt lat="44.25018" lon="4.9507">
        <ele>317.37</ele>
        <time>2018-02-12T09:59:17Z</time>
      </trkpt>
      <trkpt lat="44.25019" lon="4.95072">
        <ele>317.37</ele>
        <time>2018-02-12T09:59:32Z</time>
      </trkpt>
      <trkpt lat="44.2502" lon="4.95072">
        <ele>314.01</ele>
        <time>2018-02-12T09:59:43Z</time>
      </trkpt>
      <trkpt lat="44.2502" lon="4.95072">
        <ele>318.33</ele>
        <time>2018-02-12T09:59:44Z</time>
      </trkpt>
      <trkpt lat="44.25019" lon="4.95072">
        <ele>319.3</ele>
        <time>2018-02-12T09:59:59Z</time>
      </trkpt>
      <trkpt lat="44.2502" lon="4.95074">
        <ele>317.85</ele>
        <time>2018-02-12T10:00:10Z</time>
      </trkpt>
      <trkpt lat="44.2502" lon="4.95073">
        <ele>321.7</ele>
        <time>2018-02-12T10:00:11Z</time>
      </trkpt>
      <trkpt lat="44.25019" lon="4.95074">
        <ele>318.33</ele>
        <time>2018-02-12T10:00:12Z</time>
      </trkpt>
      <trkpt lat="44.25019" lon="4.95076">
        <ele>319.3</ele>
        <time>2018-02-12T10:00:20Z</time>
      </trkpt>
      <trkpt lat="44.25017" lon="4.95077">
        <ele>318.81</ele>
        <time>2018-02-12T10:00:29Z</time>
      </trkpt>
      <trkpt lat="44.25016" lon="4.95075">
        <ele>318.81</ele>
        <time>2018-02-12T10:00:53Z</time>
      </trkpt>
      <trkpt lat="44.25015" lon="4.95075">
        <ele>320.26</ele>
        <time>2018-02-12T10:01:02Z</time>
      </trkpt>
      <trkpt lat="44.25016" lon="4.95077">
        <ele>320.26</ele>
        <time>2018-02-12T10:01:13Z</time>
      </trkpt>
      <trkpt lat="44.25015" lon="4.95077">
        <ele>321.22</ele>
        <time>2018-02-12T10:01:20Z</time>
      </trkpt>
      <trkpt lat="44.25015" lon="4.95079">
        <ele>318.33</ele>
        <time>2018-02-12T10:01:47Z</time>
      </trkpt>
      <trkpt lat="44.25015" lon="4.95079">
        <ele>320.26</ele>
        <time>2018-02-12T10:01:50Z</time>
      </trkpt>
      <trkpt lat="44.25015" lon="4.9508">
        <ele>320.26</ele>
        <time>2018-02-12T10:02:03Z</time>
      </trkpt>
      <trkpt lat="44.25014" lon="4.9508">
        <ele>318.81</ele>
        <time>2018-02-12T10:02:05Z</time>
      </trkpt>
      <trkpt lat="44.25014" lon="4.95079">
        <ele>321.22</ele>
        <time>2018-02-12T10:02:09Z</time>
      </trkpt>
      <trkpt lat="44.2501" lon="4.95088">
        <ele>318.81</ele>
        <time>2018-02-12T10:02:31Z</time>
      </trkpt>
      <trkpt lat="44.25003" lon="4.95104">
        <ele>318.81</ele>
        <time>2018-02-12T10:02:49Z</time>
      </trkpt>
      <trkpt lat="44.25001" lon="4.95118">
        <ele>318.81</ele>
        <time>2018-02-12T10:03:02Z</time>
      </trkpt>
      <trkpt lat="44.25001" lon="4.95121">
        <ele>321.22</ele>
        <time>2018-02-12T10:03:06Z</time>
      </trkpt>
      <trkpt lat="44.25" lon="4.95125">
        <ele>319.78</ele>
        <time>2018-02-12T10:03:10Z</time>
      </trkpt>
      <trkpt lat="44.25" lon="4.95129">
        <ele>321.7</ele>
        <time>2018-02-12T10:03:14Z</time>
      </trkpt>
      <trkpt lat="44.24994" lon="4.9515">
        <ele>322.18</ele>
        <time>2018-02-12T10:03:32Z</time>
      </trkpt>
      <trkpt lat="44.24994" lon="4.95164">
        <ele>323.62</ele>
        <time>2018-02-12T10:03:40Z</time>
      </trkpt>
      <trkpt lat="44.24987" lon="4.9518">
        <ele>324.1</ele>
        <time>2018-02-12T10:03:55Z</time>
      </trkpt>
      <trkpt lat="44.24976" lon="4.9519">
        <ele>326.99</ele>
        <time>2018-02-12T10:04:08Z</time>
      </trkpt>
      <trkpt lat="44.24968" lon="4.95196">
        <ele>328.91</ele>
        <time>2018-02-12T10:04:18Z</time>
      </trkpt>
      <trkpt lat="44.24948" lon="4.95209">
        <ele>328.43</ele>
        <time>2018-02-12T10:04:37Z</time>
      </trkpt>
      <trkpt lat="44.24947" lon="4.95211">
        <ele>327.95</ele>
        <time>2018-02-12T10:04:49Z</time>
      </trkpt>
      <trkpt lat="44.24947" lon="4.95211">
        <ele>328.91</ele>
        <time>2018-02-12T10:04:56Z</time>
      </trkpt>
      <trkpt lat="44.24948" lon="4.95211">
        <ele>327.47</ele>
        <time>2018-02-12T10:04:58Z</time>
      </trkpt>
      <trkpt lat="44.24953" lon="4.95209">
        <ele>326.5</ele>
        <time>2018-02-12T10:05:17Z</time>
      </trkpt>
      <trkpt lat="44.24959" lon="4.95217">
        <ele>326.99</ele>
        <time>2018-02-12T10:05:28Z</time>
      </trkpt>
      <trkpt lat="44.24963" lon="4.95222">
        <ele>328.91</ele>
        <time>2018-02-12T10:05:33Z</time>
      </trkpt>
      <trkpt lat="44.24966" lon="4.95225">
        <ele>325.54</ele>
        <time>2018-02-12T10:05:38Z</time>
      </trkpt>
      <trkpt lat="44.24968" lon="4.95227">
        <ele>328.91</ele>
        <time>2018-02-12T10:05:41Z</time>
      </trkpt>
      <trkpt lat="44.24968" lon="4.95229">
        <ele>328.91</ele>
        <time>2018-02-12T10:05:42Z</time>
      </trkpt>
      <trkpt lat="44.24969" lon="4.95231">
        <ele>326.5</ele>
        <time>2018-02-12T10:05:45Z</time>
      </trkpt>
      <trkpt lat="44.24976" lon="4.95241">
        <ele>328.43</ele>
        <time>2018-02-12T10:05:57Z</time>
      </trkpt>
      <trkpt lat="44.24978" lon="4.95246">
        <ele>326.99</ele>
        <time>2018-02-12T10:06:00Z</time>
      </trkpt>
      <trkpt lat="44.2498" lon="4.9525">
        <ele>328.91</ele>
        <time>2018-02-12T10:06:03Z</time>
      </trkpt>
      <trkpt lat="44.24982" lon="4.95255">
        <ele>327.47</ele>
        <time>2018-02-12T10:06:06Z</time>
      </trkpt>
      <trkpt lat="44.24984" lon="4.95257">
        <ele>328.91</ele>
        <time>2018-02-12T10:06:08Z</time>
      </trkpt>
      <trkpt lat="44.24987" lon="4.95263">
        <ele>329.39</ele>
        <time>2018-02-12T10:06:14Z</time>
      </trkpt>
      <trkpt lat="44.24989" lon="4.95265">
        <ele>326.99</ele>
        <time>2018-02-12T10:06:17Z</time>
      </trkpt>
      <trkpt lat="44.2499" lon="4.95266">
        <ele>330.83</ele>
        <time>2018-02-12T10:06:18Z</time>
      </trkpt>
      <trkpt lat="44.2499" lon="4.95267">
        <ele>330.83</ele>
        <time>2018-02-12T10:06:19Z</time>
      </trkpt>
      <trkpt lat="44.24993" lon="4.95269">
        <ele>328.91</ele>
        <time>2018-02-12T10:06:23Z</time>
      </trkpt>
      <trkpt lat="44.24999" lon="4.95274">
        <ele>327.47</ele>
        <time>2018-02-12T10:06:31Z</time>
      </trkpt>
      <trkpt lat="44.25005" lon="4.95281">
        <ele>331.31</ele>
        <time>2018-02-12T10:06:40Z</time>
      </trkpt>
      <trkpt lat="44.25013" lon="4.95288">
        <ele>328.91</ele>
        <time>2018-02-12T10:06:49Z</time>
      </trkpt>
      <trkpt lat="44.25028" lon="4.95302">
        <ele>327.47</ele>
        <time>2018-02-12T10:07:03Z</time>
      </trkpt>
      <trkpt lat="44.2504" lon="4.95315">
        <ele>327.47</ele>
        <time>2018-02-12T10:07:18Z</time>
      </trkpt>
      <trkpt lat="44.25045" lon="4.9532">
        <ele>328.91</ele>
        <time>2018-02-12T10:07:25Z</time>
      </trkpt>
      <trkpt lat="44.25057" lon="4.95332">
        <ele>327.95</ele>
        <time>2018-02-12T10:07:41Z</time>
      </trkpt>
      <trkpt lat="44.25068" lon="4.95342">
        <ele>330.35</ele>
        <time>2018-02-12T10:07:54Z</time>
      </trkpt>
      <trkpt lat="44.25082" lon="4.95354">
        <ele>330.83</ele>
        <time>2018-02-12T10:08:09Z</time>
      </trkpt>
      <trkpt lat="44.25095" lon="4.95364">
        <ele>329.39</ele>
        <time>2018-02-12T10:08:22Z</time>
      </trkpt>
      <trkpt lat="44.251" lon="4.95368">
        <ele>330.83</ele>
        <time>2018-02-12T10:08:28Z</time>
      </trkpt>
      <trkpt lat="44.25107" lon="4.95372">
        <ele>330.83</ele>
        <time>2018-02-12T10:08:35Z</time>
      </trkpt>
      <trkpt lat="44.25119" lon="4.95379">
        <ele>330.35</ele>
        <time>2018-02-12T10:08:44Z</time>
      </trkpt>
      <trkpt lat="44.25141" lon="4.95391">
        <ele>331.31</ele>
        <time>2018-02-12T10:09:03Z</time>
      </trkpt>
      <trkpt lat="44.25153" lon="4.95399">
        <ele>332.27</ele>
        <time>2018-02-12T10:09:18Z</time>
      </trkpt>
      <trkpt lat="44.25163" lon="4.95404">
        <ele>334.2</ele>
        <time>2018-02-12T10:09:27Z</time>
      </trkpt>
      <trkpt lat="44.25168" lon="4.95406">
        <ele>332.27</ele>
        <time>2018-02-12T10:09:32Z</time>
      </trkpt>
      <trkpt lat="44.2518" lon="4.95415">
        <ele>332.27</ele>
        <time>2018-02-12T10:09:47Z</time>
      </trkpt>
      <trkpt lat="44.25192" lon="4.95427">
        <ele>333.23</ele>
        <time>2018-02-12T10:10:00Z</time>
      </trkpt>
      <trkpt lat="44.25206" lon="4.95439">
        <ele>330.83</ele>
        <time>2018-02-12T10:10:15Z</time>
      </trkpt>
      <trkpt lat="44.25222" lon="4.95454">
        <ele>331.31</ele>
        <time>2018-02-12T10:10:32Z</time>
      </trkpt>
      <trkpt lat="44.25224" lon="4.95457">
        <ele>330.35</ele>
        <time>2018-02-12T10:10:34Z</time>
      </trkpt>
      <trkpt lat="44.25227" lon="4.9546">
        <ele>332.75</ele>
        <time>2018-02-12T10:10:37Z</time>
      </trkpt>
      <trkpt lat="44.25231" lon="4.95464">
        <ele>335.64</ele>
        <time>2018-02-12T10:10:41Z</time>
      </trkpt>
      <trkpt lat="44.25233" lon="4.95466">
        <ele>331.79</ele>
        <time>2018-02-12T10:10:44Z</time>
      </trkpt>
      <trkpt lat="44.25234" lon="4.95467">
        <ele>331.79</ele>
        <time>2018-02-12T10:10:45Z</time>
      </trkpt>
      <trkpt lat="44.25241" lon="4.95489">
        <ele>333.71</ele>
        <time>2018-02-12T10:11:00Z</time>
      </trkpt>
      <trkpt lat="44.25243" lon="4.95495">
        <ele>332.27</ele>
        <time>2018-02-12T10:11:04Z</time>
      </trkpt>
      <trkpt lat="44.25247" lon="4.95518">
        <ele>333.23</ele>
        <time>2018-02-12T10:11:20Z</time>
      </trkpt>
      <trkpt lat="44.25249" lon="4.95546">
        <ele>334.2</ele>
        <time>2018-02-12T10:11:38Z</time>
      </trkpt>
      <trkpt lat="44.2525" lon="4.95551">
        <ele>332.75</ele>
        <time>2018-02-12T10:11:41Z</time>
      </trkpt>
      <trkpt lat="44.25249" lon="4.9556">
        <ele>334.68</ele>
        <time>2018-02-12T10:11:46Z</time>
      </trkpt>
      <trkpt lat="44.25249" lon="4.95565">
        <ele>333.71</ele>
        <time>2018-02-12T10:11:49Z</time>
      </trkpt>
      <trkpt lat="44.25248" lon="4.95589">
        <ele>331.31</ele>
        <time>2018-02-12T10:12:05Z</time>
      </trkpt>
      <trkpt lat="44.25248" lon="4.95592">
        <ele>332.75</ele>
        <time>2018-02-12T10:12:07Z</time>
      </trkpt>
      <trkpt lat="44.25247" lon="4.95599">
        <ele>331.31</ele>
        <time>2018-02-12T10:12:11Z</time>
      </trkpt>
      <trkpt lat="44.25248" lon="4.95622">
        <ele>332.75</ele>
        <time>2018-02-12T10:12:26Z</time>
      </trkpt>
      <trkpt lat="44.25248" lon="4.95634">
        <ele>332.27</ele>
        <time>2018-02-12T10:12:33Z</time>
      </trkpt>
      <trkpt lat="44.25248" lon="4.95644">
        <ele>335.16</ele>
        <time>2018-02-12T10:12:39Z</time>
      </trkpt>
      <trkpt lat="44.25247" lon="4.95649">
        <ele>333.23</ele>
        <time>2018-02-12T10:12:42Z</time>
      </trkpt>
      <trkpt lat="44.25247" lon="4.95681">
        <ele>333.23</ele>
        <time>2018-02-12T10:13:02Z</time>
      </trkpt>
      <trkpt lat="44.25247" lon="4.95688">
        <ele>331.79</ele>
        <time>2018-02-12T10:13:07Z</time>
      </trkpt>
      <trkpt lat="44.25248" lon="4.9569">
        <ele>335.16</ele>
        <time>2018-02-12T10:13:08Z</time>
      </trkpt>
      <trkpt lat="44.25249" lon="4.95701">
        <ele>333.71</ele>
        <time>2018-02-12T10:13:15Z</time>
      </trkpt>
      <trkpt lat="44.25249" lon="4.95713">
        <ele>333.71</ele>
        <time>2018-02-12T10:13:23Z</time>
      </trkpt>
      <trkpt lat="44.2525" lon="4.95728">
        <ele>334.68</ele>
        <time>2018-02-12T10:13:33Z</time>
      </trkpt>
      <trkpt lat="44.2525" lon="4.95734">
        <ele>331.79</ele>
        <time>2018-02-12T10:13:37Z</time>
      </trkpt>
      <trkpt lat="44.25251" lon="4.95749">
        <ele>332.75</ele>
        <time>2018-02-12T10:13:47Z</time>
      </trkpt>
      <trkpt lat="44.25252" lon="4.9576">
        <ele>333.23</ele>
        <time>2018-02-12T10:13:54Z</time>
      </trkpt>
      <trkpt lat="44.25253" lon="4.95781">
        <ele>333.23</ele>
        <time>2018-02-12T10:14:07Z</time>
      </trkpt>
      <trkpt lat="44.25254" lon="4.95794">
        <ele>329.39</ele>
        <time>2018-02-12T10:14:15Z</time>
      </trkpt>
      <trkpt lat="44.25254" lon="4.95795">
        <ele>329.39</ele>
        <time>2018-02-12T10:14:16Z</time>
      </trkpt>
      <trkpt lat="44.25254" lon="4.958">
        <ele>333.71</ele>
        <time>2018-02-12T10:14:19Z</time>
      </trkpt>
      <trkpt lat="44.25254" lon="4.95801">
        <ele>333.71</ele>
        <time>2018-02-12T10:14:20Z</time>
      </trkpt>
      <trkpt lat="44.25254" lon="4.95809">
        <ele>330.83</ele>
        <time>2018-02-12T10:14:25Z</time>
      </trkpt>
      <trkpt lat="44.25255" lon="4.95815">
        <ele>328.91</ele>
        <time>2018-02-12T10:14:29Z</time>
      </trkpt>
      <trkpt lat="44.25255" lon="4.95819">
        <ele>332.75</ele>
        <time>2018-02-12T10:14:32Z</time>
      </trkpt>
      <trkpt lat="44.25255" lon="4.95821">
        <ele>332.75</ele>
        <time>2018-02-12T10:14:33Z</time>
      </trkpt>
      <trkpt lat="44.25256" lon="4.95838">
        <ele>330.83</ele>
        <time>2018-02-12T10:14:45Z</time>
      </trkpt>
      <trkpt lat="44.25257" lon="4.95848">
        <ele>329.87</ele>
        <time>2018-02-12T10:14:51Z</time>
      </trkpt>
      <trkpt lat="44.25258" lon="4.95853">
        <ele>331.31</ele>
        <time>2018-02-12T10:14:54Z</time>
      </trkpt>
      <trkpt lat="44.25258" lon="4.95859">
        <ele>329.39</ele>
        <time>2018-02-12T10:14:58Z</time>
      </trkpt>
      <trkpt lat="44.25259" lon="4.95861">
        <ele>332.27</ele>
        <time>2018-02-12T10:14:59Z</time>
      </trkpt>
      <trkpt lat="44.25259" lon="4.95862">
        <ele>332.27</ele>
        <time>2018-02-12T10:15:00Z</time>
      </trkpt>
      <trkpt lat="44.25261" lon="4.95867">
        <ele>328.91</ele>
        <time>2018-02-12T10:15:04Z</time>
      </trkpt>
      <trkpt lat="44.25261" lon="4.9587">
        <ele>328.43</ele>
        <time>2018-02-12T10:15:06Z</time>
      </trkpt>
      <trkpt lat="44.25262" lon="4.95875">
        <ele>331.31</ele>
        <time>2018-02-12T10:15:09Z</time>
      </trkpt>
      <trkpt lat="44.25262" lon="4.95876">
        <ele>331.31</ele>
        <time>2018-02-12T10:15:10Z</time>
      </trkpt>
      <trkpt lat="44.25266" lon="4.95903">
        <ele>328.43</ele>
        <time>2018-02-12T10:15:27Z</time>
      </trkpt>
      <trkpt lat="44.25267" lon="4.95908">
        <ele>331.31</ele>
        <time>2018-02-12T10:15:30Z</time>
      </trkpt>
      <trkpt lat="44.25268" lon="4.95912">
        <ele>328.43</ele>
        <time>2018-02-12T10:15:33Z</time>
      </trkpt>
      <trkpt lat="44.25271" lon="4.95921">
        <ele>331.79</ele>
        <time>2018-02-12T10:15:40Z</time>
      </trkpt>
      <trkpt lat="44.25271" lon="4.95922">
        <ele>331.79</ele>
        <time>2018-02-12T10:15:41Z</time>
      </trkpt>
      <trkpt lat="44.25273" lon="4.95934">
        <ele>332.27</ele>
        <time>2018-02-12T10:15:49Z</time>
      </trkpt>
      <trkpt lat="44.25275" lon="4.9595">
        <ele>330.83</ele>
        <time>2018-02-12T10:15:58Z</time>
      </trkpt>
      <trkpt lat="44.25276" lon="4.95954">
        <ele>329.87</ele>
        <time>2018-02-12T10:16:01Z</time>
      </trkpt>
      <trkpt lat="44.2528" lon="4.95981">
        <ele>330.35</ele>
        <time>2018-02-12T10:16:18Z</time>
      </trkpt>
      <trkpt lat="44.25281" lon="4.95998">
        <ele>331.31</ele>
        <time>2018-02-12T10:16:28Z</time>
      </trkpt>
      <trkpt lat="44.25283" lon="4.96005">
        <ele>333.23</ele>
        <time>2018-02-12T10:16:33Z</time>
      </trkpt>
      <trkpt lat="44.25284" lon="4.96011">
        <ele>331.31</ele>
        <time>2018-02-12T10:16:37Z</time>
      </trkpt>
      <trkpt lat="44.25288" lon="4.96036">
        <ele>330.83</ele>
        <time>2018-02-12T10:16:53Z</time>
      </trkpt>
      <trkpt lat="44.25295" lon="4.96062">
        <ele>332.27</ele>
        <time>2018-02-12T10:17:11Z</time>
      </trkpt>
      <trkpt lat="44.25299" lon="4.96069">
        <ele>329.39</ele>
        <time>2018-02-12T10:17:17Z</time>
      </trkpt>
      <trkpt lat="44.25301" lon="4.96073">
        <ele>330.83</ele>
        <time>2018-02-12T10:17:20Z</time>
      </trkpt>
      <trkpt lat="44.25304" lon="4.96078">
        <ele>329.87</ele>
        <time>2018-02-12T10:17:25Z</time>
      </trkpt>
      <trkpt lat="44.25308" lon="4.96083">
        <ele>331.79</ele>
        <time>2018-02-12T10:17:30Z</time>
      </trkpt>
      <trkpt lat="44.25317" lon="4.96097">
        <ele>332.27</ele>
        <time>2018-02-12T10:17:42Z</time>
      </trkpt>
      <trkpt lat="44.25319" lon="4.961">
        <ele>330.35</ele>
        <time>2018-02-12T10:17:44Z</time>
      </trkpt>
      <trkpt lat="44.25329" lon="4.96123">
        <ele>331.31</ele>
        <time>2018-02-12T10:18:01Z</time>
      </trkpt>
      <trkpt lat="44.25331" lon="4.96128">
        <ele>329.87</ele>
        <time>2018-02-12T10:18:05Z</time>
      </trkpt>
      <trkpt lat="44.25335" lon="4.96138">
        <ele>330.35</ele>
        <time>2018-02-12T10:18:12Z</time>
      </trkpt>
      <trkpt lat="44.25337" lon="4.96142">
        <ele>327.95</ele>
        <time>2018-02-12T10:18:15Z</time>
      </trkpt>
      <trkpt lat="44.25339" lon="4.96146">
        <ele>329.87</ele>
        <time>2018-02-12T10:18:18Z</time>
      </trkpt>
      <trkpt lat="44.25341" lon="4.96155">
        <ele>333.23</ele>
        <time>2018-02-12T10:18:24Z</time>
      </trkpt>
      <trkpt lat="44.25342" lon="4.96157">
        <ele>333.71</ele>
        <time>2018-02-12T10:18:26Z</time>
      </trkpt>
      <trkpt lat="44.25343" lon="4.9616">
        <ele>331.31</ele>
        <time>2018-02-12T10:18:29Z</time>
      </trkpt>
      <trkpt lat="44.25346" lon="4.96172">
        <ele>332.27</ele>
        <time>2018-02-12T10:18:38Z</time>
      </trkpt>
      <trkpt lat="44.25349" lon="4.96183">
        <ele>330.83</ele>
        <time>2018-02-12T10:18:45Z</time>
      </trkpt>
      <trkpt lat="44.25354" lon="4.962">
        <ele>330.35</ele>
        <time>2018-02-12T10:18:58Z</time>
      </trkpt>
      <trkpt lat="44.25359" lon="4.96216">
        <ele>333.71</ele>
        <time>2018-02-12T10:19:11Z</time>
      </trkpt>
      <trkpt lat="44.25362" lon="4.96235">
        <ele>330.35</ele>
        <time>2018-02-12T10:19:25Z</time>
      </trkpt>
      <trkpt lat="44.25363" lon="4.96242">
        <ele>331.79</ele>
        <time>2018-02-12T10:19:30Z</time>
      </trkpt>
      <trkpt lat="44.25365" lon="4.9625">
        <ele>330.35</ele>
        <time>2018-02-12T10:19:39Z</time>
      </trkpt>
      <trkpt lat="44.25365" lon="4.96259">
        <ele>330.35</ele>
        <time>2018-02-12T10:19:45Z</time>
      </trkpt>
      <trkpt lat="44.25369" lon="4.96281">
        <ele>330.35</ele>
        <time>2018-02-12T10:20:00Z</time>
      </trkpt>
      <trkpt lat="44.2537" lon="4.96288">
        <ele>331.79</ele>
        <time>2018-02-12T10:20:05Z</time>
      </trkpt>
      <trkpt lat="44.25373" lon="4.96309">
        <ele>331.31</ele>
        <time>2018-02-12T10:20:21Z</time>
      </trkpt>
      <trkpt lat="44.25373" lon="4.96331">
        <ele>331.31</ele>
        <time>2018-02-12T10:20:36Z</time>
      </trkpt>
      <trkpt lat="44.25374" lon="4.96347">
        <ele>332.27</ele>
        <time>2018-02-12T10:20:47Z</time>
      </trkpt>
      <trkpt lat="44.25371" lon="4.96383">
        <ele>332.27</ele>
        <time>2018-02-12T10:21:10Z</time>
      </trkpt>
      <trkpt lat="44.25369" lon="4.96409">
        <ele>332.75</ele>
        <time>2018-02-12T10:21:26Z</time>
      </trkpt>
      <trkpt lat="44.25367" lon="4.96426">
        <ele>331.31</ele>
        <time>2018-02-12T10:21:36Z</time>
      </trkpt>
      <trkpt lat="44.25367" lon="4.96468">
        <ele>330.35</ele>
        <time>2018-02-12T10:22:00Z</time>
      </trkpt>
      <trkpt lat="44.2537" lon="4.96503">
        <ele>329.87</ele>
        <time>2018-02-12T10:22:21Z</time>
      </trkpt>
      <trkpt lat="44.25375" lon="4.9653">
        <ele>331.31</ele>
        <time>2018-02-12T10:22:38Z</time>
      </trkpt>
      <trkpt lat="44.25375" lon="4.96536">
        <ele>329.87</ele>
        <time>2018-02-12T10:22:42Z</time>
      </trkpt>
      <trkpt lat="44.25381" lon="4.96568">
        <ele>329.87</ele>
        <time>2018-02-12T10:23:03Z</time>
      </trkpt>
      <trkpt lat="44.25388" lon="4.96591">
        <ele>327.47</ele>
        <time>2018-02-12T10:23:20Z</time>
      </trkpt>
      <trkpt lat="44.25389" lon="4.96594">
        <ele>330.35</ele>
        <time>2018-02-12T10:23:22Z</time>
      </trkpt>
      <trkpt lat="44.25397" lon="4.96623">
        <ele>329.39</ele>
        <time>2018-02-12T10:23:40Z</time>
      </trkpt>
      <trkpt lat="44.25404" lon="4.96653">
        <ele>329.39</ele>
        <time>2018-02-12T10:23:58Z</time>
      </trkpt>
      <trkpt lat="44.25407" lon="4.96661">
        <ele>333.23</ele>
        <time>2018-02-12T10:24:04Z</time>
      </trkpt>
      <trkpt lat="44.25408" lon="4.96662">
        <ele>332.27</ele>
        <time>2018-02-12T10:24:05Z</time>
      </trkpt>
      <trkpt lat="44.25414" lon="4.9668">
        <ele>332.75</ele>
        <time>2018-02-12T10:24:22Z</time>
      </trkpt>
      <trkpt lat="44.25413" lon="4.96682">
        <ele>333.23</ele>
        <time>2018-02-12T10:24:28Z</time>
      </trkpt>
      <trkpt lat="44.25413" lon="4.96683">
        <ele>331.79</ele>
        <time>2018-02-12T10:24:31Z</time>
      </trkpt>
      <trkpt lat="44.25414" lon="4.96683">
        <ele>332.75</ele>
        <time>2018-02-12T10:24:38Z</time>
      </trkpt>
      <trkpt lat="44.25414" lon="4.96684">
        <ele>331.31</ele>
        <time>2018-02-12T10:24:42Z</time>
      </trkpt>
      <trkpt lat="44.25414" lon="4.96684">
        <ele>333.23</ele>
        <time>2018-02-12T10:24:44Z</time>
      </trkpt>
      <trkpt lat="44.25414" lon="4.96685">
        <ele>330.83</ele>
        <time>2018-02-12T10:24:47Z</time>
      </trkpt>
      <trkpt lat="44.25414" lon="4.96686">
        <ele>332.75</ele>
        <time>2018-02-12T10:24:49Z</time>
      </trkpt>
      <trkpt lat="44.25417" lon="4.9669">
        <ele>330.83</ele>
        <time>2018-02-12T10:24:59Z</time>
      </trkpt>
      <trkpt lat="44.25418" lon="4.96697">
        <ele>333.23</ele>
        <time>2018-02-12T10:25:07Z</time>
      </trkpt>
      <trkpt lat="44.25419" lon="4.96699">
        <ele>331.31</ele>
        <time>2018-02-12T10:25:09Z</time>
      </trkpt>
      <trkpt lat="44.25428" lon="4.96723">
        <ele>331.31</ele>
        <time>2018-02-12T10:25:29Z</time>
      </trkpt>
      <trkpt lat="44.25434" lon="4.9674">
        <ele>331.31</ele>
        <time>2018-02-12T10:25:43Z</time>
      </trkpt>
      <trkpt lat="44.25435" lon="4.96746">
        <ele>330.35</ele>
        <time>2018-02-12T10:26:01Z</time>
      </trkpt>
      <trkpt lat="44.25436" lon="4.96746">
        <ele>330.35</ele>
        <time>2018-02-12T10:26:02Z</time>
      </trkpt>
      <trkpt lat="44.25447" lon="4.9677">
        <ele>331.31</ele>
        <time>2018-02-12T10:26:21Z</time>
      </trkpt>
      <trkpt lat="44.25448" lon="4.96773">
        <ele>329.87</ele>
        <time>2018-02-12T10:26:23Z</time>
      </trkpt>
      <trkpt lat="44.25451" lon="4.96781">
        <ele>333.71</ele>
        <time>2018-02-12T10:26:28Z</time>
      </trkpt>
      <trkpt lat="44.25451" lon="4.96782">
        <ele>333.71</ele>
        <time>2018-02-12T10:26:29Z</time>
      </trkpt>
      <trkpt lat="44.25454" lon="4.9679">
        <ele>329.87</ele>
        <time>2018-02-12T10:26:35Z</time>
      </trkpt>
      <trkpt lat="44.25457" lon="4.96795">
        <ele>327.47</ele>
        <time>2018-02-12T10:26:40Z</time>
      </trkpt>
      <trkpt lat="44.25457" lon="4.96797">
        <ele>332.27</ele>
        <time>2018-02-12T10:26:42Z</time>
      </trkpt>
      <trkpt lat="44.25458" lon="4.96799">
        <ele>332.75</ele>
        <time>2018-02-12T10:26:43Z</time>
      </trkpt>
      <trkpt lat="44.25467" lon="4.9682">
        <ele>329.39</ele>
        <time>2018-02-12T10:26:59Z</time>
      </trkpt>
      <trkpt lat="44.25472" lon="4.96832">
        <ele>332.27</ele>
        <time>2018-02-12T10:27:08Z</time>
      </trkpt>
      <trkpt lat="44.25473" lon="4.96835">
        <ele>329.39</ele>
        <time>2018-02-12T10:27:10Z</time>
      </trkpt>
      <trkpt lat="44.25478" lon="4.96851">
        <ele>328.91</ele>
        <time>2018-02-12T10:27:21Z</time>
      </trkpt>
      <trkpt lat="44.25488" lon="4.96879">
        <ele>328.91</ele>
        <time>2018-02-12T10:27:41Z</time>
      </trkpt>
      <trkpt lat="44.2549" lon="4.96886">
        <ele>329.87</ele>
        <time>2018-02-12T10:27:46Z</time>
      </trkpt>
      <trkpt lat="44.25491" lon="4.96889">
        <ele>328.91</ele>
        <time>2018-02-12T10:27:48Z</time>
      </trkpt>
      <trkpt lat="44.25492" lon="4.96894">
        <ele>327.47</ele>
        <time>2018-02-12T10:27:52Z</time>
      </trkpt>
      <trkpt lat="44.25491" lon="4.96894">
        <ele>331.31</ele>
        <time>2018-02-12T10:27:54Z</time>
      </trkpt>
      <trkpt lat="44.25492" lon="4.96894">
        <ele>331.31</ele>
        <time>2018-02-12T10:27:55Z</time>
      </trkpt>
      <trkpt lat="44.25491" lon="4.96891">
        <ele>327.47</ele>
        <time>2018-02-12T10:28:02Z</time>
      </trkpt>
      <trkpt lat="44.25491" lon="4.9689">
        <ele>331.31</ele>
        <time>2018-02-12T10:28:15Z</time>
      </trkpt>
      <trkpt lat="44.2549" lon="4.96891">
        <ele>331.31</ele>
        <time>2018-02-12T10:28:16Z</time>
      </trkpt>
      <trkpt lat="44.2549" lon="4.96891">
        <ele>329.87</ele>
        <time>2018-02-12T10:28:20Z</time>
      </trkpt>
      <trkpt lat="44.2549" lon="4.96891">
        <ele>331.31</ele>
        <time>2018-02-12T10:28:25Z</time>
      </trkpt>
      <trkpt lat="44.25496" lon="4.96883">
        <ele>328.91</ele>
        <time>2018-02-12T10:28:44Z</time>
      </trkpt>
      <trkpt lat="44.25497" lon="4.96879">
        <ele>327.47</ele>
        <time>2018-02-12T10:28:47Z</time>
      </trkpt>
      <trkpt lat="44.255" lon="4.96871">
        <ele>330.35</ele>
        <time>2018-02-12T10:28:55Z</time>
      </trkpt>
      <trkpt lat="44.25502" lon="4.96868">
        <ele>327.47</ele>
        <time>2018-02-12T10:28:58Z</time>
      </trkpt>
      <trkpt lat="44.25504" lon="4.96864">
        <ele>331.79</ele>
        <time>2018-02-12T10:29:02Z</time>
      </trkpt>
      <trkpt lat="44.25504" lon="4.96862">
        <ele>332.27</ele>
        <time>2018-02-12T10:29:04Z</time>
      </trkpt>
      <trkpt lat="44.25505" lon="4.96859">
        <ele>330.83</ele>
        <time>2018-02-12T10:29:07Z</time>
      </trkpt>
      <trkpt lat="44.25507" lon="4.96856">
        <ele>326.5</ele>
        <time>2018-02-12T10:29:10Z</time>
      </trkpt>
      <trkpt lat="44.25507" lon="4.96855">
        <ele>329.87</ele>
        <time>2018-02-12T10:29:11Z</time>
      </trkpt>
      <trkpt lat="44.25508" lon="4.96849">
        <ele>332.27</ele>
        <time>2018-02-12T10:29:16Z</time>
      </trkpt>
      <trkpt lat="44.25511" lon="4.9684">
        <ele>330.83</ele>
        <time>2018-02-12T10:29:32Z</time>
      </trkpt>
      <trkpt lat="44.25512" lon="4.9684">
        <ele>329.87</ele>
        <time>2018-02-12T10:29:46Z</time>
      </trkpt>
      <trkpt lat="44.25513" lon="4.96839">
        <ele>329.39</ele>
        <time>2018-02-12T10:30:07Z</time>
      </trkpt>
      <trkpt lat="44.25513" lon="4.96839">
        <ele>331.31</ele>
        <time>2018-02-12T10:30:22Z</time>
      </trkpt>
      <trkpt lat="44.25512" lon="4.96841">
        <ele>331.31</ele>
        <time>2018-02-12T10:30:42Z</time>
      </trkpt>
      <trkpt lat="44.25511" lon="4.96841">
        <ele>331.31</ele>
        <time>2018-02-12T10:31:04Z</time>
      </trkpt>
      <trkpt lat="44.25512" lon="4.9684">
        <ele>329.87</ele>
        <time>2018-02-12T10:31:07Z</time>
      </trkpt>
      <trkpt lat="44.25512" lon="4.96837">
        <ele>331.31</ele>
        <time>2018-02-12T10:31:18Z</time>
      </trkpt>
      <trkpt lat="44.25512" lon="4.96838">
        <ele>328.91</ele>
        <time>2018-02-12T10:31:22Z</time>
      </trkpt>
      <trkpt lat="44.25511" lon="4.96841">
        <ele>331.79</ele>
        <time>2018-02-12T10:31:25Z</time>
      </trkpt>
      <trkpt lat="44.25511" lon="4.96842">
        <ele>331.79</ele>
        <time>2018-02-12T10:31:26Z</time>
      </trkpt>
      <trkpt lat="44.2551" lon="4.96845">
        <ele>330.35</ele>
        <time>2018-02-12T10:31:28Z</time>
      </trkpt>
      <trkpt lat="44.25509" lon="4.9685">
        <ele>332.27</ele>
        <time>2018-02-12T10:31:32Z</time>
      </trkpt>
      <trkpt lat="44.25505" lon="4.9686">
        <ele>330.83</ele>
        <time>2018-02-12T10:31:39Z</time>
      </trkpt>
      <trkpt lat="44.25503" lon="4.96868">
        <ele>329.87</ele>
        <time>2018-02-12T10:31:45Z</time>
      </trkpt>
      <trkpt lat="44.25493" lon="4.96891">
        <ele>328.91</ele>
        <time>2018-02-12T10:32:02Z</time>
      </trkpt>
      <trkpt lat="44.255" lon="4.96909">
        <ele>329.39</ele>
        <time>2018-02-12T10:32:19Z</time>
      </trkpt>
      <trkpt lat="44.255" lon="4.96911">
        <ele>330.83</ele>
        <time>2018-02-12T10:32:23Z</time>
      </trkpt>
      <trkpt lat="44.255" lon="4.96911">
        <ele>331.31</ele>
        <time>2018-02-12T10:32:25Z</time>
      </trkpt>
      <trkpt lat="44.25502" lon="4.96913">
        <ele>329.87</ele>
        <time>2018-02-12T10:32:27Z</time>
      </trkpt>
      <trkpt lat="44.25502" lon="4.96911">
        <ele>332.27</ele>
        <time>2018-02-12T10:32:29Z</time>
      </trkpt>
      <trkpt lat="44.25508" lon="4.96919">
        <ele>329.39</ele>
        <time>2018-02-12T10:32:37Z</time>
      </trkpt>
      <trkpt lat="44.25518" lon="4.9694">
        <ele>329.87</ele>
        <time>2018-02-12T10:32:53Z</time>
      </trkpt>
      <trkpt lat="44.25519" lon="4.96943">
        <ele>328.91</ele>
        <time>2018-02-12T10:32:55Z</time>
      </trkpt>
      <trkpt lat="44.25521" lon="4.96949">
        <ele>330.83</ele>
        <time>2018-02-12T10:32:59Z</time>
      </trkpt>
      <trkpt lat="44.25525" lon="4.9696">
        <ele>329.87</ele>
        <time>2018-02-12T10:33:07Z</time>
      </trkpt>
      <trkpt lat="44.25529" lon="4.9697">
        <ele>327.47</ele>
        <time>2018-02-12T10:33:13Z</time>
      </trkpt>
      <trkpt lat="44.25531" lon="4.96976">
        <ele>330.83</ele>
        <time>2018-02-12T10:33:18Z</time>
      </trkpt>
      <trkpt lat="44.25532" lon="4.9698">
        <ele>329.39</ele>
        <time>2018-02-12T10:33:21Z</time>
      </trkpt>
      <trkpt lat="44.25537" lon="4.96991">
        <ele>328.91</ele>
        <time>2018-02-12T10:33:31Z</time>
      </trkpt>
      <trkpt lat="44.25539" lon="4.96994">
        <ele>330.35</ele>
        <time>2018-02-12T10:33:33Z</time>
      </trkpt>
      <trkpt lat="44.25549" lon="4.97017">
        <ele>330.35</ele>
        <time>2018-02-12T10:33:51Z</time>
      </trkpt>
      <trkpt lat="44.25557" lon="4.97036">
        <ele>332.27</ele>
        <time>2018-02-12T10:34:05Z</time>
      </trkpt>
      <trkpt lat="44.25578" lon="4.97043">
        <ele>329.87</ele>
        <time>2018-02-12T10:34:25Z</time>
      </trkpt>
      <trkpt lat="44.25582" lon="4.97042">
        <ele>331.31</ele>
        <time>2018-02-12T10:34:30Z</time>
      </trkpt>
      <trkpt lat="44.25585" lon="4.97042">
        <ele>329.39</ele>
        <time>2018-02-12T10:34:32Z</time>
      </trkpt>
      <trkpt lat="44.25589" lon="4.97041">
        <ele>330.83</ele>
        <time>2018-02-12T10:34:37Z</time>
      </trkpt>
      <trkpt lat="44.25598" lon="4.97038">
        <ele>331.31</ele>
        <time>2018-02-12T10:34:46Z</time>
      </trkpt>
      <trkpt lat="44.256" lon="4.97037">
        <ele>327.47</ele>
        <time>2018-02-12T10:34:48Z</time>
      </trkpt>
      <trkpt lat="44.25601" lon="4.97037">
        <ele>328.91</ele>
        <time>2018-02-12T10:34:49Z</time>
      </trkpt>
      <trkpt lat="44.25603" lon="4.97036">
        <ele>330.83</ele>
        <time>2018-02-12T10:34:51Z</time>
      </trkpt>
      <trkpt lat="44.25624" lon="4.97032">
        <ele>330.83</ele>
        <time>2018-02-12T10:35:11Z</time>
      </trkpt>
      <trkpt lat="44.25637" lon="4.97049">
        <ele>332.75</ele>
        <time>2018-02-12T10:35:29Z</time>
      </trkpt>
      <trkpt lat="44.25637" lon="4.97055">
        <ele>332.75</ele>
        <time>2018-02-12T10:35:33Z</time>
      </trkpt>
      <trkpt lat="44.25637" lon="4.97069">
        <ele>331.31</ele>
        <time>2018-02-12T10:35:43Z</time>
      </trkpt>
      <trkpt lat="44.25638" lon="4.97073">
        <ele>331.31</ele>
        <time>2018-02-12T10:35:46Z</time>
      </trkpt>
      <trkpt lat="44.25641" lon="4.97079">
        <ele>332.75</ele>
        <time>2018-02-12T10:35:51Z</time>
      </trkpt>
      <trkpt lat="44.25642" lon="4.9708">
        <ele>331.31</ele>
        <time>2018-02-12T10:35:53Z</time>
      </trkpt>
      <trkpt lat="44.25642" lon="4.9708">
        <ele>332.75</ele>
        <time>2018-02-12T10:35:58Z</time>
      </trkpt>
      <trkpt lat="44.25643" lon="4.97081">
        <ele>330.83</ele>
        <time>2018-02-12T10:36:00Z</time>
      </trkpt>
      <trkpt lat="44.25643" lon="4.97081">
        <ele>330.83</ele>
        <time>2018-02-12T10:36:01Z</time>
      </trkpt>
      <trkpt lat="44.25647" lon="4.97084">
        <ele>331.31</ele>
        <time>2018-02-12T10:36:07Z</time>
      </trkpt>
      <trkpt lat="44.25646" lon="4.97083">
        <ele>331.31</ele>
        <time>2018-02-12T10:36:30Z</time>
      </trkpt>
      <trkpt lat="44.25656" lon="4.97082">
        <ele>330.83</ele>
        <time>2018-02-12T10:36:44Z</time>
      </trkpt>
      <trkpt lat="44.25658" lon="4.97081">
        <ele>332.75</ele>
        <time>2018-02-12T10:36:47Z</time>
      </trkpt>
      <trkpt lat="44.25661" lon="4.97082">
        <ele>331.79</ele>
        <time>2018-02-12T10:36:57Z</time>
      </trkpt>
      <trkpt lat="44.25668" lon="4.97083">
        <ele>332.75</ele>
        <time>2018-02-12T10:37:14Z</time>
      </trkpt>
      <trkpt lat="44.25667" lon="4.97082">
        <ele>331.79</ele>
        <time>2018-02-12T10:37:29Z</time>
      </trkpt>
      <trkpt lat="44.25668" lon="4.97082">
        <ele>334.2</ele>
        <time>2018-02-12T10:37:32Z</time>
      </trkpt>
      <trkpt lat="44.25668" lon="4.97082">
        <ele>332.75</ele>
        <time>2018-02-12T10:37:36Z</time>
      </trkpt>
      <trkpt lat="44.25675" lon="4.97084">
        <ele>329.87</ele>
        <time>2018-02-12T10:37:47Z</time>
      </trkpt>
      <trkpt lat="44.25676" lon="4.97084">
        <ele>335.16</ele>
        <time>2018-02-12T10:37:49Z</time>
      </trkpt>
      <trkpt lat="44.25677" lon="4.97085">
        <ele>333.23</ele>
        <time>2018-02-12T10:37:50Z</time>
      </trkpt>
      <trkpt lat="44.25685" lon="4.97087">
        <ele>333.71</ele>
        <time>2018-02-12T10:38:00Z</time>
      </trkpt>
      <trkpt lat="44.25689" lon="4.97089">
        <ele>332.27</ele>
        <time>2018-02-12T10:38:05Z</time>
      </trkpt>
      <trkpt lat="44.25696" lon="4.97093">
        <ele>335.16</ele>
        <time>2018-02-12T10:38:12Z</time>
      </trkpt>
      <trkpt lat="44.25699" lon="4.97095">
        <ele>333.71</ele>
        <time>2018-02-12T10:38:15Z</time>
      </trkpt>
      <trkpt lat="44.25706" lon="4.97101">
        <ele>334.68</ele>
        <time>2018-02-12T10:38:22Z</time>
      </trkpt>
      <trkpt lat="44.25708" lon="4.97104">
        <ele>333.23</ele>
        <time>2018-02-12T10:38:25Z</time>
      </trkpt>
      <trkpt lat="44.25711" lon="4.97107">
        <ele>335.64</ele>
        <time>2018-02-12T10:38:28Z</time>
      </trkpt>
      <trkpt lat="44.25722" lon="4.97126">
        <ele>335.64</ele>
        <time>2018-02-12T10:38:44Z</time>
      </trkpt>
      <trkpt lat="44.25734" lon="4.97145">
        <ele>335.64</ele>
        <time>2018-02-12T10:39:00Z</time>
      </trkpt>
      <trkpt lat="44.25742" lon="4.97158">
        <ele>336.6</ele>
        <time>2018-02-12T10:39:12Z</time>
      </trkpt>
      <trkpt lat="44.25743" lon="4.97159">
        <ele>336.6</ele>
        <time>2018-02-12T10:39:13Z</time>
      </trkpt>
      <trkpt lat="44.25747" lon="4.97165">
        <ele>336.6</ele>
        <time>2018-02-12T10:39:20Z</time>
      </trkpt>
      <trkpt lat="44.25749" lon="4.97168">
        <ele>336.6</ele>
        <time>2018-02-12T10:39:22Z</time>
      </trkpt>
      <trkpt lat="44.2576" lon="4.97187">
        <ele>337.08</ele>
        <time>2018-02-12T10:39:39Z</time>
      </trkpt>
      <trkpt lat="44.25769" lon="4.97207">
        <ele>339.48</ele>
        <time>2018-02-12T10:39:55Z</time>
      </trkpt>
      <trkpt lat="44.25769" lon="4.97208">
        <ele>339.48</ele>
        <time>2018-02-12T10:39:56Z</time>
      </trkpt>
      <trkpt lat="44.25772" lon="4.97212">
        <ele>335.16</ele>
        <time>2018-02-12T10:39:59Z</time>
      </trkpt>
      <trkpt lat="44.25774" lon="4.97216">
        <ele>338.04</ele>
        <time>2018-02-12T10:40:02Z</time>
      </trkpt>
      <trkpt lat="44.25787" lon="4.97229">
        <ele>338.04</ele>
        <time>2018-02-12T10:40:16Z</time>
      </trkpt>
      <trkpt lat="44.25797" lon="4.97235">
        <ele>337.56</ele>
        <time>2018-02-12T10:40:26Z</time>
      </trkpt>
      <trkpt lat="44.25809" lon="4.97248">
        <ele>340.44</ele>
        <time>2018-02-12T10:40:39Z</time>
      </trkpt>
      <trkpt lat="44.2581" lon="4.9725">
        <ele>341.41</ele>
        <time>2018-02-12T10:40:41Z</time>
      </trkpt>
      <trkpt lat="44.25815" lon="4.97262">
        <ele>339.96</ele>
        <time>2018-02-12T10:40:50Z</time>
      </trkpt>
      <trkpt lat="44.25817" lon="4.97267">
        <ele>339.96</ele>
        <time>2018-02-12T10:40:54Z</time>
      </trkpt>
      <trkpt lat="44.25819" lon="4.9727">
        <ele>341.41</ele>
        <time>2018-02-12T10:40:56Z</time>
      </trkpt>
      <trkpt lat="44.25822" lon="4.9728">
        <ele>339.48</ele>
        <time>2018-02-12T10:41:03Z</time>
      </trkpt>
      <trkpt lat="44.25827" lon="4.97292">
        <ele>341.41</ele>
        <time>2018-02-12T10:41:12Z</time>
      </trkpt>
      <trkpt lat="44.25838" lon="4.9732">
        <ele>339.48</ele>
        <time>2018-02-12T10:41:33Z</time>
      </trkpt>
      <trkpt lat="44.25842" lon="4.97324">
        <ele>340.44</ele>
        <time>2018-02-12T10:41:37Z</time>
      </trkpt>
      <trkpt lat="44.25844" lon="4.97324">
        <ele>340.92</ele>
        <time>2018-02-12T10:41:40Z</time>
      </trkpt>
      <trkpt lat="44.25853" lon="4.9732">
        <ele>339.96</ele>
        <time>2018-02-12T10:41:49Z</time>
      </trkpt>
      <trkpt lat="44.25861" lon="4.97315">
        <ele>342.85</ele>
        <time>2018-02-12T10:41:59Z</time>
      </trkpt>
      <trkpt lat="44.25883" lon="4.97301">
        <ele>343.81</ele>
        <time>2018-02-12T10:42:23Z</time>
      </trkpt>
      <trkpt lat="44.25896" lon="4.97294">
        <ele>344.77</ele>
        <time>2018-02-12T10:42:36Z</time>
      </trkpt>
      <trkpt lat="44.25914" lon="4.97283">
        <ele>345.73</ele>
        <time>2018-02-12T10:42:55Z</time>
      </trkpt>
      <trkpt lat="44.2593" lon="4.97277">
        <ele>346.69</ele>
        <time>2018-02-12T10:43:09Z</time>
      </trkpt>
      <trkpt lat="44.25939" lon="4.97272">
        <ele>348.13</ele>
        <time>2018-02-12T10:43:17Z</time>
      </trkpt>
      <trkpt lat="44.25946" lon="4.9727">
        <ele>350.54</ele>
        <time>2018-02-12T10:43:23Z</time>
      </trkpt>
      <trkpt lat="44.2595" lon="4.97271">
        <ele>349.58</ele>
        <time>2018-02-12T10:43:27Z</time>
      </trkpt>
      <trkpt lat="44.25958" lon="4.97273">
        <ele>348.62</ele>
        <time>2018-02-12T10:43:35Z</time>
      </trkpt>
      <trkpt lat="44.25964" lon="4.97277">
        <ele>349.58</ele>
        <time>2018-02-12T10:43:41Z</time>
      </trkpt>
      <trkpt lat="44.2597" lon="4.97283">
        <ele>348.62</ele>
        <time>2018-02-12T10:43:56Z</time>
      </trkpt>
      <trkpt lat="44.25976" lon="4.97289">
        <ele>348.13</ele>
        <time>2018-02-12T10:44:21Z</time>
      </trkpt>
      <trkpt lat="44.25976" lon="4.97289">
        <ele>346.69</ele>
        <time>2018-02-12T10:44:33Z</time>
      </trkpt>
      <trkpt lat="44.25977" lon="4.97288">
        <ele>349.58</ele>
        <time>2018-02-12T10:44:35Z</time>
      </trkpt>
      <trkpt lat="44.25973" lon="4.97288">
        <ele>349.58</ele>
        <time>2018-02-12T10:44:45Z</time>
      </trkpt>
      <trkpt lat="44.25971" lon="4.97287">
        <ele>347.17</ele>
        <time>2018-02-12T10:45:06Z</time>
      </trkpt>
      <trkpt lat="44.25971" lon="4.97287">
        <ele>348.62</ele>
        <time>2018-02-12T10:45:09Z</time>
      </trkpt>
      <trkpt lat="44.25971" lon="4.97288">
        <ele>351.98</ele>
        <time>2018-02-12T10:45:12Z</time>
      </trkpt>
      <trkpt lat="44.25971" lon="4.97288">
        <ele>351.98</ele>
        <time>2018-02-12T10:45:13Z</time>
      </trkpt>
      <trkpt lat="44.25971" lon="4.97289">
        <ele>348.62</ele>
        <time>2018-02-12T10:45:15Z</time>
      </trkpt>
      <trkpt lat="44.25971" lon="4.9729">
        <ele>349.58</ele>
        <time>2018-02-12T10:45:23Z</time>
      </trkpt>
      <trkpt lat="44.25971" lon="4.9729">
        <ele>349.58</ele>
        <time>2018-02-12T10:45:42Z</time>
      </trkpt>
      <trkpt lat="44.25971" lon="4.97288">
        <ele>349.58</ele>
        <time>2018-02-12T10:45:49Z</time>
      </trkpt>
      <trkpt lat="44.25974" lon="4.97292">
        <ele>350.54</ele>
        <time>2018-02-12T10:45:58Z</time>
      </trkpt>
      <trkpt lat="44.25978" lon="4.97297">
        <ele>349.1</ele>
        <time>2018-02-12T10:46:03Z</time>
      </trkpt>
      <trkpt lat="44.25981" lon="4.97301">
        <ele>348.62</ele>
        <time>2018-02-12T10:46:07Z</time>
      </trkpt>
      <trkpt lat="44.25992" lon="4.97317">
        <ele>346.69</ele>
        <time>2018-02-12T10:46:22Z</time>
      </trkpt>
      <trkpt lat="44.25993" lon="4.97317">
        <ele>346.69</ele>
        <time>2018-02-12T10:46:23Z</time>
      </trkpt>
      <trkpt lat="44.25997" lon="4.9732">
        <ele>349.1</ele>
        <time>2018-02-12T10:46:27Z</time>
      </trkpt>
      <trkpt lat="44.26015" lon="4.9733">
        <ele>348.62</ele>
        <time>2018-02-12T10:46:45Z</time>
      </trkpt>
      <trkpt lat="44.26018" lon="4.97333">
        <ele>350.54</ele>
        <time>2018-02-12T10:46:48Z</time>
      </trkpt>
      <trkpt lat="44.2602" lon="4.97334">
        <ele>348.62</ele>
        <time>2018-02-12T10:46:50Z</time>
      </trkpt>
      <trkpt lat="44.26031" lon="4.97358">
        <ele>350.54</ele>
        <time>2018-02-12T10:47:07Z</time>
      </trkpt>
      <trkpt lat="44.26031" lon="4.97377">
        <ele>349.58</ele>
        <time>2018-02-12T10:47:18Z</time>
      </trkpt>
      <trkpt lat="44.26031" lon="4.97386">
        <ele>346.69</ele>
        <time>2018-02-12T10:47:24Z</time>
      </trkpt>
      <trkpt lat="44.26031" lon="4.97388">
        <ele>346.69</ele>
        <time>2018-02-12T10:47:25Z</time>
      </trkpt>
      <trkpt lat="44.26032" lon="4.97394">
        <ele>349.1</ele>
        <time>2018-02-12T10:47:29Z</time>
      </trkpt>
      <trkpt lat="44.26033" lon="4.97405">
        <ele>346.21</ele>
        <time>2018-02-12T10:47:36Z</time>
      </trkpt>
      <trkpt lat="44.26035" lon="4.97433">
        <ele>349.1</ele>
        <time>2018-02-12T10:47:53Z</time>
      </trkpt>
      <trkpt lat="44.26036" lon="4.97442">
        <ele>347.65</ele>
        <time>2018-02-12T10:47:59Z</time>
      </trkpt>
      <trkpt lat="44.26036" lon="4.97469">
        <ele>347.17</ele>
        <time>2018-02-12T10:48:17Z</time>
      </trkpt>
      <trkpt lat="44.26044" lon="4.97488">
        <ele>349.58</ele>
        <time>2018-02-12T10:48:33Z</time>
      </trkpt>
      <trkpt lat="44.2605" lon="4.97496">
        <ele>348.13</ele>
        <time>2018-02-12T10:48:40Z</time>
      </trkpt>
      <trkpt lat="44.26053" lon="4.975">
        <ele>350.54</ele>
        <time>2018-02-12T10:48:44Z</time>
      </trkpt>
      <trkpt lat="44.26055" lon="4.97502">
        <ele>349.1</ele>
        <time>2018-02-12T10:48:46Z</time>
      </trkpt>
      <trkpt lat="44.26064" lon="4.97513">
        <ele>349.1</ele>
        <time>2018-02-12T10:48:56Z</time>
      </trkpt>
      <trkpt lat="44.26068" lon="4.97519">
        <ele>351.02</ele>
        <time>2018-02-12T10:49:02Z</time>
      </trkpt>
      <trkpt lat="44.2607" lon="4.9752">
        <ele>349.58</ele>
        <time>2018-02-12T10:49:04Z</time>
      </trkpt>
      <trkpt lat="44.2608" lon="4.97532">
        <ele>350.06</ele>
        <time>2018-02-12T10:49:16Z</time>
      </trkpt>
      <trkpt lat="44.26087" lon="4.9754">
        <ele>349.1</ele>
        <time>2018-02-12T10:49:25Z</time>
      </trkpt>
      <trkpt lat="44.26092" lon="4.97545">
        <ele>350.54</ele>
        <time>2018-02-12T10:49:31Z</time>
      </trkpt>
      <trkpt lat="44.26105" lon="4.97559">
        <ele>351.02</ele>
        <time>2018-02-12T10:49:46Z</time>
      </trkpt>
      <trkpt lat="44.26121" lon="4.97576">
        <ele>351.02</ele>
        <time>2018-02-12T10:50:05Z</time>
      </trkpt>
      <trkpt lat="44.2613" lon="4.97584">
        <ele>351.5</ele>
        <time>2018-02-12T10:50:15Z</time>
      </trkpt>
      <trkpt lat="44.26136" lon="4.97589">
        <ele>350.06</ele>
        <time>2018-02-12T10:50:22Z</time>
      </trkpt>
      <trkpt lat="44.26141" lon="4.97592">
        <ele>350.54</ele>
        <time>2018-02-12T10:50:27Z</time>
      </trkpt>
      <trkpt lat="44.26145" lon="4.97596">
        <ele>346.69</ele>
        <time>2018-02-12T10:50:32Z</time>
      </trkpt>
      <trkpt lat="44.26146" lon="4.97597">
        <ele>346.69</ele>
        <time>2018-02-12T10:50:33Z</time>
      </trkpt>
      <trkpt lat="44.26149" lon="4.976">
        <ele>350.06</ele>
        <time>2018-02-12T10:50:36Z</time>
      </trkpt>
      <trkpt lat="44.26152" lon="4.97602">
        <ele>351.5</ele>
        <time>2018-02-12T10:50:39Z</time>
      </trkpt>
      <trkpt lat="44.2616" lon="4.97607">
        <ele>348.13</ele>
        <time>2018-02-12T10:50:47Z</time>
      </trkpt>
      <trkpt lat="44.26161" lon="4.97608">
        <ele>348.13</ele>
        <time>2018-02-12T10:50:48Z</time>
      </trkpt>
      <trkpt lat="44.26165" lon="4.97613">
        <ele>351.5</ele>
        <time>2018-02-12T10:50:53Z</time>
      </trkpt>
      <trkpt lat="44.26169" lon="4.97617">
        <ele>348.13</ele>
        <time>2018-02-12T10:50:57Z</time>
      </trkpt>
      <trkpt lat="44.26169" lon="4.97618">
        <ele>348.13</ele>
        <time>2018-02-12T10:50:58Z</time>
      </trkpt>
      <trkpt lat="44.26173" lon="4.97623">
        <ele>351.02</ele>
        <time>2018-02-12T10:51:03Z</time>
      </trkpt>
      <trkpt lat="44.26177" lon="4.97628">
        <ele>349.1</ele>
        <time>2018-02-12T10:51:08Z</time>
      </trkpt>
      <trkpt lat="44.26183" lon="4.97634">
        <ele>351.02</ele>
        <time>2018-02-12T10:51:14Z</time>
      </trkpt>
      <trkpt lat="44.2619" lon="4.97646">
        <ele>350.06</ele>
        <time>2018-02-12T10:51:23Z</time>
      </trkpt>
      <trkpt lat="44.26191" lon="4.97649">
        <ele>351.98</ele>
        <time>2018-02-12T10:51:25Z</time>
      </trkpt>
      <trkpt lat="44.26192" lon="4.97651">
        <ele>350.06</ele>
        <time>2018-02-12T10:51:27Z</time>
      </trkpt>
      <trkpt lat="44.26198" lon="4.97672">
        <ele>349.58</ele>
        <time>2018-02-12T10:51:43Z</time>
      </trkpt>
      <trkpt lat="44.26203" lon="4.97696">
        <ele>349.58</ele>
        <time>2018-02-12T10:52:00Z</time>
      </trkpt>
      <trkpt lat="44.2621" lon="4.97723">
        <ele>350.06</ele>
        <time>2018-02-12T10:52:18Z</time>
      </trkpt>
      <trkpt lat="44.2621" lon="4.97724">
        <ele>350.06</ele>
        <time>2018-02-12T10:52:19Z</time>
      </trkpt>
      <trkpt lat="44.26215" lon="4.97747">
        <ele>352.46</ele>
        <time>2018-02-12T10:52:35Z</time>
      </trkpt>
      <trkpt lat="44.26224" lon="4.97769">
        <ele>352.94</ele>
        <time>2018-02-12T10:52:51Z</time>
      </trkpt>
      <trkpt lat="44.26234" lon="4.9779">
        <ele>353.42</ele>
        <time>2018-02-12T10:53:07Z</time>
      </trkpt>
      <trkpt lat="44.26242" lon="4.9781">
        <ele>353.9</ele>
        <time>2018-02-12T10:53:21Z</time>
      </trkpt>
      <trkpt lat="44.26243" lon="4.97811">
        <ele>353.9</ele>
        <time>2018-02-12T10:53:22Z</time>
      </trkpt>
      <trkpt lat="44.26254" lon="4.97834">
        <ele>353.9</ele>
        <time>2018-02-12T10:53:39Z</time>
      </trkpt>
      <trkpt lat="44.26256" lon="4.97839">
        <ele>355.34</ele>
        <time>2018-02-12T10:53:42Z</time>
      </trkpt>
      <trkpt lat="44.2626" lon="4.97844">
        <ele>353.9</ele>
        <time>2018-02-12T10:53:46Z</time>
      </trkpt>
      <trkpt lat="44.26273" lon="4.97862">
        <ele>353.9</ele>
        <time>2018-02-12T10:54:02Z</time>
      </trkpt>
      <trkpt lat="44.26285" lon="4.97883">
        <ele>355.34</ele>
        <time>2018-02-12T10:54:18Z</time>
      </trkpt>
      <trkpt lat="44.26288" lon="4.979">
        <ele>354.86</ele>
        <time>2018-02-12T10:54:31Z</time>
      </trkpt>
      <trkpt lat="44.26292" lon="4.97932">
        <ele>354.86</ele>
        <time>2018-02-12T10:54:53Z</time>
      </trkpt>
      <trkpt lat="44.26293" lon="4.97951">
        <ele>354.86</ele>
        <time>2018-02-12T10:55:06Z</time>
      </trkpt>
      <trkpt lat="44.26293" lon="4.97956">
        <ele>356.79</ele>
        <time>2018-02-12T10:55:09Z</time>
      </trkpt>
      <trkpt lat="44.26294" lon="4.97966">
        <ele>355.83</ele>
        <time>2018-02-12T10:55:16Z</time>
      </trkpt>
      <trkpt lat="44.26295" lon="4.97978">
        <ele>357.75</ele>
        <time>2018-02-12T10:55:24Z</time>
      </trkpt>
      <trkpt lat="44.26297" lon="4.98">
        <ele>355.34</ele>
        <time>2018-02-12T10:55:38Z</time>
      </trkpt>
      <trkpt lat="44.26297" lon="4.98002">
        <ele>360.15</ele>
        <time>2018-02-12T10:55:39Z</time>
      </trkpt>
      <trkpt lat="44.26297" lon="4.98005">
        <ele>361.59</ele>
        <time>2018-02-12T10:55:41Z</time>
      </trkpt>
      <trkpt lat="44.26297" lon="4.98006">
        <ele>357.75</ele>
        <time>2018-02-12T10:55:42Z</time>
      </trkpt>
      <trkpt lat="44.26297" lon="4.98007">
        <ele>354.38</ele>
        <time>2018-02-12T10:55:43Z</time>
      </trkpt>
      <trkpt lat="44.26298" lon="4.98009">
        <ele>354.38</ele>
        <time>2018-02-12T10:55:44Z</time>
      </trkpt>
      <trkpt lat="44.26298" lon="4.98013">
        <ele>358.71</ele>
        <time>2018-02-12T10:55:47Z</time>
      </trkpt>
      <trkpt lat="44.26299" lon="4.98019">
        <ele>353.9</ele>
        <time>2018-02-12T10:55:52Z</time>
      </trkpt>
      <trkpt lat="44.26299" lon="4.98021">
        <ele>354.38</ele>
        <time>2018-02-12T10:55:53Z</time>
      </trkpt>
      <trkpt lat="44.263" lon="4.98024">
        <ele>358.71</ele>
        <time>2018-02-12T10:55:55Z</time>
      </trkpt>
      <trkpt lat="44.263" lon="4.98028">
        <ele>359.67</ele>
        <time>2018-02-12T10:55:57Z</time>
      </trkpt>
      <trkpt lat="44.26301" lon="4.98038">
        <ele>358.23</ele>
        <time>2018-02-12T10:56:04Z</time>
      </trkpt>
      <trkpt lat="44.26303" lon="4.98069">
        <ele>357.75</ele>
        <time>2018-02-12T10:56:22Z</time>
      </trkpt>
      <trkpt lat="44.26304" lon="4.98091">
        <ele>358.71</ele>
        <time>2018-02-12T10:56:37Z</time>
      </trkpt>
      <trkpt lat="44.26305" lon="4.98094">
        <ele>356.31</ele>
        <time>2018-02-12T10:56:39Z</time>
      </trkpt>
      <trkpt lat="44.26304" lon="4.98105">
        <ele>357.27</ele>
        <time>2018-02-12T10:56:46Z</time>
      </trkpt>
      <trkpt lat="44.26306" lon="4.98131">
        <ele>357.75</ele>
        <time>2018-02-12T10:57:03Z</time>
      </trkpt>
      <trkpt lat="44.26306" lon="4.98141">
        <ele>355.83</ele>
        <time>2018-02-12T10:57:10Z</time>
      </trkpt>
      <trkpt lat="44.26307" lon="4.98145">
        <ele>355.83</ele>
        <time>2018-02-12T10:57:16Z</time>
      </trkpt>
      <trkpt lat="44.26307" lon="4.98151">
        <ele>355.83</ele>
        <time>2018-02-12T10:57:20Z</time>
      </trkpt>
      <trkpt lat="44.26307" lon="4.98155">
        <ele>356.79</ele>
        <time>2018-02-12T10:57:22Z</time>
      </trkpt>
      <trkpt lat="44.26307" lon="4.9817">
        <ele>356.31</ele>
        <time>2018-02-12T10:57:32Z</time>
      </trkpt>
      <trkpt lat="44.26307" lon="4.98182">
        <ele>357.75</ele>
        <time>2018-02-12T10:57:39Z</time>
      </trkpt>
      <trkpt lat="44.26307" lon="4.98186">
        <ele>353.9</ele>
        <time>2018-02-12T10:57:42Z</time>
      </trkpt>
      <trkpt lat="44.26307" lon="4.98189">
        <ele>357.75</ele>
        <time>2018-02-12T10:57:44Z</time>
      </trkpt>
      <trkpt lat="44.26307" lon="4.98192">
        <ele>358.23</ele>
        <time>2018-02-12T10:57:46Z</time>
      </trkpt>
      <trkpt lat="44.26307" lon="4.98195">
        <ele>356.31</ele>
        <time>2018-02-12T10:57:49Z</time>
      </trkpt>
      <trkpt lat="44.26308" lon="4.98201">
        <ele>354.86</ele>
        <time>2018-02-12T10:57:53Z</time>
      </trkpt>
      <trkpt lat="44.26308" lon="4.98209">
        <ele>356.31</ele>
        <time>2018-02-12T10:57:58Z</time>
      </trkpt>
      <trkpt lat="44.26309" lon="4.98215">
        <ele>352.94</ele>
        <time>2018-02-12T10:58:02Z</time>
      </trkpt>
      <trkpt lat="44.2631" lon="4.98219">
        <ele>355.34</ele>
        <time>2018-02-12T10:58:05Z</time>
      </trkpt>
      <trkpt lat="44.2631" lon="4.98222">
        <ele>353.9</ele>
        <time>2018-02-12T10:58:07Z</time>
      </trkpt>
      <trkpt lat="44.26313" lon="4.98239">
        <ele>353.9</ele>
        <time>2018-02-12T10:58:19Z</time>
      </trkpt>
      <trkpt lat="44.26319" lon="4.98268">
        <ele>352.46</ele>
        <time>2018-02-12T10:58:39Z</time>
      </trkpt>
      <trkpt lat="44.26322" lon="4.98285">
        <ele>351.98</ele>
        <time>2018-02-12T10:58:51Z</time>
      </trkpt>
      <trkpt lat="44.26324" lon="4.98295">
        <ele>353.42</ele>
        <time>2018-02-12T10:58:58Z</time>
      </trkpt>
      <trkpt lat="44.26325" lon="4.98299">
        <ele>351.98</ele>
        <time>2018-02-12T10:59:01Z</time>
      </trkpt>
      <trkpt lat="44.26324" lon="4.98329">
        <ele>351.5</ele>
        <time>2018-02-12T10:59:21Z</time>
      </trkpt>
      <trkpt lat="44.26321" lon="4.98344">
        <ele>352.46</ele>
        <time>2018-02-12T10:59:31Z</time>
      </trkpt>
      <trkpt lat="44.26319" lon="4.98355">
        <ele>351.02</ele>
        <time>2018-02-12T10:59:39Z</time>
      </trkpt>
      <trkpt lat="44.26318" lon="4.98363">
        <ele>353.42</ele>
        <time>2018-02-12T10:59:44Z</time>
      </trkpt>
      <trkpt lat="44.26314" lon="4.98383">
        <ele>351.5</ele>
        <time>2018-02-12T10:59:57Z</time>
      </trkpt>
      <trkpt lat="44.26313" lon="4.98386">
        <ele>353.42</ele>
        <time>2018-02-12T10:59:59Z</time>
      </trkpt>
      <trkpt lat="44.26312" lon="4.98391">
        <ele>351.98</ele>
        <time>2018-02-12T11:00:02Z</time>
      </trkpt>
      <trkpt lat="44.26307" lon="4.98424">
        <ele>351.5</ele>
        <time>2018-02-12T11:00:23Z</time>
      </trkpt>
      <trkpt lat="44.26304" lon="4.98442">
        <ele>352.94</ele>
        <time>2018-02-12T11:00:35Z</time>
      </trkpt>
      <trkpt lat="44.26298" lon="4.98462">
        <ele>351.98</ele>
        <time>2018-02-12T11:00:50Z</time>
      </trkpt>
      <trkpt lat="44.26294" lon="4.98477">
        <ele>352.94</ele>
        <time>2018-02-12T11:01:00Z</time>
      </trkpt>
      <trkpt lat="44.26291" lon="4.98486">
        <ele>352.46</ele>
        <time>2018-02-12T11:01:06Z</time>
      </trkpt>
      <trkpt lat="44.26287" lon="4.985">
        <ele>352.94</ele>
        <time>2018-02-12T11:01:16Z</time>
      </trkpt>
      <trkpt lat="44.26278" lon="4.98525">
        <ele>352.94</ele>
        <time>2018-02-12T11:01:35Z</time>
      </trkpt>
      <trkpt lat="44.26272" lon="4.9855">
        <ele>351.98</ele>
        <time>2018-02-12T11:01:53Z</time>
      </trkpt>
      <trkpt lat="44.26271" lon="4.98553">
        <ele>352.94</ele>
        <time>2018-02-12T11:01:55Z</time>
      </trkpt>
      <trkpt lat="44.26269" lon="4.98562">
        <ele>351.98</ele>
        <time>2018-02-12T11:02:00Z</time>
      </trkpt>
      <trkpt lat="44.26265" lon="4.98584">
        <ele>351.98</ele>
        <time>2018-02-12T11:02:15Z</time>
      </trkpt>
      <trkpt lat="44.26262" lon="4.98595">
        <ele>352.94</ele>
        <time>2018-02-12T11:02:22Z</time>
      </trkpt>
      <trkpt lat="44.26257" lon="4.98617">
        <ele>353.42</ele>
        <time>2018-02-12T11:02:37Z</time>
      </trkpt>
      <trkpt lat="44.26256" lon="4.98621">
        <ele>352.46</ele>
        <time>2018-02-12T11:02:40Z</time>
      </trkpt>
      <trkpt lat="44.26255" lon="4.98622">
        <ele>353.42</ele>
        <time>2018-02-12T11:02:49Z</time>
      </trkpt>
      <trkpt lat="44.26257" lon="4.98625">
        <ele>357.27</ele>
        <time>2018-02-12T11:03:04Z</time>
      </trkpt>
      <trkpt lat="44.26257" lon="4.98624">
        <ele>357.27</ele>
        <time>2018-02-12T11:03:05Z</time>
      </trkpt>
      <trkpt lat="44.26257" lon="4.98627">
        <ele>353.9</ele>
        <time>2018-02-12T11:03:11Z</time>
      </trkpt>
      <trkpt lat="44.26251" lon="4.98646">
        <ele>352.94</ele>
        <time>2018-02-12T11:03:28Z</time>
      </trkpt>
      <trkpt lat="44.26248" lon="4.98675">
        <ele>354.38</ele>
        <time>2018-02-12T11:03:49Z</time>
      </trkpt>
      <trkpt lat="44.26244" lon="4.98697">
        <ele>353.42</ele>
        <time>2018-02-12T11:04:05Z</time>
      </trkpt>
      <trkpt lat="44.26241" lon="4.98717">
        <ele>355.34</ele>
        <time>2018-02-12T11:04:22Z</time>
      </trkpt>
      <trkpt lat="44.26238" lon="4.98721">
        <ele>352.94</ele>
        <time>2018-02-12T11:04:29Z</time>
      </trkpt>
      <trkpt lat="44.26236" lon="4.98734">
        <ele>353.9</ele>
        <time>2018-02-12T11:04:37Z</time>
      </trkpt>
      <trkpt lat="44.26235" lon="4.98751">
        <ele>355.34</ele>
        <time>2018-02-12T11:04:52Z</time>
      </trkpt>
      <trkpt lat="44.26234" lon="4.98772">
        <ele>355.34</ele>
        <time>2018-02-12T11:05:08Z</time>
      </trkpt>
      <trkpt lat="44.26232" lon="4.98791">
        <ele>355.34</ele>
        <time>2018-02-12T11:05:22Z</time>
      </trkpt>
      <trkpt lat="44.2623" lon="4.9882">
        <ele>354.86</ele>
        <time>2018-02-12T11:05:42Z</time>
      </trkpt>
      <trkpt lat="44.2623" lon="4.98826">
        <ele>356.31</ele>
        <time>2018-02-12T11:05:46Z</time>
      </trkpt>
      <trkpt lat="44.2623" lon="4.98844">
        <ele>355.83</ele>
        <time>2018-02-12T11:06:02Z</time>
      </trkpt>
      <trkpt lat="44.26232" lon="4.98876">
        <ele>354.86</ele>
        <time>2018-02-12T11:06:24Z</time>
      </trkpt>
      <trkpt lat="44.26235" lon="4.98895">
        <ele>356.31</ele>
        <time>2018-02-12T11:06:37Z</time>
      </trkpt>
      <trkpt lat="44.26239" lon="4.98912">
        <ele>358.71</ele>
        <time>2018-02-12T11:06:50Z</time>
      </trkpt>
      <trkpt lat="44.26238" lon="4.98915">
        <ele>355.83</ele>
        <time>2018-02-12T11:06:56Z</time>
      </trkpt>
      <trkpt lat="44.2624" lon="4.98927">
        <ele>356.79</ele>
        <time>2018-02-12T11:07:05Z</time>
      </trkpt>
      <trkpt lat="44.26243" lon="4.98947">
        <ele>357.27</ele>
        <time>2018-02-12T11:07:22Z</time>
      </trkpt>
      <trkpt lat="44.26243" lon="4.98949">
        <ele>355.83</ele>
        <time>2018-02-12T11:07:24Z</time>
      </trkpt>
      <trkpt lat="44.26247" lon="4.98967">
        <ele>358.23</ele>
        <time>2018-02-12T11:07:42Z</time>
      </trkpt>
      <trkpt lat="44.26248" lon="4.9897">
        <ele>356.79</ele>
        <time>2018-02-12T11:07:44Z</time>
      </trkpt>
      <trkpt lat="44.26249" lon="4.98975">
        <ele>360.15</ele>
        <time>2018-02-12T11:07:48Z</time>
      </trkpt>
      <trkpt lat="44.26249" lon="4.98975">
        <ele>360.15</ele>
        <time>2018-02-12T11:07:49Z</time>
      </trkpt>
      <trkpt lat="44.26251" lon="4.9898">
        <ele>358.71</ele>
        <time>2018-02-12T11:07:53Z</time>
      </trkpt>
      <trkpt lat="44.26256" lon="4.98988">
        <ele>359.67</ele>
        <time>2018-02-12T11:08:07Z</time>
      </trkpt>
      <trkpt lat="44.26256" lon="4.98989">
        <ele>358.23</ele>
        <time>2018-02-12T11:08:11Z</time>
      </trkpt>
      <trkpt lat="44.26256" lon="4.98989">
        <ele>359.67</ele>
        <time>2018-02-12T11:08:15Z</time>
      </trkpt>
      <trkpt lat="44.26257" lon="4.98993">
        <ele>360.63</ele>
        <time>2018-02-12T11:08:30Z</time>
      </trkpt>
      <trkpt lat="44.26258" lon="4.98994">
        <ele>358.71</ele>
        <time>2018-02-12T11:08:40Z</time>
      </trkpt>
      <trkpt lat="44.26256" lon="4.98992">
        <ele>359.19</ele>
        <time>2018-02-12T11:09:03Z</time>
      </trkpt>
      <trkpt lat="44.26254" lon="4.98991">
        <ele>359.67</ele>
        <time>2018-02-12T11:09:24Z</time>
      </trkpt>
      <trkpt lat="44.26254" lon="4.98989">
        <ele>359.67</ele>
        <time>2018-02-12T11:09:45Z</time>
      </trkpt>
      <trkpt lat="44.26256" lon="4.98988">
        <ele>357.75</ele>
        <time>2018-02-12T11:10:10Z</time>
      </trkpt>
      <trkpt lat="44.26253" lon="4.98983">
        <ele>357.27</ele>
        <time>2018-02-12T11:10:45Z</time>
      </trkpt>
      <trkpt lat="44.26251" lon="4.98984">
        <ele>357.27</ele>
        <time>2018-02-12T11:11:18Z</time>
      </trkpt>
      <trkpt lat="44.26244" lon="4.98985">
        <ele>357.27</ele>
        <time>2018-02-12T11:11:55Z</time>
      </trkpt>
      <trkpt lat="44.26247" lon="4.98986">
        <ele>357.75</ele>
        <time>2018-02-12T11:12:35Z</time>
      </trkpt>
      <trkpt lat="44.26247" lon="4.98987">
        <ele>356.79</ele>
        <time>2018-02-12T11:12:45Z</time>
      </trkpt>
      <trkpt lat="44.26247" lon="4.98987">
        <ele>358.23</ele>
        <time>2018-02-12T11:12:47Z</time>
      </trkpt>
      <trkpt lat="44.26249" lon="4.98989">
        <ele>356.79</ele>
        <time>2018-02-12T11:13:13Z</time>
      </trkpt>
      <trkpt lat="44.2625" lon="4.98989">
        <ele>358.71</ele>
        <time>2018-02-12T11:13:17Z</time>
      </trkpt>
      <trkpt lat="44.26254" lon="4.98985">
        <ele>358.71</ele>
        <time>2018-02-12T11:13:50Z</time>
      </trkpt>
      <trkpt lat="44.26254" lon="4.98985">
        <ele>356.79</ele>
        <time>2018-02-12T11:13:52Z</time>
      </trkpt>
      <trkpt lat="44.26254" lon="4.98984">
        <ele>358.23</ele>
        <time>2018-02-12T11:14:00Z</time>
      </trkpt>
      <trkpt lat="44.26252" lon="4.9898">
        <ele>357.27</ele>
        <time>2018-02-12T11:14:35Z</time>
      </trkpt>
      <trkpt lat="44.26252" lon="4.98979">
        <ele>358.23</ele>
        <time>2018-02-12T11:14:40Z</time>
      </trkpt>
      <trkpt lat="44.26255" lon="4.98981">
        <ele>358.71</ele>
        <time>2018-02-12T11:15:08Z</time>
      </trkpt>
      <trkpt lat="44.26252" lon="4.98984">
        <ele>357.75</ele>
        <time>2018-02-12T11:15:59Z</time>
      </trkpt>
      <trkpt lat="44.26251" lon="4.98985">
        <ele>359.67</ele>
        <time>2018-02-12T11:16:10Z</time>
      </trkpt>
      <trkpt lat="44.26251" lon="4.98986">
        <ele>358.23</ele>
        <time>2018-02-12T11:16:16Z</time>
      </trkpt>
      <trkpt lat="44.26248" lon="4.98986">
        <ele>357.75</ele>
        <time>2018-02-12T11:16:50Z</time>
      </trkpt>
      <trkpt lat="44.26248" lon="4.98987">
        <ele>359.19</ele>
        <time>2018-02-12T11:17:18Z</time>
      </trkpt>
      <trkpt lat="44.26248" lon="4.98987">
        <ele>357.75</ele>
        <time>2018-02-12T11:17:21Z</time>
      </trkpt>
      <trkpt lat="44.26249" lon="4.98986">
        <ele>359.19</ele>
        <time>2018-02-12T11:17:28Z</time>
      </trkpt>
      <trkpt lat="44.26249" lon="4.98986">
        <ele>358.71</ele>
        <time>2018-02-12T11:18:08Z</time>
      </trkpt>
      <trkpt lat="44.2625" lon="4.98985">
        <ele>357.75</ele>
        <time>2018-02-12T11:18:14Z</time>
      </trkpt>
      <trkpt lat="44.26249" lon="4.98985">
        <ele>358.23</ele>
        <time>2018-02-12T11:18:47Z</time>
      </trkpt>
      <trkpt lat="44.26252" lon="4.98981">
        <ele>357.75</ele>
        <time>2018-02-12T11:19:22Z</time>
      </trkpt>
      <trkpt lat="44.26245" lon="4.98985">
        <ele>357.27</ele>
        <time>2018-02-12T11:20:02Z</time>
      </trkpt>
      <trkpt lat="44.26249" lon="4.98983">
        <ele>357.27</ele>
        <time>2018-02-12T11:20:38Z</time>
      </trkpt>
      <trkpt lat="44.26245" lon="4.98987">
        <ele>357.27</ele>
        <time>2018-02-12T11:21:16Z</time>
      </trkpt>
      <trkpt lat="44.26243" lon="4.98983">
        <ele>358.23</ele>
        <time>2018-02-12T11:21:49Z</time>
      </trkpt>
      <trkpt lat="44.26241" lon="4.98983">
        <ele>359.19</ele>
        <time>2018-02-12T11:22:23Z</time>
      </trkpt>
      <trkpt lat="44.26241" lon="4.98982">
        <ele>357.27</ele>
        <time>2018-02-12T11:22:26Z</time>
      </trkpt>
      <trkpt lat="44.26242" lon="4.98975">
        <ele>357.75</ele>
        <time>2018-02-12T11:23:01Z</time>
      </trkpt>
      <trkpt lat="44.26242" lon="4.98975">
        <ele>357.75</ele>
        <time>2018-02-12T11:23:31Z</time>
      </trkpt>
      <trkpt lat="44.2624" lon="4.98983">
        <ele>357.75</ele>
        <time>2018-02-12T11:23:57Z</time>
      </trkpt>
      <trkpt lat="44.26238" lon="4.9899">
        <ele>359.19</ele>
        <time>2018-02-12T11:24:25Z</time>
      </trkpt>
      <trkpt lat="44.26244" lon="4.98993">
        <ele>358.23</ele>
        <time>2018-02-12T11:24:49Z</time>
      </trkpt>
      <trkpt lat="44.26244" lon="4.98992">
        <ele>357.27</ele>
        <time>2018-02-12T11:25:01Z</time>
      </trkpt>
      <trkpt lat="44.26243" lon="4.98985">
        <ele>357.75</ele>
        <time>2018-02-12T11:25:32Z</time>
      </trkpt>
      <trkpt lat="44.26244" lon="4.98983">
        <ele>359.19</ele>
        <time>2018-02-12T11:25:37Z</time>
      </trkpt>
      <trkpt lat="44.26243" lon="4.98983">
        <ele>358.23</ele>
        <time>2018-02-12T11:25:40Z</time>
      </trkpt>
      <trkpt lat="44.26241" lon="4.98983">
        <ele>360.15</ele>
        <time>2018-02-12T11:25:45Z</time>
      </trkpt>
      <trkpt lat="44.26236" lon="4.98983">
        <ele>359.19</ele>
        <time>2018-02-12T11:26:02Z</time>
      </trkpt>
      <trkpt lat="44.26246" lon="4.98989">
        <ele>358.23</ele>
        <time>2018-02-12T11:26:29Z</time>
      </trkpt>
      <trkpt lat="44.26248" lon="4.98992">
        <ele>358.23</ele>
        <time>2018-02-12T11:26:52Z</time>
      </trkpt>
      <trkpt lat="44.26254" lon="4.98997">
        <ele>358.23</ele>
        <time>2018-02-12T11:27:24Z</time>
      </trkpt>
      <trkpt lat="44.26254" lon="4.98997">
        <ele>358.71</ele>
        <time>2018-02-12T11:27:32Z</time>
      </trkpt>
      <trkpt lat="44.26253" lon="4.98995">
        <ele>360.63</ele>
        <time>2018-02-12T11:27:40Z</time>
      </trkpt>
      <trkpt lat="44.26252" lon="4.98993">
        <ele>358.71</ele>
        <time>2018-02-12T11:27:45Z</time>
      </trkpt>
      <trkpt lat="44.26251" lon="4.98995">
        <ele>358.23</ele>
        <time>2018-02-12T11:28:13Z</time>
      </trkpt>
      <trkpt lat="44.26249" lon="4.98993">
        <ele>359.19</ele>
        <time>2018-02-12T11:28:19Z</time>
      </trkpt>
      <trkpt lat="44.26249" lon="4.98992">
        <ele>358.23</ele>
        <time>2018-02-12T11:28:22Z</time>
      </trkpt>
      <trkpt lat="44.26247" lon="4.98985">
        <ele>359.19</ele>
        <time>2018-02-12T11:28:35Z</time>
      </trkpt>
      <trkpt lat="44.26247" lon="4.98981">
        <ele>358.23</ele>
        <time>2018-02-12T11:28:56Z</time>
      </trkpt>
      <trkpt lat="44.26251" lon="4.98983">
        <ele>357.75</ele>
        <time>2018-02-12T11:29:09Z</time>
      </trkpt>
      <trkpt lat="44.26251" lon="4.98983">
        <ele>359.67</ele>
        <time>2018-02-12T11:29:11Z</time>
      </trkpt>
      <trkpt lat="44.26251" lon="4.9898">
        <ele>359.19</ele>
        <time>2018-02-12T11:29:26Z</time>
      </trkpt>
      <trkpt lat="44.26252" lon="4.98987">
        <ele>360.15</ele>
        <time>2018-02-12T11:29:54Z</time>
      </trkpt>
      <trkpt lat="44.26256" lon="4.98996">
        <ele>358.71</ele>
        <time>2018-02-12T11:30:20Z</time>
      </trkpt>
      <trkpt lat="44.26251" lon="4.98984">
        <ele>358.71</ele>
        <time>2018-02-12T11:30:51Z</time>
      </trkpt>
      <trkpt lat="44.26252" lon="4.98983">
        <ele>357.75</ele>
        <time>2018-02-12T11:30:53Z</time>
      </trkpt>
      <trkpt lat="44.26247" lon="4.98977">
        <ele>357.75</ele>
        <time>2018-02-12T11:31:17Z</time>
      </trkpt>
      <trkpt lat="44.26255" lon="4.98981">
        <ele>357.75</ele>
        <time>2018-02-12T11:31:47Z</time>
      </trkpt>
      <trkpt lat="44.26256" lon="4.98985">
        <ele>357.27</ele>
        <time>2018-02-12T11:31:56Z</time>
      </trkpt>
      <trkpt lat="44.26259" lon="4.98987">
        <ele>357.75</ele>
        <time>2018-02-12T11:32:11Z</time>
      </trkpt>
      <trkpt lat="44.26249" lon="4.98984">
        <ele>357.75</ele>
        <time>2018-02-12T11:32:42Z</time>
      </trkpt>
      <trkpt lat="44.26248" lon="4.98983">
        <ele>357.75</ele>
        <time>2018-02-12T11:33:09Z</time>
      </trkpt>
      <trkpt lat="44.26244" lon="4.98983">
        <ele>358.71</ele>
        <time>2018-02-12T11:33:40Z</time>
      </trkpt>
      <trkpt lat="44.26248" lon="4.98983">
        <ele>359.67</ele>
        <time>2018-02-12T11:33:59Z</time>
      </trkpt>
      <trkpt lat="44.2625" lon="4.98984">
        <ele>358.23</ele>
        <time>2018-02-12T11:34:08Z</time>
      </trkpt>
      <trkpt lat="44.26254" lon="4.98992">
        <ele>357.75</ele>
        <time>2018-02-12T11:34:40Z</time>
      </trkpt>
      <trkpt lat="44.2625" lon="4.98996">
        <ele>358.71</ele>
        <time>2018-02-12T11:34:56Z</time>
      </trkpt>
      <trkpt lat="44.26243" lon="4.98996">
        <ele>358.23</ele>
        <time>2018-02-12T11:35:28Z</time>
      </trkpt>
      <trkpt lat="44.26248" lon="4.98995">
        <ele>358.23</ele>
        <time>2018-02-12T11:35:56Z</time>
      </trkpt>
      <trkpt lat="44.26251" lon="4.98993">
        <ele>357.27</ele>
        <time>2018-02-12T11:36:07Z</time>
      </trkpt>
      <trkpt lat="44.2625" lon="4.98994">
        <ele>358.71</ele>
        <time>2018-02-12T11:36:13Z</time>
      </trkpt>
      <trkpt lat="44.26254" lon="4.98992">
        <ele>357.27</ele>
        <time>2018-02-12T11:36:49Z</time>
      </trkpt>
      <trkpt lat="44.26257" lon="4.98991">
        <ele>357.27</ele>
        <time>2018-02-12T11:37:18Z</time>
      </trkpt>
      <trkpt lat="44.26258" lon="4.98992">
        <ele>359.19</ele>
        <time>2018-02-12T11:37:47Z</time>
      </trkpt>
      <trkpt lat="44.26258" lon="4.98993">
        <ele>357.27</ele>
        <time>2018-02-12T11:37:50Z</time>
      </trkpt>
      <trkpt lat="44.26258" lon="4.98994">
        <ele>357.27</ele>
        <time>2018-02-12T11:38:17Z</time>
      </trkpt>
      <trkpt lat="44.26249" lon="4.98996">
        <ele>358.71</ele>
        <time>2018-02-12T11:38:29Z</time>
      </trkpt>
      <trkpt lat="44.26247" lon="4.98994">
        <ele>358.71</ele>
        <time>2018-02-12T11:38:55Z</time>
      </trkpt>
      <trkpt lat="44.26249" lon="4.98997">
        <ele>358.71</ele>
        <time>2018-02-12T11:39:19Z</time>
      </trkpt>
      <trkpt lat="44.26253" lon="4.99009">
        <ele>358.71</ele>
        <time>2018-02-12T11:39:48Z</time>
      </trkpt>
      <trkpt lat="44.26252" lon="4.99011">
        <ele>358.71</ele>
        <time>2018-02-12T11:40:16Z</time>
      </trkpt>
      <trkpt lat="44.26255" lon="4.99">
        <ele>359.19</ele>
        <time>2018-02-12T11:40:47Z</time>
      </trkpt>
      <trkpt lat="44.26261" lon="4.98999">
        <ele>358.23</ele>
        <time>2018-02-12T11:41:00Z</time>
      </trkpt>
      <trkpt lat="44.26257" lon="4.99">
        <ele>359.19</ele>
        <time>2018-02-12T11:41:19Z</time>
      </trkpt>
      <trkpt lat="44.26257" lon="4.99">
        <ele>358.23</ele>
        <time>2018-02-12T11:41:35Z</time>
      </trkpt>
      <trkpt lat="44.26257" lon="4.99">
        <ele>359.67</ele>
        <time>2018-02-12T11:41:40Z</time>
      </trkpt>
      <trkpt lat="44.26255" lon="4.98996">
        <ele>359.19</ele>
        <time>2018-02-12T11:42:10Z</time>
      </trkpt>
      <trkpt lat="44.26256" lon="4.98997">
        <ele>359.67</ele>
        <time>2018-02-12T11:42:38Z</time>
      </trkpt>
      <trkpt lat="44.26255" lon="4.98995">
        <ele>359.67</ele>
        <time>2018-02-12T11:42:53Z</time>
      </trkpt>
      <trkpt lat="44.26254" lon="4.98988">
        <ele>358.23</ele>
        <time>2018-02-12T11:43:21Z</time>
      </trkpt>
      <trkpt lat="44.26254" lon="4.98987">
        <ele>359.67</ele>
        <time>2018-02-12T11:43:24Z</time>
      </trkpt>
      <trkpt lat="44.26255" lon="4.98985">
        <ele>358.23</ele>
        <time>2018-02-12T11:43:38Z</time>
      </trkpt>
      <trkpt lat="44.2626" lon="4.98988">
        <ele>357.75</ele>
        <time>2018-02-12T11:44:10Z</time>
      </trkpt>
      <trkpt lat="44.26255" lon="4.98993">
        <ele>357.75</ele>
        <time>2018-02-12T11:44:40Z</time>
      </trkpt>
      <trkpt lat="44.26245" lon="4.98987">
        <ele>357.75</ele>
        <time>2018-02-12T11:45:08Z</time>
      </trkpt>
      <trkpt lat="44.26243" lon="4.98989">
        <ele>358.23</ele>
        <time>2018-02-12T11:45:29Z</time>
      </trkpt>
      <trkpt lat="44.26246" lon="4.99003">
        <ele>359.19</ele>
        <time>2018-02-12T11:45:43Z</time>
      </trkpt>
      <trkpt lat="44.26248" lon="4.99002">
        <ele>357.75</ele>
        <time>2018-02-12T11:45:50Z</time>
      </trkpt>
      <trkpt lat="44.26249" lon="4.99">
        <ele>360.15</ele>
        <time>2018-02-12T11:46:01Z</time>
      </trkpt>
      <trkpt lat="44.26249" lon="4.98999">
        <ele>358.23</ele>
        <time>2018-02-12T11:46:03Z</time>
      </trkpt>
      <trkpt lat="44.26249" lon="4.98999">
        <ele>360.15</ele>
        <time>2018-02-12T11:46:07Z</time>
      </trkpt>
      <trkpt lat="44.26249" lon="4.99">
        <ele>358.71</ele>
        <time>2018-02-12T11:46:11Z</time>
      </trkpt>
      <trkpt lat="44.26252" lon="4.98999">
        <ele>359.67</ele>
        <time>2018-02-12T11:46:30Z</time>
      </trkpt>
      <trkpt lat="44.26251" lon="4.99">
        <ele>358.71</ele>
        <time>2018-02-12T11:46:36Z</time>
      </trkpt>
      <trkpt lat="44.26245" lon="4.98999">
        <ele>359.67</ele>
        <time>2018-02-12T11:46:44Z</time>
      </trkpt>
      <trkpt lat="44.26243" lon="4.98994">
        <ele>359.67</ele>
        <time>2018-02-12T11:47:01Z</time>
      </trkpt>
      <trkpt lat="44.26249" lon="4.98988">
        <ele>358.71</ele>
        <time>2018-02-12T11:47:29Z</time>
      </trkpt>
      <trkpt lat="44.26252" lon="4.98987">
        <ele>360.15</ele>
        <time>2018-02-12T11:47:53Z</time>
      </trkpt>
      <trkpt lat="44.26254" lon="4.98991">
        <ele>360.63</ele>
        <time>2018-02-12T11:48:10Z</time>
      </trkpt>
      <trkpt lat="44.26254" lon="4.98993">
        <ele>358.71</ele>
        <time>2018-02-12T11:48:13Z</time>
      </trkpt>
      <trkpt lat="44.26258" lon="4.98998">
        <ele>357.75</ele>
        <time>2018-02-12T11:48:20Z</time>
      </trkpt>
      <trkpt lat="44.26261" lon="4.98997">
        <ele>359.19</ele>
        <time>2018-02-12T11:48:22Z</time>
      </trkpt>
      <trkpt lat="44.2626" lon="4.98998">
        <ele>363.52</ele>
        <time>2018-02-12T11:48:23Z</time>
      </trkpt>
      <trkpt lat="44.26261" lon="4.98997">
        <ele>360.63</ele>
        <time>2018-02-12T11:48:24Z</time>
      </trkpt>
      <trkpt lat="44.26262" lon="4.98998">
        <ele>357.27</ele>
        <time>2018-02-12T11:48:26Z</time>
      </trkpt>
      <trkpt lat="44.26265" lon="4.99">
        <ele>360.15</ele>
        <time>2018-02-12T11:48:30Z</time>
      </trkpt>
      <trkpt lat="44.2627" lon="4.98998">
        <ele>360.15</ele>
        <time>2018-02-12T11:48:43Z</time>
      </trkpt>
      <trkpt lat="44.26282" lon="4.98998">
        <ele>358.23</ele>
        <time>2018-02-12T11:48:59Z</time>
      </trkpt>
      <trkpt lat="44.26283" lon="4.98998">
        <ele>358.23</ele>
        <time>2018-02-12T11:49:00Z</time>
      </trkpt>
      <trkpt lat="44.26286" lon="4.98999">
        <ele>360.15</ele>
        <time>2018-02-12T11:49:03Z</time>
      </trkpt>
      <trkpt lat="44.2629" lon="4.99001">
        <ele>359.19</ele>
        <time>2018-02-12T11:49:08Z</time>
      </trkpt>
      <trkpt lat="44.26296" lon="4.99002">
        <ele>360.63</ele>
        <time>2018-02-12T11:49:14Z</time>
      </trkpt>
      <trkpt lat="44.26301" lon="4.99004">
        <ele>359.19</ele>
        <time>2018-02-12T11:49:20Z</time>
      </trkpt>
      <trkpt lat="44.2631" lon="4.99004">
        <ele>361.11</ele>
        <time>2018-02-12T11:49:29Z</time>
      </trkpt>
      <trkpt lat="44.26312" lon="4.99004">
        <ele>359.67</ele>
        <time>2018-02-12T11:49:31Z</time>
      </trkpt>
      <trkpt lat="44.26317" lon="4.99004">
        <ele>360.63</ele>
        <time>2018-02-12T11:49:36Z</time>
      </trkpt>
      <trkpt lat="44.26319" lon="4.99005">
        <ele>357.75</ele>
        <time>2018-02-12T11:49:38Z</time>
      </trkpt>
      <trkpt lat="44.26328" lon="4.99007">
        <ele>360.63</ele>
        <time>2018-02-12T11:49:48Z</time>
      </trkpt>
      <trkpt lat="44.26342" lon="4.9901">
        <ele>359.19</ele>
        <time>2018-02-12T11:50:02Z</time>
      </trkpt>
      <trkpt lat="44.26353" lon="4.99006">
        <ele>360.15</ele>
        <time>2018-02-12T11:50:13Z</time>
      </trkpt>
      <trkpt lat="44.26369" lon="4.99007">
        <ele>358.71</ele>
        <time>2018-02-12T11:50:29Z</time>
      </trkpt>
      <trkpt lat="44.26372" lon="4.9901">
        <ele>360.15</ele>
        <time>2018-02-12T11:50:34Z</time>
      </trkpt>
      <trkpt lat="44.26378" lon="4.99017">
        <ele>360.63</ele>
        <time>2018-02-12T11:50:42Z</time>
      </trkpt>
      <trkpt lat="44.26384" lon="4.99031">
        <ele>358.23</ele>
        <time>2018-02-12T11:50:57Z</time>
      </trkpt>
      <trkpt lat="44.2639" lon="4.99043">
        <ele>356.79</ele>
        <time>2018-02-12T11:51:11Z</time>
      </trkpt>
      <trkpt lat="44.26392" lon="4.99046">
        <ele>353.9</ele>
        <time>2018-02-12T11:51:15Z</time>
      </trkpt>
      <trkpt lat="44.26392" lon="4.99047">
        <ele>353.9</ele>
        <time>2018-02-12T11:51:16Z</time>
      </trkpt>
      <trkpt lat="44.26393" lon="4.99049">
        <ele>355.34</ele>
        <time>2018-02-12T11:51:18Z</time>
      </trkpt>
      <trkpt lat="44.264" lon="4.99059">
        <ele>351.98</ele>
        <time>2018-02-12T11:51:34Z</time>
      </trkpt>
      <trkpt lat="44.26406" lon="4.99069">
        <ele>351.02</ele>
        <time>2018-02-12T11:51:48Z</time>
      </trkpt>
      <trkpt lat="44.26409" lon="4.99078">
        <ele>348.13</ele>
        <time>2018-02-12T11:52:00Z</time>
      </trkpt>
      <trkpt lat="44.26412" lon="4.99088">
        <ele>346.69</ele>
        <time>2018-02-12T11:52:15Z</time>
      </trkpt>
      <trkpt lat="44.26415" lon="4.99093">
        <ele>343.81</ele>
        <time>2018-02-12T11:52:23Z</time>
      </trkpt>
      <trkpt lat="44.26415" lon="4.99094">
        <ele>343.33</ele>
        <time>2018-02-12T11:52:24Z</time>
      </trkpt>
      <trkpt lat="44.26418" lon="4.99101">
        <ele>341.41</ele>
        <time>2018-02-12T11:52:36Z</time>
      </trkpt>
      <trkpt lat="44.2642" lon="4.99102">
        <ele>341.41</ele>
        <time>2018-02-12T11:52:38Z</time>
      </trkpt>
      <trkpt lat="44.26425" lon="4.99112">
        <ele>340.44</ele>
        <time>2018-02-12T11:52:50Z</time>
      </trkpt>
      <trkpt lat="44.26427" lon="4.99114">
        <ele>338.52</ele>
        <time>2018-02-12T11:52:55Z</time>
      </trkpt>
      <trkpt lat="44.26436" lon="4.99121">
        <ele>336.6</ele>
        <time>2018-02-12T11:53:12Z</time>
      </trkpt>
      <trkpt lat="44.26437" lon="4.99122">
        <ele>335.64</ele>
        <time>2018-02-12T11:53:14Z</time>
      </trkpt>
      <trkpt lat="44.26446" lon="4.99125">
        <ele>332.27</ele>
        <time>2018-02-12T11:53:30Z</time>
      </trkpt>
      <trkpt lat="44.26455" lon="4.99128">
        <ele>331.79</ele>
        <time>2018-02-12T11:53:45Z</time>
      </trkpt>
      <trkpt lat="44.26466" lon="4.99131">
        <ele>328.43</ele>
        <time>2018-02-12T11:54:02Z</time>
      </trkpt>
      <trkpt lat="44.26477" lon="4.99131">
        <ele>326.5</ele>
        <time>2018-02-12T11:54:17Z</time>
      </trkpt>
      <trkpt lat="44.2648" lon="4.99131">
        <ele>323.14</ele>
        <time>2018-02-12T11:54:23Z</time>
      </trkpt>
      <trkpt lat="44.26481" lon="4.99131">
        <ele>323.14</ele>
        <time>2018-02-12T11:54:24Z</time>
      </trkpt>
      <trkpt lat="44.26483" lon="4.99131">
        <ele>324.58</ele>
        <time>2018-02-12T11:54:27Z</time>
      </trkpt>
      <trkpt lat="44.2649" lon="4.9913">
        <ele>324.1</ele>
        <time>2018-02-12T11:54:38Z</time>
      </trkpt>
      <trkpt lat="44.26493" lon="4.99129">
        <ele>320.74</ele>
        <time>2018-02-12T11:54:42Z</time>
      </trkpt>
      <trkpt lat="44.26494" lon="4.99129">
        <ele>320.74</ele>
        <time>2018-02-12T11:54:43Z</time>
      </trkpt>
      <trkpt lat="44.26499" lon="4.99128">
        <ele>322.18</ele>
        <time>2018-02-12T11:54:49Z</time>
      </trkpt>
      <trkpt lat="44.26502" lon="4.99128">
        <ele>320.74</ele>
        <time>2018-02-12T11:54:53Z</time>
      </trkpt>
      <trkpt lat="44.26507" lon="4.99129">
        <ele>319.78</ele>
        <time>2018-02-12T11:55:00Z</time>
      </trkpt>
      <trkpt lat="44.26509" lon="4.99129">
        <ele>321.7</ele>
        <time>2018-02-12T11:55:02Z</time>
      </trkpt>
      <trkpt lat="44.26518" lon="4.99132">
        <ele>320.74</ele>
        <time>2018-02-12T11:55:16Z</time>
      </trkpt>
      <trkpt lat="44.26525" lon="4.99136">
        <ele>317.85</ele>
        <time>2018-02-12T11:55:26Z</time>
      </trkpt>
      <trkpt lat="44.26531" lon="4.99139">
        <ele>314.49</ele>
        <time>2018-02-12T11:55:40Z</time>
      </trkpt>
      <trkpt lat="44.26533" lon="4.9914">
        <ele>311.12</ele>
        <time>2018-02-12T11:55:43Z</time>
      </trkpt>
      <trkpt lat="44.26534" lon="4.9914">
        <ele>311.12</ele>
        <time>2018-02-12T11:55:44Z</time>
      </trkpt>
      <trkpt lat="44.26535" lon="4.9914">
        <ele>315.45</ele>
        <time>2018-02-12T11:55:46Z</time>
      </trkpt>
      <trkpt lat="44.26535" lon="4.9914">
        <ele>315.45</ele>
        <time>2018-02-12T11:55:47Z</time>
      </trkpt>
      <trkpt lat="44.26538" lon="4.99141">
        <ele>314.01</ele>
        <time>2018-02-12T11:55:52Z</time>
      </trkpt>
      <trkpt lat="44.2654" lon="4.99142">
        <ele>312.57</ele>
        <time>2018-02-12T11:55:55Z</time>
      </trkpt>
      <trkpt lat="44.26542" lon="4.99143">
        <ele>313.05</ele>
        <time>2018-02-12T11:56:03Z</time>
      </trkpt>
      <trkpt lat="44.26544" lon="4.99143">
        <ele>314.49</ele>
        <time>2018-02-12T11:56:06Z</time>
      </trkpt>
      <trkpt lat="44.26545" lon="4.99142">
        <ele>314.49</ele>
        <time>2018-02-12T11:56:23Z</time>
      </trkpt>
      <trkpt lat="44.26545" lon="4.99142">
        <ele>314.49</ele>
        <time>2018-02-12T11:56:24Z</time>
      </trkpt>
      <trkpt lat="44.26545" lon="4.99143">
        <ele>313.53</ele>
        <time>2018-02-12T11:56:31Z</time>
      </trkpt>
      <trkpt lat="44.26553" lon="4.99147">
        <ele>314.01</ele>
        <time>2018-02-12T11:56:43Z</time>
      </trkpt>
      <trkpt lat="44.26557" lon="4.99148">
        <ele>310.16</ele>
        <time>2018-02-12T11:56:48Z</time>
      </trkpt>
      <trkpt lat="44.26572" lon="4.9915">
        <ele>310.16</ele>
        <time>2018-02-12T11:57:03Z</time>
      </trkpt>
      <trkpt lat="44.26582" lon="4.99153">
        <ele>307.28</ele>
        <time>2018-02-12T11:57:14Z</time>
      </trkpt>
      <trkpt lat="44.26582" lon="4.99153">
        <ele>307.28</ele>
        <time>2018-02-12T11:57:15Z</time>
      </trkpt>
      <trkpt lat="44.26592" lon="4.99159">
        <ele>306.32</ele>
        <time>2018-02-12T11:57:31Z</time>
      </trkpt>
      <trkpt lat="44.26604" lon="4.99166">
        <ele>308.72</ele>
        <time>2018-02-12T11:57:49Z</time>
      </trkpt>
      <trkpt lat="44.26607" lon="4.99167">
        <ele>306.8</ele>
        <time>2018-02-12T11:57:52Z</time>
      </trkpt>
      <trkpt lat="44.26609" lon="4.99167">
        <ele>304.88</ele>
        <time>2018-02-12T11:57:55Z</time>
      </trkpt>
      <trkpt lat="44.26621" lon="4.99165">
        <ele>305.36</ele>
        <time>2018-02-12T11:58:10Z</time>
      </trkpt>
      <trkpt lat="44.2663" lon="4.99165">
        <ele>301.51</ele>
        <time>2018-02-12T11:58:25Z</time>
      </trkpt>
      <trkpt lat="44.26633" lon="4.99165">
        <ele>302.95</ele>
        <time>2018-02-12T11:58:31Z</time>
      </trkpt>
      <trkpt lat="44.26641" lon="4.9917">
        <ele>300.07</ele>
        <time>2018-02-12T11:58:41Z</time>
      </trkpt>
      <trkpt lat="44.26641" lon="4.9917">
        <ele>300.07</ele>
        <time>2018-02-12T11:58:42Z</time>
      </trkpt>
      <trkpt lat="44.26646" lon="4.99175">
        <ele>301.99</ele>
        <time>2018-02-12T11:58:50Z</time>
      </trkpt>
      <trkpt lat="44.26648" lon="4.99177">
        <ele>300.55</ele>
        <time>2018-02-12T11:58:53Z</time>
      </trkpt>
      <trkpt lat="44.26652" lon="4.99179">
        <ele>298.15</ele>
        <time>2018-02-12T11:58:57Z</time>
      </trkpt>
      <trkpt lat="44.26655" lon="4.99179">
        <ele>296.7</ele>
        <time>2018-02-12T11:59:03Z</time>
      </trkpt>
      <trkpt lat="44.26658" lon="4.99179">
        <ele>297.67</ele>
        <time>2018-02-12T11:59:07Z</time>
      </trkpt>
      <trkpt lat="44.26666" lon="4.99177">
        <ele>295.26</ele>
        <time>2018-02-12T11:59:17Z</time>
      </trkpt>
      <trkpt lat="44.2667" lon="4.99175">
        <ele>297.67</ele>
        <time>2018-02-12T11:59:22Z</time>
      </trkpt>
      <trkpt lat="44.26671" lon="4.99173">
        <ele>296.22</ele>
        <time>2018-02-12T11:59:25Z</time>
      </trkpt>
      <trkpt lat="44.26689" lon="4.99163">
        <ele>294.78</ele>
        <time>2018-02-12T11:59:42Z</time>
      </trkpt>
      <trkpt lat="44.26702" lon="4.99157">
        <ele>292.38</ele>
        <time>2018-02-12T11:59:57Z</time>
      </trkpt>
      <trkpt lat="44.26712" lon="4.99152">
        <ele>290.94</ele>
        <time>2018-02-12T12:00:13Z</time>
      </trkpt>
      <trkpt lat="44.26727" lon="4.99147">
        <ele>289.01</ele>
        <time>2018-02-12T12:00:29Z</time>
      </trkpt>
      <trkpt lat="44.26731" lon="4.99144">
        <ele>286.61</ele>
        <time>2018-02-12T12:00:36Z</time>
      </trkpt>
      <trkpt lat="44.26736" lon="4.99132">
        <ele>285.17</ele>
        <time>2018-02-12T12:00:51Z</time>
      </trkpt>
      <trkpt lat="44.26737" lon="4.99131">
        <ele>285.17</ele>
        <time>2018-02-12T12:00:53Z</time>
      </trkpt>
      <trkpt lat="44.26738" lon="4.9913">
        <ele>286.61</ele>
        <time>2018-02-12T12:00:59Z</time>
      </trkpt>
      <trkpt lat="44.26738" lon="4.99128">
        <ele>285.17</ele>
        <time>2018-02-12T12:01:03Z</time>
      </trkpt>
      <trkpt lat="44.26738" lon="4.99126">
        <ele>286.61</ele>
        <time>2018-02-12T12:01:19Z</time>
      </trkpt>
      <trkpt lat="44.26737" lon="4.99126">
        <ele>284.21</ele>
        <time>2018-02-12T12:01:22Z</time>
      </trkpt>
      <trkpt lat="44.26737" lon="4.99126">
        <ele>285.65</ele>
        <time>2018-02-12T12:01:28Z</time>
      </trkpt>
      <trkpt lat="44.26736" lon="4.99126">
        <ele>286.13</ele>
        <time>2018-02-12T12:01:44Z</time>
      </trkpt>
      <trkpt lat="44.26748" lon="4.99117">
        <ele>288.53</ele>
        <time>2018-02-12T12:02:41Z</time>
      </trkpt>
      <trkpt lat="44.2674" lon="4.99126">
        <ele>288.05</ele>
        <time>2018-02-12T12:03:13Z</time>
      </trkpt>
      <trkpt lat="44.2674" lon="4.99125">
        <ele>286.61</ele>
        <time>2018-02-12T12:03:32Z</time>
      </trkpt>
      <trkpt lat="44.26741" lon="4.99126">
        <ele>286.13</ele>
        <time>2018-02-12T12:03:41Z</time>
      </trkpt>
      <trkpt lat="44.26743" lon="4.99117">
        <ele>286.13</ele>
        <time>2018-02-12T12:03:51Z</time>
      </trkpt>
      <trkpt lat="44.26746" lon="4.99101">
        <ele>287.09</ele>
        <time>2018-02-12T12:04:08Z</time>
      </trkpt>
      <trkpt lat="44.26746" lon="4.99096">
        <ele>287.57</ele>
        <time>2018-02-12T12:04:13Z</time>
      </trkpt>
      <trkpt lat="44.26746" lon="4.99093">
        <ele>289.97</ele>
        <time>2018-02-12T12:04:17Z</time>
      </trkpt>
      <trkpt lat="44.26747" lon="4.99085">
        <ele>289.01</ele>
        <time>2018-02-12T12:04:25Z</time>
      </trkpt>
      <trkpt lat="44.26747" lon="4.99083">
        <ele>288.05</ele>
        <time>2018-02-12T12:04:27Z</time>
      </trkpt>
      <trkpt lat="44.26748" lon="4.99078">
        <ele>290.46</ele>
        <time>2018-02-12T12:04:32Z</time>
      </trkpt>
      <trkpt lat="44.26748" lon="4.99072">
        <ele>294.3</ele>
        <time>2018-02-12T12:04:37Z</time>
      </trkpt>
      <trkpt lat="44.26748" lon="4.99071">
        <ele>290.94</ele>
        <time>2018-02-12T12:04:39Z</time>
      </trkpt>
      <trkpt lat="44.26748" lon="4.9907">
        <ele>290.94</ele>
        <time>2018-02-12T12:04:40Z</time>
      </trkpt>
      <trkpt lat="44.26747" lon="4.99065">
        <ele>293.34</ele>
        <time>2018-02-12T12:04:45Z</time>
      </trkpt>
      <trkpt lat="44.26747" lon="4.99063">
        <ele>290.46</ele>
        <time>2018-02-12T12:04:48Z</time>
      </trkpt>
      <trkpt lat="44.26743" lon="4.99042">
        <ele>292.38</ele>
        <time>2018-02-12T12:05:04Z</time>
      </trkpt>
      <trkpt lat="44.26742" lon="4.99035">
        <ele>290.94</ele>
        <time>2018-02-12T12:05:08Z</time>
      </trkpt>
      <trkpt lat="44.26741" lon="4.99029">
        <ele>293.82</ele>
        <time>2018-02-12T12:05:15Z</time>
      </trkpt>
      <trkpt lat="44.26741" lon="4.99024">
        <ele>290.46</ele>
        <time>2018-02-12T12:05:20Z</time>
      </trkpt>
      <trkpt lat="44.26741" lon="4.99021">
        <ele>292.38</ele>
        <time>2018-02-12T12:05:22Z</time>
      </trkpt>
      <trkpt lat="44.2674" lon="4.9901">
        <ele>292.86</ele>
        <time>2018-02-12T12:05:30Z</time>
      </trkpt>
      <trkpt lat="44.2674" lon="4.99006">
        <ele>294.3</ele>
        <time>2018-02-12T12:05:33Z</time>
      </trkpt>
      <trkpt lat="44.2674" lon="4.99003">
        <ele>291.9</ele>
        <time>2018-02-12T12:05:36Z</time>
      </trkpt>
      <trkpt lat="44.2674" lon="4.99001">
        <ele>294.78</ele>
        <time>2018-02-12T12:05:39Z</time>
      </trkpt>
      <trkpt lat="44.2674" lon="4.98993">
        <ele>291.42</ele>
        <time>2018-02-12T12:05:45Z</time>
      </trkpt>
      <trkpt lat="44.2674" lon="4.98984">
        <ele>295.74</ele>
        <time>2018-02-12T12:05:52Z</time>
      </trkpt>
      <trkpt lat="44.26739" lon="4.98976">
        <ele>293.82</ele>
        <time>2018-02-12T12:05:59Z</time>
      </trkpt>
      <trkpt lat="44.26738" lon="4.9897">
        <ele>295.26</ele>
        <time>2018-02-12T12:06:04Z</time>
      </trkpt>
      <trkpt lat="44.26736" lon="4.9895">
        <ele>293.82</ele>
        <time>2018-02-12T12:06:20Z</time>
      </trkpt>
      <trkpt lat="44.26736" lon="4.98944">
        <ele>297.67</ele>
        <time>2018-02-12T12:06:25Z</time>
      </trkpt>
      <trkpt lat="44.26733" lon="4.98928">
        <ele>299.59</ele>
        <time>2018-02-12T12:06:40Z</time>
      </trkpt>
      <trkpt lat="44.26726" lon="4.98911">
        <ele>301.51</ele>
        <time>2018-02-12T12:06:55Z</time>
      </trkpt>
      <trkpt lat="44.26715" lon="4.98878">
        <ele>303.91</ele>
        <time>2018-02-12T12:07:12Z</time>
      </trkpt>
      <trkpt lat="44.26718" lon="4.98855">
        <ele>304.88</ele>
        <time>2018-02-12T12:07:29Z</time>
      </trkpt>
      <trkpt lat="44.26719" lon="4.9884">
        <ele>308.24</ele>
        <time>2018-02-12T12:07:43Z</time>
      </trkpt>
      <trkpt lat="44.2671" lon="4.98824">
        <ele>308.72</ele>
        <time>2018-02-12T12:07:59Z</time>
      </trkpt>
      <trkpt lat="44.26704" lon="4.98811">
        <ele>309.2</ele>
        <time>2018-02-12T12:08:11Z</time>
      </trkpt>
      <trkpt lat="44.26702" lon="4.98808">
        <ele>310.64</ele>
        <time>2018-02-12T12:08:15Z</time>
      </trkpt>
      <trkpt lat="44.26698" lon="4.988">
        <ele>311.12</ele>
        <time>2018-02-12T12:08:22Z</time>
      </trkpt>
      <trkpt lat="44.26691" lon="4.98783">
        <ele>313.05</ele>
        <time>2018-02-12T12:08:35Z</time>
      </trkpt>
      <trkpt lat="44.26689" lon="4.98776">
        <ele>313.53</ele>
        <time>2018-02-12T12:08:40Z</time>
      </trkpt>
      <trkpt lat="44.26687" lon="4.98771">
        <ele>312.09</ele>
        <time>2018-02-12T12:08:43Z</time>
      </trkpt>
      <trkpt lat="44.2668" lon="4.98751">
        <ele>310.16</ele>
        <time>2018-02-12T12:09:00Z</time>
      </trkpt>
      <trkpt lat="44.26679" lon="4.9875">
        <ele>315.93</ele>
        <time>2018-02-12T12:09:02Z</time>
      </trkpt>
      <trkpt lat="44.26679" lon="4.98751">
        <ele>311.6</ele>
        <time>2018-02-12T12:09:03Z</time>
      </trkpt>
      <trkpt lat="44.26675" lon="4.98744">
        <ele>313.05</ele>
        <time>2018-02-12T12:09:11Z</time>
      </trkpt>
      <trkpt lat="44.26669" lon="4.98728">
        <ele>314.49</ele>
        <time>2018-02-12T12:09:26Z</time>
      </trkpt>
      <trkpt lat="44.26654" lon="4.98706">
        <ele>314.49</ele>
        <time>2018-02-12T12:09:46Z</time>
      </trkpt>
      <trkpt lat="44.26643" lon="4.98696">
        <ele>313.05</ele>
        <time>2018-02-12T12:10:00Z</time>
      </trkpt>
      <trkpt lat="44.26637" lon="4.98684">
        <ele>315.45</ele>
        <time>2018-02-12T12:10:10Z</time>
      </trkpt>
      <trkpt lat="44.26625" lon="4.98659">
        <ele>315.93</ele>
        <time>2018-02-12T12:10:30Z</time>
      </trkpt>
      <trkpt lat="44.26615" lon="4.98635">
        <ele>314.97</ele>
        <time>2018-02-12T12:10:47Z</time>
      </trkpt>
      <trkpt lat="44.26615" lon="4.98632">
        <ele>314.97</ele>
        <time>2018-02-12T12:10:48Z</time>
      </trkpt>
      <trkpt lat="44.26622" lon="4.98613">
        <ele>314.49</ele>
        <time>2018-02-12T12:11:03Z</time>
      </trkpt>
      <trkpt lat="44.26624" lon="4.986">
        <ele>313.05</ele>
        <time>2018-02-12T12:11:11Z</time>
      </trkpt>
      <trkpt lat="44.26624" lon="4.98596">
        <ele>314.49</ele>
        <time>2018-02-12T12:11:14Z</time>
      </trkpt>
      <trkpt lat="44.26622" lon="4.98566">
        <ele>312.09</ele>
        <time>2018-02-12T12:11:34Z</time>
      </trkpt>
      <trkpt lat="44.26622" lon="4.98562">
        <ele>314.01</ele>
        <time>2018-02-12T12:11:37Z</time>
      </trkpt>
      <trkpt lat="44.26618" lon="4.98551">
        <ele>313.05</ele>
        <time>2018-02-12T12:11:46Z</time>
      </trkpt>
      <trkpt lat="44.26617" lon="4.98548">
        <ele>314.49</ele>
        <time>2018-02-12T12:11:48Z</time>
      </trkpt>
      <trkpt lat="44.2661" lon="4.98538">
        <ele>315.45</ele>
        <time>2018-02-12T12:11:59Z</time>
      </trkpt>
      <trkpt lat="44.26593" lon="4.98512">
        <ele>315.93</ele>
        <time>2018-02-12T12:12:19Z</time>
      </trkpt>
      <trkpt lat="44.26577" lon="4.98505">
        <ele>316.41</ele>
        <time>2018-02-12T12:12:35Z</time>
      </trkpt>
      <trkpt lat="44.26565" lon="4.98491">
        <ele>315.93</ele>
        <time>2018-02-12T12:12:53Z</time>
      </trkpt>
      <trkpt lat="44.26567" lon="4.98482">
        <ele>315.93</ele>
        <time>2018-02-12T12:12:59Z</time>
      </trkpt>
      <trkpt lat="44.26568" lon="4.98474">
        <ele>314.49</ele>
        <time>2018-02-12T12:13:04Z</time>
      </trkpt>
      <trkpt lat="44.26572" lon="4.98452">
        <ele>311.6</ele>
        <time>2018-02-12T12:13:18Z</time>
      </trkpt>
      <trkpt lat="44.26572" lon="4.9845">
        <ele>311.6</ele>
        <time>2018-02-12T12:13:19Z</time>
      </trkpt>
      <trkpt lat="44.26566" lon="4.98433">
        <ele>315.45</ele>
        <time>2018-02-12T12:13:34Z</time>
      </trkpt>
      <trkpt lat="44.26565" lon="4.98432">
        <ele>315.45</ele>
        <time>2018-02-12T12:13:35Z</time>
      </trkpt>
      <trkpt lat="44.26565" lon="4.98425">
        <ele>315.45</ele>
        <time>2018-02-12T12:13:40Z</time>
      </trkpt>
      <trkpt lat="44.26554" lon="4.98401">
        <ele>315.45</ele>
        <time>2018-02-12T12:13:59Z</time>
      </trkpt>
      <trkpt lat="44.26534" lon="4.98391">
        <ele>315.45</ele>
        <time>2018-02-12T12:14:19Z</time>
      </trkpt>
      <trkpt lat="44.26523" lon="4.98391">
        <ele>317.37</ele>
        <time>2018-02-12T12:14:30Z</time>
      </trkpt>
      <trkpt lat="44.26512" lon="4.98377">
        <ele>315.93</ele>
        <time>2018-02-12T12:14:47Z</time>
      </trkpt>
      <trkpt lat="44.26516" lon="4.98352">
        <ele>315.93</ele>
        <time>2018-02-12T12:15:05Z</time>
      </trkpt>
      <trkpt lat="44.26517" lon="4.98345">
        <ele>315.93</ele>
        <time>2018-02-12T12:15:09Z</time>
      </trkpt>
      <trkpt lat="44.26516" lon="4.98333">
        <ele>317.85</ele>
        <time>2018-02-12T12:15:15Z</time>
      </trkpt>
      <trkpt lat="44.26515" lon="4.98331">
        <ele>316.41</ele>
        <time>2018-02-12T12:15:18Z</time>
      </trkpt>
      <trkpt lat="44.26516" lon="4.98307">
        <ele>316.41</ele>
        <time>2018-02-12T12:15:31Z</time>
      </trkpt>
      <trkpt lat="44.26516" lon="4.98303">
        <ele>315.45</ele>
        <time>2018-02-12T12:15:33Z</time>
      </trkpt>
      <trkpt lat="44.26517" lon="4.98295">
        <ele>317.85</ele>
        <time>2018-02-12T12:15:39Z</time>
      </trkpt>
      <trkpt lat="44.26517" lon="4.98289">
        <ele>315.93</ele>
        <time>2018-02-12T12:15:42Z</time>
      </trkpt>
      <trkpt lat="44.26514" lon="4.98271">
        <ele>314.97</ele>
        <time>2018-02-12T12:15:53Z</time>
      </trkpt>
      <trkpt lat="44.26513" lon="4.98266">
        <ele>313.53</ele>
        <time>2018-02-12T12:15:57Z</time>
      </trkpt>
      <trkpt lat="44.26513" lon="4.98251">
        <ele>316.41</ele>
        <time>2018-02-12T12:16:07Z</time>
      </trkpt>
      <trkpt lat="44.26512" lon="4.98248">
        <ele>314.49</ele>
        <time>2018-02-12T12:16:09Z</time>
      </trkpt>
      <trkpt lat="44.2651" lon="4.98237">
        <ele>315.93</ele>
        <time>2018-02-12T12:16:17Z</time>
      </trkpt>
      <trkpt lat="44.26508" lon="4.98228">
        <ele>314.49</ele>
        <time>2018-02-12T12:16:24Z</time>
      </trkpt>
      <trkpt lat="44.26501" lon="4.98201">
        <ele>315.93</ele>
        <time>2018-02-12T12:16:43Z</time>
      </trkpt>
      <trkpt lat="44.265" lon="4.98197">
        <ele>314.97</ele>
        <time>2018-02-12T12:16:46Z</time>
      </trkpt>
      <trkpt lat="44.26496" lon="4.98188">
        <ele>316.41</ele>
        <time>2018-02-12T12:16:52Z</time>
      </trkpt>
      <trkpt lat="44.26493" lon="4.98183">
        <ele>314.01</ele>
        <time>2018-02-12T12:16:56Z</time>
      </trkpt>
      <trkpt lat="44.26491" lon="4.98179">
        <ele>317.37</ele>
        <time>2018-02-12T12:16:59Z</time>
      </trkpt>
      <trkpt lat="44.26485" lon="4.98174">
        <ele>316.89</ele>
        <time>2018-02-12T12:17:06Z</time>
      </trkpt>
      <trkpt lat="44.26471" lon="4.98168">
        <ele>319.3</ele>
        <time>2018-02-12T12:17:23Z</time>
      </trkpt>
      <trkpt lat="44.2647" lon="4.9815">
        <ele>318.33</ele>
        <time>2018-02-12T12:17:36Z</time>
      </trkpt>
      <trkpt lat="44.26472" lon="4.98132">
        <ele>316.41</ele>
        <time>2018-02-12T12:17:49Z</time>
      </trkpt>
      <trkpt lat="44.26472" lon="4.9811">
        <ele>315.45</ele>
        <time>2018-02-12T12:18:04Z</time>
      </trkpt>
      <trkpt lat="44.26472" lon="4.98099">
        <ele>316.41</ele>
        <time>2018-02-12T12:18:11Z</time>
      </trkpt>
      <trkpt lat="44.2647" lon="4.98087">
        <ele>315.45</ele>
        <time>2018-02-12T12:18:24Z</time>
      </trkpt>
      <trkpt lat="44.26469" lon="4.98087">
        <ele>315.45</ele>
        <time>2018-02-12T12:18:36Z</time>
      </trkpt>
      <trkpt lat="44.26472" lon="4.98078">
        <ele>315.93</ele>
        <time>2018-02-12T12:18:48Z</time>
      </trkpt>
      <trkpt lat="44.26472" lon="4.98072">
        <ele>315.93</ele>
        <time>2018-02-12T12:18:52Z</time>
      </trkpt>
      <trkpt lat="44.26471" lon="4.98063">
        <ele>314.01</ele>
        <time>2018-02-12T12:18:58Z</time>
      </trkpt>
      <trkpt lat="44.26469" lon="4.98058">
        <ele>315.45</ele>
        <time>2018-02-12T12:19:01Z</time>
      </trkpt>
      <trkpt lat="44.26465" lon="4.98046">
        <ele>314.49</ele>
        <time>2018-02-12T12:19:09Z</time>
      </trkpt>
      <trkpt lat="44.26462" lon="4.98039">
        <ele>316.89</ele>
        <time>2018-02-12T12:19:14Z</time>
      </trkpt>
      <trkpt lat="44.26461" lon="4.98036">
        <ele>315.45</ele>
        <time>2018-02-12T12:19:16Z</time>
      </trkpt>
      <trkpt lat="44.26461" lon="4.98033">
        <ele>314.49</ele>
        <time>2018-02-12T12:19:18Z</time>
      </trkpt>
      <trkpt lat="44.26459" lon="4.98028">
        <ele>316.41</ele>
        <time>2018-02-12T12:19:22Z</time>
      </trkpt>
      <trkpt lat="44.26458" lon="4.98025">
        <ele>314.97</ele>
        <time>2018-02-12T12:19:25Z</time>
      </trkpt>
      <trkpt lat="44.26457" lon="4.98022">
        <ele>318.33</ele>
        <time>2018-02-12T12:19:28Z</time>
      </trkpt>
      <trkpt lat="44.26456" lon="4.9802">
        <ele>317.37</ele>
        <time>2018-02-12T12:19:29Z</time>
      </trkpt>
      <trkpt lat="44.26452" lon="4.98012">
        <ele>318.33</ele>
        <time>2018-02-12T12:19:37Z</time>
      </trkpt>
      <trkpt lat="44.26451" lon="4.98009">
        <ele>315.93</ele>
        <time>2018-02-12T12:19:39Z</time>
      </trkpt>
      <trkpt lat="44.26439" lon="4.9798">
        <ele>316.89</ele>
        <time>2018-02-12T12:20:00Z</time>
      </trkpt>
      <trkpt lat="44.26432" lon="4.97963">
        <ele>316.41</ele>
        <time>2018-02-12T12:20:12Z</time>
      </trkpt>
      <trkpt lat="44.26421" lon="4.97937">
        <ele>316.89</ele>
        <time>2018-02-12T12:20:31Z</time>
      </trkpt>
      <trkpt lat="44.26411" lon="4.9791">
        <ele>315.45</ele>
        <time>2018-02-12T12:20:51Z</time>
      </trkpt>
      <trkpt lat="44.26411" lon="4.97909">
        <ele>315.45</ele>
        <time>2018-02-12T12:20:52Z</time>
      </trkpt>
      <trkpt lat="44.26403" lon="4.97883">
        <ele>317.85</ele>
        <time>2018-02-12T12:21:13Z</time>
      </trkpt>
      <trkpt lat="44.26395" lon="4.97853">
        <ele>318.33</ele>
        <time>2018-02-12T12:21:33Z</time>
      </trkpt>
      <trkpt lat="44.26391" lon="4.97829">
        <ele>316.41</ele>
        <time>2018-02-12T12:21:50Z</time>
      </trkpt>
      <trkpt lat="44.26386" lon="4.97792">
        <ele>316.41</ele>
        <time>2018-02-12T12:22:14Z</time>
      </trkpt>
      <trkpt lat="44.26383" lon="4.97777">
        <ele>317.37</ele>
        <time>2018-02-12T12:22:24Z</time>
      </trkpt>
      <trkpt lat="44.26382" lon="4.97772">
        <ele>315.93</ele>
        <time>2018-02-12T12:22:28Z</time>
      </trkpt>
      <trkpt lat="44.26374" lon="4.97744">
        <ele>314.97</ele>
        <time>2018-02-12T12:22:47Z</time>
      </trkpt>
      <trkpt lat="44.2637" lon="4.97723">
        <ele>316.89</ele>
        <time>2018-02-12T12:23:01Z</time>
      </trkpt>
      <trkpt lat="44.26367" lon="4.97707">
        <ele>314.97</ele>
        <time>2018-02-12T12:23:12Z</time>
      </trkpt>
      <trkpt lat="44.26364" lon="4.97676">
        <ele>313.53</ele>
        <time>2018-02-12T12:23:32Z</time>
      </trkpt>
      <trkpt lat="44.26362" lon="4.97672">
        <ele>311.6</ele>
        <time>2018-02-12T12:23:35Z</time>
      </trkpt>
      <trkpt lat="44.26355" lon="4.97646">
        <ele>310.16</ele>
        <time>2018-02-12T12:23:53Z</time>
      </trkpt>
      <trkpt lat="44.26348" lon="4.97615">
        <ele>309.68</ele>
        <time>2018-02-12T12:24:15Z</time>
      </trkpt>
      <trkpt lat="44.26347" lon="4.97609">
        <ele>307.76</ele>
        <time>2018-02-12T12:24:19Z</time>
      </trkpt>
      <trkpt lat="44.2634" lon="4.9759">
        <ele>304.88</ele>
        <time>2018-02-12T12:24:34Z</time>
      </trkpt>
      <trkpt lat="44.26333" lon="4.97565">
        <ele>302.95</ele>
        <time>2018-02-12T12:24:52Z</time>
      </trkpt>
      <trkpt lat="44.26325" lon="4.9754">
        <ele>300.55</ele>
        <time>2018-02-12T12:25:10Z</time>
      </trkpt>
      <trkpt lat="44.26322" lon="4.97534">
        <ele>301.51</ele>
        <time>2018-02-12T12:25:14Z</time>
      </trkpt>
      <trkpt lat="44.26316" lon="4.97512">
        <ele>298.15</ele>
        <time>2018-02-12T12:25:31Z</time>
      </trkpt>
      <trkpt lat="44.26313" lon="4.97499">
        <ele>298.63</ele>
        <time>2018-02-12T12:25:41Z</time>
      </trkpt>
      <trkpt lat="44.26307" lon="4.97475">
        <ele>295.74</ele>
        <time>2018-02-12T12:25:58Z</time>
      </trkpt>
      <trkpt lat="44.26306" lon="4.97465">
        <ele>295.26</ele>
        <time>2018-02-12T12:26:06Z</time>
      </trkpt>
      <trkpt lat="44.26307" lon="4.97467">
        <ele>297.18</ele>
        <time>2018-02-12T12:26:15Z</time>
      </trkpt>
      <trkpt lat="44.26309" lon="4.97467">
        <ele>296.22</ele>
        <time>2018-02-12T12:26:22Z</time>
      </trkpt>
      <trkpt lat="44.26309" lon="4.97467">
        <ele>296.7</ele>
        <time>2018-02-12T12:26:29Z</time>
      </trkpt>
      <trkpt lat="44.26309" lon="4.97467">
        <ele>294.3</ele>
        <time>2018-02-12T12:26:38Z</time>
      </trkpt>
      <trkpt lat="44.26309" lon="4.97467">
        <ele>297.67</ele>
        <time>2018-02-12T12:26:40Z</time>
      </trkpt>
      <trkpt lat="44.2631" lon="4.97467">
        <ele>297.67</ele>
        <time>2018-02-12T12:26:41Z</time>
      </trkpt>
      <trkpt lat="44.26311" lon="4.97464">
        <ele>294.78</ele>
        <time>2018-02-12T12:26:51Z</time>
      </trkpt>
      <trkpt lat="44.26301" lon="4.97438">
        <ele>292.86</ele>
        <time>2018-02-12T12:27:12Z</time>
      </trkpt>
      <trkpt lat="44.26287" lon="4.97413">
        <ele>290.46</ele>
        <time>2018-02-12T12:27:35Z</time>
      </trkpt>
      <trkpt lat="44.26272" lon="4.97399">
        <ele>289.01</ele>
        <time>2018-02-12T12:27:53Z</time>
      </trkpt>
      <trkpt lat="44.26265" lon="4.97395">
        <ele>288.05</ele>
        <time>2018-02-12T12:28:02Z</time>
      </trkpt>
      <trkpt lat="44.26263" lon="4.97383">
        <ele>285.17</ele>
        <time>2018-02-12T12:28:17Z</time>
      </trkpt>
      <trkpt lat="44.26274" lon="4.9737">
        <ele>283.73</ele>
        <time>2018-02-12T12:28:33Z</time>
      </trkpt>
      <trkpt lat="44.26287" lon="4.9736">
        <ele>281.8</ele>
        <time>2018-02-12T12:28:50Z</time>
      </trkpt>
      <trkpt lat="44.26305" lon="4.97347">
        <ele>280.36</ele>
        <time>2018-02-12T12:29:09Z</time>
      </trkpt>
      <trkpt lat="44.2632" lon="4.97333">
        <ele>277.48</ele>
        <time>2018-02-12T12:29:27Z</time>
      </trkpt>
      <trkpt lat="44.2632" lon="4.97321">
        <ele>276.52</ele>
        <time>2018-02-12T12:29:36Z</time>
      </trkpt>
      <trkpt lat="44.26315" lon="4.97306">
        <ele>277.96</ele>
        <time>2018-02-12T12:29:47Z</time>
      </trkpt>
      <trkpt lat="44.26308" lon="4.97284">
        <ele>276.52</ele>
        <time>2018-02-12T12:30:03Z</time>
      </trkpt>
      <trkpt lat="44.26306" lon="4.97279">
        <ele>276.04</ele>
        <time>2018-02-12T12:30:08Z</time>
      </trkpt>
      <trkpt lat="44.26303" lon="4.97269">
        <ele>278.44</ele>
        <time>2018-02-12T12:30:16Z</time>
      </trkpt>
      <trkpt lat="44.26305" lon="4.97265">
        <ele>279.88</ele>
        <time>2018-02-12T12:30:33Z</time>
      </trkpt>
      <trkpt lat="44.26304" lon="4.97265">
        <ele>278.92</ele>
        <time>2018-02-12T12:30:40Z</time>
      </trkpt>
      <trkpt lat="44.26307" lon="4.97261">
        <ele>277.96</ele>
        <time>2018-02-12T12:30:46Z</time>
      </trkpt>
      <trkpt lat="44.26321" lon="4.97243">
        <ele>277</ele>
        <time>2018-02-12T12:31:07Z</time>
      </trkpt>
      <trkpt lat="44.26327" lon="4.97232">
        <ele>277</ele>
        <time>2018-02-12T12:31:25Z</time>
      </trkpt>
      <trkpt lat="44.26332" lon="4.97228">
        <ele>275.56</ele>
        <time>2018-02-12T12:31:41Z</time>
      </trkpt>
      <trkpt lat="44.26347" lon="4.97208">
        <ele>272.67</ele>
        <time>2018-02-12T12:32:05Z</time>
      </trkpt>
      <trkpt lat="44.26348" lon="4.97206">
        <ele>271.23</ele>
        <time>2018-02-12T12:32:07Z</time>
      </trkpt>
      <trkpt lat="44.26356" lon="4.97198">
        <ele>266.9</ele>
        <time>2018-02-12T12:32:19Z</time>
      </trkpt>
      <trkpt lat="44.26363" lon="4.97192">
        <ele>264.98</ele>
        <time>2018-02-12T12:32:30Z</time>
      </trkpt>
      <trkpt lat="44.26367" lon="4.97189">
        <ele>265.94</ele>
        <time>2018-02-12T12:32:36Z</time>
      </trkpt>
      <trkpt lat="44.26373" lon="4.97187">
        <ele>264.02</ele>
        <time>2018-02-12T12:32:43Z</time>
      </trkpt>
      <trkpt lat="44.26378" lon="4.97185">
        <ele>262.58</ele>
        <time>2018-02-12T12:32:48Z</time>
      </trkpt>
      <trkpt lat="44.26382" lon="4.97184">
        <ele>260.65</ele>
        <time>2018-02-12T12:32:52Z</time>
      </trkpt>
      <trkpt lat="44.26393" lon="4.97183">
        <ele>259.69</ele>
        <time>2018-02-12T12:33:02Z</time>
      </trkpt>
      <trkpt lat="44.26398" lon="4.97181">
        <ele>257.77</ele>
        <time>2018-02-12T12:33:09Z</time>
      </trkpt>
      <trkpt lat="44.26412" lon="4.97173">
        <ele>256.81</ele>
        <time>2018-02-12T12:33:27Z</time>
      </trkpt>
      <trkpt lat="44.26419" lon="4.97166">
        <ele>254.41</ele>
        <time>2018-02-12T12:33:37Z</time>
      </trkpt>
      <trkpt lat="44.26419" lon="4.97165">
        <ele>255.85</ele>
        <time>2018-02-12T12:33:39Z</time>
      </trkpt>
      <trkpt lat="44.26423" lon="4.97161">
        <ele>254.41</ele>
        <time>2018-02-12T12:33:48Z</time>
      </trkpt>
      <trkpt lat="44.26424" lon="4.97158">
        <ele>255.85</ele>
        <time>2018-02-12T12:33:51Z</time>
      </trkpt>
      <trkpt lat="44.26426" lon="4.97155">
        <ele>253.93</ele>
        <time>2018-02-12T12:33:54Z</time>
      </trkpt>
      <trkpt lat="44.26429" lon="4.9715">
        <ele>253.44</ele>
        <time>2018-02-12T12:33:59Z</time>
      </trkpt>
      <trkpt lat="44.26432" lon="4.97145">
        <ele>254.41</ele>
        <time>2018-02-12T12:34:05Z</time>
      </trkpt>
      <trkpt lat="44.26433" lon="4.97143">
        <ele>252.48</ele>
        <time>2018-02-12T12:34:07Z</time>
      </trkpt>
      <trkpt lat="44.26436" lon="4.9714">
        <ele>253.93</ele>
        <time>2018-02-12T12:34:12Z</time>
      </trkpt>
      <trkpt lat="44.26437" lon="4.97139">
        <ele>252.48</ele>
        <time>2018-02-12T12:34:14Z</time>
      </trkpt>
      <trkpt lat="44.26439" lon="4.97137">
        <ele>253.44</ele>
        <time>2018-02-12T12:34:16Z</time>
      </trkpt>
      <trkpt lat="44.26444" lon="4.9713">
        <ele>252.48</ele>
        <time>2018-02-12T12:34:25Z</time>
      </trkpt>
      <trkpt lat="44.26453" lon="4.97124">
        <ele>249.6</ele>
        <time>2018-02-12T12:34:35Z</time>
      </trkpt>
      <trkpt lat="44.26453" lon="4.97123">
        <ele>249.6</ele>
        <time>2018-02-12T12:34:36Z</time>
      </trkpt>
      <trkpt lat="44.26468" lon="4.97117">
        <ele>246.23</ele>
        <time>2018-02-12T12:34:55Z</time>
      </trkpt>
      <trkpt lat="44.26483" lon="4.97108">
        <ele>244.79</ele>
        <time>2018-02-12T12:35:14Z</time>
      </trkpt>
      <trkpt lat="44.26494" lon="4.97103">
        <ele>242.39</ele>
        <time>2018-02-12T12:35:29Z</time>
      </trkpt>
      <trkpt lat="44.26503" lon="4.97098">
        <ele>239.51</ele>
        <time>2018-02-12T12:35:42Z</time>
      </trkpt>
      <trkpt lat="44.26518" lon="4.97091">
        <ele>237.1</ele>
        <time>2018-02-12T12:35:59Z</time>
      </trkpt>
      <trkpt lat="44.26519" lon="4.97091">
        <ele>237.1</ele>
        <time>2018-02-12T12:36:01Z</time>
      </trkpt>
      <trkpt lat="44.26541" lon="4.97085">
        <ele>234.22</ele>
        <time>2018-02-12T12:36:21Z</time>
      </trkpt>
      <trkpt lat="44.26557" lon="4.97079">
        <ele>233.26</ele>
        <time>2018-02-12T12:36:38Z</time>
      </trkpt>
      <trkpt lat="44.2656" lon="4.97078">
        <ele>231.81</ele>
        <time>2018-02-12T12:36:41Z</time>
      </trkpt>
      <trkpt lat="44.26571" lon="4.97068">
        <ele>228.45</ele>
        <time>2018-02-12T12:36:54Z</time>
      </trkpt>
      <trkpt lat="44.26574" lon="4.97064">
        <ele>228.45</ele>
        <time>2018-02-12T12:36:59Z</time>
      </trkpt>
      <trkpt lat="44.26581" lon="4.97052">
        <ele>227.97</ele>
        <time>2018-02-12T12:37:11Z</time>
      </trkpt>
      <trkpt lat="44.26583" lon="4.97049">
        <ele>226.05</ele>
        <time>2018-02-12T12:37:14Z</time>
      </trkpt>
      <trkpt lat="44.26588" lon="4.97042">
        <ele>222.2</ele>
        <time>2018-02-12T12:37:22Z</time>
      </trkpt>
      <trkpt lat="44.26588" lon="4.97041">
        <ele>222.2</ele>
        <time>2018-02-12T12:37:23Z</time>
      </trkpt>
      <trkpt lat="44.26592" lon="4.97036">
        <ele>224.12</ele>
        <time>2018-02-12T12:37:29Z</time>
      </trkpt>
      <trkpt lat="44.26594" lon="4.97033">
        <ele>220.76</ele>
        <time>2018-02-12T12:37:32Z</time>
      </trkpt>
      <trkpt lat="44.26596" lon="4.9703">
        <ele>223.64</ele>
        <time>2018-02-12T12:37:35Z</time>
      </trkpt>
      <trkpt lat="44.26598" lon="4.97027">
        <ele>222.2</ele>
        <time>2018-02-12T12:37:39Z</time>
      </trkpt>
      <trkpt lat="44.266" lon="4.97026">
        <ele>219.8</ele>
        <time>2018-02-12T12:37:41Z</time>
      </trkpt>
      <trkpt lat="44.26608" lon="4.97014">
        <ele>218.36</ele>
        <time>2018-02-12T12:37:54Z</time>
      </trkpt>
      <trkpt lat="44.2661" lon="4.97013">
        <ele>221.72</ele>
        <time>2018-02-12T12:37:56Z</time>
      </trkpt>
      <trkpt lat="44.26611" lon="4.97013">
        <ele>221.72</ele>
        <time>2018-02-12T12:37:57Z</time>
      </trkpt>
      <trkpt lat="44.26612" lon="4.97011">
        <ele>218.36</ele>
        <time>2018-02-12T12:37:59Z</time>
      </trkpt>
      <trkpt lat="44.26613" lon="4.97009">
        <ele>215.47</ele>
        <time>2018-02-12T12:38:01Z</time>
      </trkpt>
      <trkpt lat="44.26615" lon="4.97007">
        <ele>213.55</ele>
        <time>2018-02-12T12:38:03Z</time>
      </trkpt>
      <trkpt lat="44.26616" lon="4.97005">
        <ele>215.95</ele>
        <time>2018-02-12T12:38:06Z</time>
      </trkpt>
      <trkpt lat="44.26625" lon="4.96992">
        <ele>216.91</ele>
        <time>2018-02-12T12:38:20Z</time>
      </trkpt>
      <trkpt lat="44.26635" lon="4.96976">
        <ele>216.43</ele>
        <time>2018-02-12T12:38:36Z</time>
      </trkpt>
      <trkpt lat="44.26643" lon="4.96965">
        <ele>213.55</ele>
        <time>2018-02-12T12:38:47Z</time>
      </trkpt>
      <trkpt lat="44.26646" lon="4.9696">
        <ele>212.11</ele>
        <time>2018-02-12T12:38:52Z</time>
      </trkpt>
      <trkpt lat="44.26648" lon="4.96958">
        <ele>213.55</ele>
        <time>2018-02-12T12:38:54Z</time>
      </trkpt>
      <trkpt lat="44.26656" lon="4.96946">
        <ele>210.19</ele>
        <time>2018-02-12T12:39:06Z</time>
      </trkpt>
      <trkpt lat="44.26659" lon="4.96942">
        <ele>207.3</ele>
        <time>2018-02-12T12:39:10Z</time>
      </trkpt>
      <trkpt lat="44.26661" lon="4.96939">
        <ele>210.67</ele>
        <time>2018-02-12T12:39:13Z</time>
      </trkpt>
      <trkpt lat="44.26662" lon="4.96938">
        <ele>210.67</ele>
        <time>2018-02-12T12:39:14Z</time>
      </trkpt>
      <trkpt lat="44.26679" lon="4.96912">
        <ele>208.26</ele>
        <time>2018-02-12T12:39:40Z</time>
      </trkpt>
      <trkpt lat="44.26687" lon="4.96903">
        <ele>207.78</ele>
        <time>2018-02-12T12:39:51Z</time>
      </trkpt>
      <trkpt lat="44.26689" lon="4.969">
        <ele>205.38</ele>
        <time>2018-02-12T12:39:53Z</time>
      </trkpt>
      <trkpt lat="44.26706" lon="4.96881">
        <ele>202.01</ele>
        <time>2018-02-12T12:40:16Z</time>
      </trkpt>
      <trkpt lat="44.26709" lon="4.96878">
        <ele>203.94</ele>
        <time>2018-02-12T12:40:20Z</time>
      </trkpt>
      <trkpt lat="44.2671" lon="4.96876">
        <ele>201.53</ele>
        <time>2018-02-12T12:40:22Z</time>
      </trkpt>
      <trkpt lat="44.26713" lon="4.96873">
        <ele>197.21</ele>
        <time>2018-02-12T12:40:26Z</time>
      </trkpt>
      <trkpt lat="44.26713" lon="4.96872">
        <ele>200.57</ele>
        <time>2018-02-12T12:40:27Z</time>
      </trkpt>
      <trkpt lat="44.26715" lon="4.9687">
        <ele>196.73</ele>
        <time>2018-02-12T12:40:30Z</time>
      </trkpt>
      <trkpt lat="44.26716" lon="4.96869">
        <ele>196.73</ele>
        <time>2018-02-12T12:40:31Z</time>
      </trkpt>
      <trkpt lat="44.26717" lon="4.96868">
        <ele>200.09</ele>
        <time>2018-02-12T12:40:32Z</time>
      </trkpt>
      <trkpt lat="44.26718" lon="4.96867">
        <ele>200.09</ele>
        <time>2018-02-12T12:40:33Z</time>
      </trkpt>
      <trkpt lat="44.26721" lon="4.96863">
        <ele>195.77</ele>
        <time>2018-02-12T12:40:37Z</time>
      </trkpt>
      <trkpt lat="44.26721" lon="4.96862">
        <ele>199.13</ele>
        <time>2018-02-12T12:40:38Z</time>
      </trkpt>
      <trkpt lat="44.26726" lon="4.96856">
        <ele>195.77</ele>
        <time>2018-02-12T12:40:44Z</time>
      </trkpt>
      <trkpt lat="44.26727" lon="4.96854">
        <ele>194.8</ele>
        <time>2018-02-12T12:40:46Z</time>
      </trkpt>
      <trkpt lat="44.26728" lon="4.96852">
        <ele>200.57</ele>
        <time>2018-02-12T12:40:48Z</time>
      </trkpt>
      <trkpt lat="44.26729" lon="4.96851">
        <ele>200.57</ele>
        <time>2018-02-12T12:40:49Z</time>
      </trkpt>
      <trkpt lat="44.2673" lon="4.9685">
        <ele>199.13</ele>
        <time>2018-02-12T12:40:51Z</time>
      </trkpt>
      <trkpt lat="44.26734" lon="4.96841">
        <ele>200.09</ele>
        <time>2018-02-12T12:40:59Z</time>
      </trkpt>
      <trkpt lat="44.26737" lon="4.96835">
        <ele>197.69</ele>
        <time>2018-02-12T12:41:04Z</time>
      </trkpt>
      <trkpt lat="44.26742" lon="4.96822">
        <ele>194.32</ele>
        <time>2018-02-12T12:41:15Z</time>
      </trkpt>
      <trkpt lat="44.26742" lon="4.96821">
        <ele>194.32</ele>
        <time>2018-02-12T12:41:16Z</time>
      </trkpt>
      <trkpt lat="44.26743" lon="4.9682">
        <ele>194.32</ele>
        <time>2018-02-12T12:41:17Z</time>
      </trkpt>
      <trkpt lat="44.2675" lon="4.96812">
        <ele>193.84</ele>
        <time>2018-02-12T12:41:25Z</time>
      </trkpt>
      <trkpt lat="44.26756" lon="4.96803">
        <ele>191.44</ele>
        <time>2018-02-12T12:41:34Z</time>
      </trkpt>
      <trkpt lat="44.2677" lon="4.96788">
        <ele>189.04</ele>
        <time>2018-02-12T12:41:51Z</time>
      </trkpt>
      <trkpt lat="44.26778" lon="4.96778">
        <ele>191.44</ele>
        <time>2018-02-12T12:42:01Z</time>
      </trkpt>
      <trkpt lat="44.26779" lon="4.96776">
        <ele>189.04</ele>
        <time>2018-02-12T12:42:03Z</time>
      </trkpt>
      <trkpt lat="44.26784" lon="4.96771">
        <ele>190</ele>
        <time>2018-02-12T12:42:08Z</time>
      </trkpt>
      <trkpt lat="44.26793" lon="4.96761">
        <ele>186.15</ele>
        <time>2018-02-12T12:42:20Z</time>
      </trkpt>
      <trkpt lat="44.26794" lon="4.9676">
        <ele>186.15</ele>
        <time>2018-02-12T12:42:21Z</time>
      </trkpt>
      <trkpt lat="44.268" lon="4.96753">
        <ele>185.67</ele>
        <time>2018-02-12T12:42:30Z</time>
      </trkpt>
      <trkpt lat="44.26804" lon="4.96752">
        <ele>187.11</ele>
        <time>2018-02-12T12:42:33Z</time>
      </trkpt>
      <trkpt lat="44.26806" lon="4.96751">
        <ele>185.19</ele>
        <time>2018-02-12T12:42:35Z</time>
      </trkpt>
      <trkpt lat="44.26807" lon="4.96751">
        <ele>185.67</ele>
        <time>2018-02-12T12:42:36Z</time>
      </trkpt>
      <trkpt lat="44.26823" lon="4.96742">
        <ele>183.27</ele>
        <time>2018-02-12T12:42:52Z</time>
      </trkpt>
      <trkpt lat="44.26826" lon="4.9674">
        <ele>184.71</ele>
        <time>2018-02-12T12:42:55Z</time>
      </trkpt>
      <trkpt lat="44.2683" lon="4.96737">
        <ele>182.79</ele>
        <time>2018-02-12T12:43:00Z</time>
      </trkpt>
      <trkpt lat="44.26833" lon="4.96733">
        <ele>184.71</ele>
        <time>2018-02-12T12:43:04Z</time>
      </trkpt>
      <trkpt lat="44.26836" lon="4.96731">
        <ele>179.42</ele>
        <time>2018-02-12T12:43:07Z</time>
      </trkpt>
      <trkpt lat="44.26838" lon="4.9673">
        <ele>178.46</ele>
        <time>2018-02-12T12:43:09Z</time>
      </trkpt>
      <trkpt lat="44.26841" lon="4.96728">
        <ele>178.46</ele>
        <time>2018-02-12T12:43:13Z</time>
      </trkpt>
      <trkpt lat="44.26842" lon="4.96727">
        <ele>181.83</ele>
        <time>2018-02-12T12:43:14Z</time>
      </trkpt>
      <trkpt lat="44.26843" lon="4.96726">
        <ele>181.83</ele>
        <time>2018-02-12T12:43:15Z</time>
      </trkpt>
      <trkpt lat="44.26844" lon="4.96725">
        <ele>177.98</ele>
        <time>2018-02-12T12:43:18Z</time>
      </trkpt>
      <trkpt lat="44.26845" lon="4.96724">
        <ele>177.98</ele>
        <time>2018-02-12T12:43:19Z</time>
      </trkpt>
      <trkpt lat="44.26853" lon="4.96718">
        <ele>174.62</ele>
        <time>2018-02-12T12:43:29Z</time>
      </trkpt>
      <trkpt lat="44.26854" lon="4.96717">
        <ele>174.62</ele>
        <time>2018-02-12T12:43:30Z</time>
      </trkpt>
      <trkpt lat="44.26856" lon="4.96715">
        <ele>176.54</ele>
        <time>2018-02-12T12:43:33Z</time>
      </trkpt>
      <trkpt lat="44.26861" lon="4.96712">
        <ele>175.58</ele>
        <time>2018-02-12T12:43:38Z</time>
      </trkpt>
      <trkpt lat="44.26866" lon="4.96709">
        <ele>176.54</ele>
        <time>2018-02-12T12:43:44Z</time>
      </trkpt>
      <trkpt lat="44.26872" lon="4.96706">
        <ele>175.1</ele>
        <time>2018-02-12T12:43:50Z</time>
      </trkpt>
      <trkpt lat="44.26874" lon="4.96704">
        <ele>176.54</ele>
        <time>2018-02-12T12:43:52Z</time>
      </trkpt>
      <trkpt lat="44.26881" lon="4.967">
        <ele>175.58</ele>
        <time>2018-02-12T12:44:00Z</time>
      </trkpt>
      <trkpt lat="44.26902" lon="4.96687">
        <ele>174.14</ele>
        <time>2018-02-12T12:44:24Z</time>
      </trkpt>
      <trkpt lat="44.26912" lon="4.96675">
        <ele>170.77</ele>
        <time>2018-02-12T12:44:40Z</time>
      </trkpt>
      <trkpt lat="44.26915" lon="4.96672">
        <ele>172.69</ele>
        <time>2018-02-12T12:44:44Z</time>
      </trkpt>
      <trkpt lat="44.2692" lon="4.96664">
        <ele>170.29</ele>
        <time>2018-02-12T12:44:53Z</time>
      </trkpt>
      <trkpt lat="44.26921" lon="4.96663">
        <ele>169.33</ele>
        <time>2018-02-12T12:44:54Z</time>
      </trkpt>
      <trkpt lat="44.26921" lon="4.96662">
        <ele>169.81</ele>
        <time>2018-02-12T12:44:55Z</time>
      </trkpt>
      <trkpt lat="44.26932" lon="4.96641">
        <ele>168.85</ele>
        <time>2018-02-12T12:45:15Z</time>
      </trkpt>
      <trkpt lat="44.26934" lon="4.96636">
        <ele>168.37</ele>
        <time>2018-02-12T12:45:25Z</time>
      </trkpt>
      <trkpt lat="44.2695" lon="4.96625">
        <ele>167.89</ele>
        <time>2018-02-12T12:45:43Z</time>
      </trkpt>
      <trkpt lat="44.26956" lon="4.96619">
        <ele>168.37</ele>
        <time>2018-02-12T12:45:50Z</time>
      </trkpt>
      <trkpt lat="44.26957" lon="4.96616">
        <ele>166.45</ele>
        <time>2018-02-12T12:45:53Z</time>
      </trkpt>
      <trkpt lat="44.2696" lon="4.9661">
        <ele>167.89</ele>
        <time>2018-02-12T12:45:59Z</time>
      </trkpt>
      <trkpt lat="44.26961" lon="4.96594">
        <ele>165</ele>
        <time>2018-02-12T12:46:12Z</time>
      </trkpt>
      <trkpt lat="44.26961" lon="4.96569">
        <ele>163.56</ele>
        <time>2018-02-12T12:46:34Z</time>
      </trkpt>
      <trkpt lat="44.26961" lon="4.96547">
        <ele>161.64</ele>
        <time>2018-02-12T12:46:53Z</time>
      </trkpt>
      <trkpt lat="44.26962" lon="4.96531">
        <ele>160.68</ele>
        <time>2018-02-12T12:47:09Z</time>
      </trkpt>
      <trkpt lat="44.26964" lon="4.96513">
        <ele>159.72</ele>
        <time>2018-02-12T12:47:25Z</time>
      </trkpt>
      <trkpt lat="44.26973" lon="4.965">
        <ele>156.83</ele>
        <time>2018-02-12T12:47:41Z</time>
      </trkpt>
      <trkpt lat="44.26977" lon="4.96498">
        <ele>155.87</ele>
        <time>2018-02-12T12:47:56Z</time>
      </trkpt>
      <trkpt lat="44.26979" lon="4.965">
        <ele>157.79</ele>
        <time>2018-02-12T12:48:13Z</time>
      </trkpt>
      <trkpt lat="44.26982" lon="4.96499">
        <ele>154.91</ele>
        <time>2018-02-12T12:48:22Z</time>
      </trkpt>
      <trkpt lat="44.26984" lon="4.96499">
        <ele>156.83</ele>
        <time>2018-02-12T12:48:26Z</time>
      </trkpt>
      <trkpt lat="44.26987" lon="4.965">
        <ele>154.91</ele>
        <time>2018-02-12T12:48:29Z</time>
      </trkpt>
      <trkpt lat="44.26994" lon="4.965">
        <ele>154.43</ele>
        <time>2018-02-12T12:48:38Z</time>
      </trkpt>
      <trkpt lat="44.26996" lon="4.96501">
        <ele>155.87</ele>
        <time>2018-02-12T12:48:40Z</time>
      </trkpt>
      <trkpt lat="44.27" lon="4.965">
        <ele>154.43</ele>
        <time>2018-02-12T12:48:45Z</time>
      </trkpt>
      <trkpt lat="44.27005" lon="4.96498">
        <ele>155.39</ele>
        <time>2018-02-12T12:48:51Z</time>
      </trkpt>
      <trkpt lat="44.27012" lon="4.96494">
        <ele>153.95</ele>
        <time>2018-02-12T12:48:59Z</time>
      </trkpt>
      <trkpt lat="44.27018" lon="4.96489">
        <ele>151.54</ele>
        <time>2018-02-12T12:49:07Z</time>
      </trkpt>
      <trkpt lat="44.27021" lon="4.96487">
        <ele>152.99</ele>
        <time>2018-02-12T12:49:11Z</time>
      </trkpt>
      <trkpt lat="44.27023" lon="4.96486">
        <ele>150.58</ele>
        <time>2018-02-12T12:49:13Z</time>
      </trkpt>
      <trkpt lat="44.27025" lon="4.96484">
        <ele>152.99</ele>
        <time>2018-02-12T12:49:16Z</time>
      </trkpt>
      <trkpt lat="44.27024" lon="4.96467">
        <ele>150.1</ele>
        <time>2018-02-12T12:49:30Z</time>
      </trkpt>
      <trkpt lat="44.2704" lon="4.96452">
        <ele>151.06</ele>
        <time>2018-02-12T12:49:51Z</time>
      </trkpt>
      <trkpt lat="44.2705" lon="4.96444">
        <ele>149.62</ele>
        <time>2018-02-12T12:50:08Z</time>
      </trkpt>
      <trkpt lat="44.27051" lon="4.96444">
        <ele>150.58</ele>
        <time>2018-02-12T12:50:16Z</time>
      </trkpt>
      <trkpt lat="44.27055" lon="4.96442">
        <ele>152.03</ele>
        <time>2018-02-12T12:50:22Z</time>
      </trkpt>
      <trkpt lat="44.27057" lon="4.96441">
        <ele>150.1</ele>
        <time>2018-02-12T12:50:28Z</time>
      </trkpt>
      <trkpt lat="44.27058" lon="4.96443">
        <ele>148.18</ele>
        <time>2018-02-12T12:50:44Z</time>
      </trkpt>
      <trkpt lat="44.27059" lon="4.96445">
        <ele>149.14</ele>
        <time>2018-02-12T12:50:52Z</time>
      </trkpt>
      <trkpt lat="44.27059" lon="4.96443">
        <ele>149.14</ele>
        <time>2018-02-12T12:51:12Z</time>
      </trkpt>
      <trkpt lat="44.27059" lon="4.96443">
        <ele>146.26</ele>
        <time>2018-02-12T12:51:15Z</time>
      </trkpt>
      <trkpt lat="44.27059" lon="4.96444">
        <ele>153.47</ele>
        <time>2018-02-12T12:51:16Z</time>
      </trkpt>
      <trkpt lat="44.27058" lon="4.96444">
        <ele>151.06</ele>
        <time>2018-02-12T12:51:17Z</time>
      </trkpt>
    </trkseg>
  </trk>
</gpx>